Darstellungsparameter: Aktuell verwendete Einstellungen:
Skalierung der Graphiken ... ?
xyx+y,   Skalierungsfaktor:      Skalierung: Modus: x, Faktor: 1
Darstellungszeitraum ... ?
Vom - - bis: - -   Zeitraum: 25.03.2010 - 24.09.2010
Min/Max/Avg-Anzeige ... ?
Zeige MMA aktuell
Zeige MMA Monat
Zeige MMA alles
Zeige --A aktuell
Zeige --A Monat
Zeige --A alles
Keine MMA-Anzeige
MMA:
Average (ber die Originaldaten)
MMA-Basis: 23.08.2010 - 25.09.2010
Quicknavigation für Darstellung... ?
Tage:      1T, 2T, 3T, 5T -1T -2T -3T -5T +1T +2T +3T +5T
Wochen: 1W, 2W, 3W -1W -2W -3W +1W +2W +3W
Monate: 1M, 3M, 6M -1M -3M -6M +1M +3M +6M
Jahre:    1J, 3J, 5J, 10J -1J -3J -5J -10J +1J +3J +5J +10J
Nutze für die Darstellung ... ?
Originaldaten oder Mittelwerte auf ...
Stundenbasis Tagesbasis Wochenbasis
Monatsbasis Jahresbasis      Datenbasis: Original-Daten
Darstellen als:
Statistik (Auto) Statistik J:M      Darstellung:
Zur Graphik,    zurück zur Übersicht aller Sensoren.
 
Tabellarische Datenbersicht: ?
 
Sensor: Nr:Datum:Temp:Abs-Feuchte:Windchill:Wind:
Aussen-T/F 1 25-03-2010 00:07:02 10.6 C 6.25 g/m*3 10.6 C 0 km/h
2 25-03-2010 00:19:02 10.5 C 6.21 g/m*3 10.5 C 0 km/h
3 25-03-2010 00:31:02 10.4 C 6.07 g/m*3 10.4 C 0 km/h
4 25-03-2010 00:43:02 10.1 C 6.05 g/m*3 10.1 C 0 km/h
5 25-03-2010 00:55:01 9.7 C 6.08 g/m*3 9.7 C 0 km/h
6 25-03-2010 01:07:02 9.4 C 6.06 g/m*3 9.4 C 0 km/h
7 25-03-2010 01:19:01 9.3 C 6.11 g/m*3 9.3 C 0 km/h
8 25-03-2010 01:31:01 9.2 C 6.16 g/m*3 9.2 C 0 km/h
9 25-03-2010 01:43:01 9 C 6.08 g/m*3 9 C 0 km/h
10 25-03-2010 01:55:01 8.9 C 6.13 g/m*3 8.9 C 0 km/h
11 25-03-2010 02:07:02 8.9 C 6.22 g/m*3 8.9 C 0 km/h
12 25-03-2010 02:19:02 8.8 C 6.18 g/m*3 8.8 C 0 km/h
13 25-03-2010 02:31:01 8.6 C 6.19 g/m*3 8.6 C 0 km/h
14 25-03-2010 02:43:01 8.7 C 6.23 g/m*3 8.7 C 0 km/h
15 25-03-2010 02:55:01 8.6 C 6.27 g/m*3 8.6 C 0 km/h
16 25-03-2010 03:07:01 8.7 C 6.31 g/m*3 8.7 C 0 km/h
17 25-03-2010 03:19:01 8.6 C 6.27 g/m*3 8.6 C 0 km/h
18 25-03-2010 03:31:01 8.4 C 6.28 g/m*3 8.4 C 0 km/h
19 25-03-2010 03:43:01 8.1 C 6.16 g/m*3 8.1 C 0 km/h
20 25-03-2010 03:55:01 7.9 C 6.24 g/m*3 7.9 C 0 km/h
21 25-03-2010 04:07:02 7.7 C 6.24 g/m*3 7.7 C 0 km/h
22 25-03-2010 04:19:01 7.6 C 6.28 g/m*3 7.6 C 0 km/h
23 25-03-2010 04:31:01 7.7 C 6.32 g/m*3 7.7 C 0 km/h
24 25-03-2010 04:43:01 7.9 C 6.49 g/m*3 7.9 C 0 km/h
25 25-03-2010 04:55:01 7.8 C 6.45 g/m*3 7.8 C 0 km/h
Sensor: Nr:Datum:Temp:Abs-Feuchte:Windchill:Wind:
Aussen-T/F 26 25-03-2010 05:07:01 7.6 C 6.44 g/m*3 7.6 C 0 km/h
27 25-03-2010 05:19:01 7.5 C 6.4 g/m*3 7.5 C 0 km/h
28 25-03-2010 05:31:01 7.3 C 6.4 g/m*3 7.3 C 0 km/h
29 25-03-2010 05:43:01 7.2 C 6.36 g/m*3 7.2 C 0 km/h
30 25-03-2010 05:55:01 7.2 C 6.36 g/m*3 7.2 C 0 km/h
31 25-03-2010 06:07:01 7.3 C 6.48 g/m*3 7.3 C 0 km/h
32 25-03-2010 06:19:02 7.4 C 6.44 g/m*3 7.4 C 0 km/h
33 25-03-2010 06:31:01 7.4 C 6.44 g/m*3 7.4 C 0 km/h
34 25-03-2010 06:43:01 7.5 C 6.48 g/m*3 7.5 C 0 km/h
35 25-03-2010 06:55:01 7.6 C 6.53 g/m*3 7.6 C 0 km/h
36 25-03-2010 07:07:01 7.8 C 6.53 g/m*3 7.8 C 0 km/h
37 25-03-2010 07:19:02 7.9 C 6.57 g/m*3 7.9 C 0 km/h
38 25-03-2010 07:31:01 7.6 C 6.61 g/m*3 7.6 C 0 km/h
39 25-03-2010 07:43:01 7.9 C 6.9 g/m*3 7.9 C 0 km/h
40 25-03-2010 07:55:02 8.2 C 6.95 g/m*3 8.2 C 0 km/h
41 25-03-2010 08:07:01 8.2 C 6.87 g/m*3 8.2 C 0 km/h
42 25-03-2010 08:19:02 8.1 C 6.82 g/m*3 8.1 C 0 km/h
43 25-03-2010 08:31:01 8.2 C 6.95 g/m*3 8.2 C 0 km/h
44 25-03-2010 08:43:01 8.4 C 7.04 g/m*3 8.4 C 0 km/h
45 25-03-2010 08:55:02 8.8 C 7.22 g/m*3 8.8 C 0 km/h
46 25-03-2010 09:07:01 9.5 C 7.46 g/m*3 9.5 C 0 km/h
47 25-03-2010 09:19:01 10.4 C 7.61 g/m*3 10.4 C 0 km/h
48 25-03-2010 09:31:02 11 C 7.31 g/m*3 11 C 0 km/h
49 25-03-2010 09:43:02 11.5 C 7.33 g/m*3 11.5 C 0 km/h
50 25-03-2010 09:55:02 11.9 C 7.31 g/m*3 11.9 C 0 km/h
Sensor: Nr:Datum:Temp:Abs-Feuchte:Windchill:Wind:
Aussen-T/F 51 25-03-2010 10:07:01 12.4 C 7.21 g/m*3 12.4 C 0 km/h
52 25-03-2010 10:19:01 12.6 C 7.08 g/m*3 12.6 C 0 km/h
53 25-03-2010 10:31:02 13.1 C 7.3 g/m*3 13.1 C 0 km/h
54 25-03-2010 10:43:02 14.1 C 7.4 g/m*3 14.1 C 0 km/h
55 25-03-2010 10:55:01 14.7 C 7.05 g/m*3 14.7 C 0 km/h
56 25-03-2010 11:07:02 15.7 C 6.69 g/m*3 15.7 C 0 km/h
57 25-03-2010 11:19:01 16.8 C 6.43 g/m*3 16.8 C 0 km/h
58 25-03-2010 11:31:02 17.9 C 5.95 g/m*3 17.9 C 0 km/h
59 25-03-2010 11:43:02 18.5 C 5.85 g/m*3 18.5 C 0 km/h
60 25-03-2010 11:55:01 18.8 C 5.64 g/m*3 18.8 C 0 km/h
61 25-03-2010 12:07:02 19.5 C 5.2 g/m*3 19.5 C 0 km/h
62 25-03-2010 12:19:01 19.3 C 4.64 g/m*3 19.3 C 0 km/h
63 25-03-2010 12:31:01 20.2 C 4.55 g/m*3 20.2 C 0 km/h
64 25-03-2010 12:43:01 21 C 4.4 g/m*3 21 C 0 km/h
65 25-03-2010 12:55:01 21.6 C 4.55 g/m*3 21.6 C 0 km/h
66 25-03-2010 13:07:02 22 C 4.27 g/m*3 22 C 0 km/h
67 25-03-2010 13:19:01 22.2 C 3.93 g/m*3 22.2 C 0 km/h
68 25-03-2010 13:31:01 22.8 C 4.06 g/m*3 22.8 C 0 km/h
69 25-03-2010 13:43:01 22.7 C 4.04 g/m*3 22.7 C 0 km/h
70 25-03-2010 13:55:01 23.2 C 4.16 g/m*3 23.2 C 0 km/h
71 25-03-2010 14:07:01 22.8 C 4.06 g/m*3 22.8 C 0 km/h
72 25-03-2010 14:19:02 22.9 C 4.09 g/m*3 22.9 C 0 km/h
73 25-03-2010 14:31:01 23.3 C 4.18 g/m*3 23.3 C 0 km/h
74 25-03-2010 14:43:01 23.8 C 4.3 g/m*3 23.8 C 0 km/h
75 25-03-2010 14:55:01 23.7 C 4.28 g/m*3 23.7 C 0 km/h
Sensor: Nr:Datum:Temp:Abs-Feuchte:Windchill:Wind:
Aussen-T/F 76 25-03-2010 15:07:01 23.2 C 4.16 g/m*3 23.2 C 0 km/h
77 25-03-2010 15:19:02 22.8 C 4.06 g/m*3 22.8 C 0 km/h
78 25-03-2010 15:31:01 23.4 C 4.21 g/m*3 23.4 C 0 km/h
79 25-03-2010 15:43:01 23.6 C 4.25 g/m*3 23.6 C 0 km/h
80 25-03-2010 15:55:02 23.7 C 4.28 g/m*3 23.7 C 0 km/h
81 25-03-2010 16:07:01 23.6 C 4.25 g/m*3 23.6 C 0 km/h
82 25-03-2010 16:19:02 24.1 C 4.38 g/m*3 24.1 C 0 km/h
83 25-03-2010 16:31:01 23.6 C 4.25 g/m*3 23.6 C 0 km/h
84 25-03-2010 16:43:01 22.8 C 4.06 g/m*3 22.8 C 0 km/h
85 25-03-2010 16:55:02 21.9 C 4.44 g/m*3 21.9 C 0 km/h
86 25-03-2010 17:07:01 21.5 C 4.71 g/m*3 21.5 C 0 km/h
87 25-03-2010 17:19:01 20.9 C 4.55 g/m*3 20.9 C 0 km/h
88 25-03-2010 17:31:01 20.7 C 4.68 g/m*3 20.7 C 0 km/h
89 25-03-2010 17:43:01 20 C 5.01 g/m*3 20 C 0 km/h
90 25-03-2010 17:55:01 19.5 C 5.37 g/m*3 19.5 C 0 km/h
91 25-03-2010 18:07:02 19.6 C 5.23 g/m*3 19.6 C 0 km/h
92 25-03-2010 18:19:02 19.5 C 5.87 g/m*3 19.5 C 0 km/h
93 25-03-2010 18:31:01 19.3 C 5.31 g/m*3 19.3 C 0 km/h
94 25-03-2010 18:43:01 18.7 C 5.6 g/m*3 18.7 C 0 km/h
95 25-03-2010 18:55:02 18.5 C 5.85 g/m*3 18.5 C 0 km/h
96 25-03-2010 19:07:01 18.3 C 5.79 g/m*3 18.3 C 0 km/h
97 25-03-2010 19:19:02 17.8 C 5.62 g/m*3 17.8 C 0 km/h
98 25-03-2010 19:31:01 17.2 C 5.86 g/m*3 17.2 C 0 km/h
99 25-03-2010 19:43:01 16.8 C 5.86 g/m*3 16.8 C 0 km/h
100 25-03-2010 19:55:02 16.4 C 5.72 g/m*3 16.4 C 0 km/h
Sensor: Nr:Datum:Temp:Abs-Feuchte:Windchill:Wind:
Aussen-T/F 101 25-03-2010 20:07:01 16.1 C 5.76 g/m*3 16.1 C 0 km/h
102 25-03-2010 20:19:01 15.8 C 5.79 g/m*3 15.8 C 0 km/h
103 25-03-2010 20:31:02 15.4 C 5.91 g/m*3 15.4 C 0 km/h
104 25-03-2010 20:43:02 15.2 C 5.97 g/m*3 15.2 C 0 km/h
105 25-03-2010 20:55:02 15 C 5.9 g/m*3 15 C 0 km/h
106 25-03-2010 21:07:01 14.9 C 5.99 g/m*3 14.9 C 0 km/h
107 25-03-2010 21:19:01 14.7 C 6.04 g/m*3 14.7 C 0 km/h
108 25-03-2010 21:31:02 14.5 C 6.09 g/m*3 14.5 C 0 km/h
109 25-03-2010 21:43:02 14.1 C 6.07 g/m*3 14.1 C 0 km/h
110 25-03-2010 21:55:01 13.8 C 6.2 g/m*3 13.8 C 0 km/h
111 25-03-2010 22:07:02 13.6 C 6.24 g/m*3 13.6 C 0 km/h
112 25-03-2010 22:19:01 13.4 C 6.28 g/m*3 13.4 C 0 km/h
113 25-03-2010 22:31:01 13.1 C 6.39 g/m*3 13.1 C 0 km/h
114 25-03-2010 22:43:01 13 C 6.35 g/m*3 13 C 0 km/h
115 25-03-2010 22:55:01 13 C 6.24 g/m*3 13 C 0 km/h
116 25-03-2010 23:07:02 13 C 6.46 g/m*3 13 C 0 km/h
117 25-03-2010 23:19:01 12.6 C 6.31 g/m*3 12.6 C 0 km/h
118 25-03-2010 23:31:02 12.7 C 6.57 g/m*3 12.7 C 0 km/h
119 25-03-2010 23:43:02 12.6 C 6.53 g/m*3 12.6 C 0 km/h
120 25-03-2010 23:55:01 12.5 C 6.6 g/m*3 12.5 C 0 km/h
121 26-03-2010 00:07:02 12.5 C 6.71 g/m*3 12.5 C 0 km/h
122 26-03-2010 00:19:02 12.4 C 6.66 g/m*3 12.4 C 0 km/h
123 26-03-2010 00:31:01 12.4 C 6.66 g/m*3 12.4 C 0 km/h
124 26-03-2010 00:43:01 12.2 C 6.58 g/m*3 12.2 C 0 km/h
125 26-03-2010 00:55:02 12.1 C 6.65 g/m*3 12.1 C 0 km/h
Sensor: Nr:Datum:Temp:Abs-Feuchte:Windchill:Wind:
Aussen-T/F 126 26-03-2010 01:07:01 12.3 C 6.62 g/m*3 12.3 C 0 km/h
127 26-03-2010 01:19:02 12.2 C 6.58 g/m*3 12.2 C 0 km/h
128 26-03-2010 01:31:01 12.5 C 6.6 g/m*3 12.5 C 0 km/h
129 26-03-2010 01:43:01 13 C 6.58 g/m*3 13 C 0 km/h
130 26-03-2010 01:55:02 13.8 C 6.55 g/m*3 13.8 C 0 km/h
131 26-03-2010 02:07:01 13.4 C 6.28 g/m*3 13.4 C 0 km/h
132 26-03-2010 02:19:01 12.7 C 6.46 g/m*3 12.7 C 0 km/h
133 26-03-2010 02:31:02 12.4 C 6.66 g/m*3 12.4 C 0 km/h
134 26-03-2010 02:43:02 12.1 C 6.76 g/m*3 12.1 C 0 km/h
135 26-03-2010 02:56:05 12 C 6.82 g/m*3 12 C 0 km/h
136 26-03-2010 03:08:06 11.6 C 6.76 g/m*3 11.6 C 0 km/h
137 26-03-2010 03:20:05 11.6 C 6.86 g/m*3 11.6 C 0 km/h
138 26-03-2010 03:32:03 11.8 C 6.95 g/m*3 11.8 C 0 km/h
139 26-03-2010 03:44:03 12 C 6.82 g/m*3 12 C 0 km/h
140 26-03-2010 03:56:03 12.1 C 6.86 g/m*3 12.1 C 0 km/h
141 26-03-2010 04:08:02 11.7 C 6.9 g/m*3 11.7 C 0 km/h
142 26-03-2010 04:20:02 11.2 C 6.79 g/m*3 11.2 C 0 km/h
143 26-03-2010 04:32:02 11.2 C 6.99 g/m*3 11.2 C 0 km/h
144 26-03-2010 04:44:02 11.1 C 6.95 g/m*3 11.1 C 0 km/h
145 26-03-2010 04:56:02 11.2 C 6.89 g/m*3 11.2 C 0 km/h
146 26-03-2010 05:08:02 11 C 6.81 g/m*3 11 C 0 km/h
147 26-03-2010 05:20:02 10.9 C 6.86 g/m*3 10.9 C 0 km/h
148 26-03-2010 05:32:01 10.7 C 6.88 g/m*3 10.7 C 0 km/h
149 26-03-2010 05:44:01 10.9 C 6.96 g/m*3 10.9 C 0 km/h
150 26-03-2010 05:56:02 11 C 7.01 g/m*3 11 C 0 km/h
Sensor: Nr:Datum:Temp:Abs-Feuchte:Windchill:Wind:
Aussen-T/F 151 26-03-2010 06:08:01 10.8 C 6.92 g/m*3 10.8 C 0 km/h
152 26-03-2010 06:20:02 10.5 C 6.98 g/m*3 10.5 C 0 km/h
153 26-03-2010 06:32:02 10.2 C 6.85 g/m*3 10.2 C 0 km/h
154 26-03-2010 06:44:02 10.2 C 6.95 g/m*3 10.2 C 0 km/h
155 26-03-2010 06:56:02 10.2 C 6.95 g/m*3 10.2 C 0 km/h
156 26-03-2010 07:08:02 10.3 C 6.99 g/m*3 10.3 C 0 km/h
157 26-03-2010 07:20:02 10.6 C 7.22 g/m*3 10.6 C 0 km/h
158 26-03-2010 07:32:02 10.7 C 7.17 g/m*3 10.7 C 0 km/h
159 26-03-2010 07:44:02 10.8 C 7.22 g/m*3 10.8 C 0 km/h
160 26-03-2010 07:56:02 11 C 7.11 g/m*3 11 C 0 km/h
161 26-03-2010 08:08:02 11.5 C 7.23 g/m*3 11.5 C 0 km/h
162 26-03-2010 08:20:01 11.5 C 7.13 g/m*3 11.5 C 0 km/h
163 26-03-2010 08:32:02 11.7 C 7.22 g/m*3 11.7 C 0 km/h
164 26-03-2010 08:44:02 12.3 C 7.28 g/m*3 12.3 C 0 km/h
165 26-03-2010 08:56:02 12.2 C 7.12 g/m*3 12.2 C 0 km/h
166 26-03-2010 09:08:02 12.4 C 7.21 g/m*3 12.4 C 0 km/h
167 26-03-2010 09:20:02 12.8 C 7.28 g/m*3 12.8 C 0 km/h
168 26-03-2010 09:32:02 13.2 C 7.23 g/m*3 13.2 C 0 km/h
169 26-03-2010 09:44:02 13.7 C 7.22 g/m*3 13.7 C 0 km/h
170 26-03-2010 09:56:02 13.8 C 7.03 g/m*3 13.8 C 0 km/h
171 26-03-2010 10:08:02 13.8 C 7.15 g/m*3 13.8 C 0 km/h
172 26-03-2010 10:20:02 13.8 C 7.03 g/m*3 13.8 C 0 km/h
173 26-03-2010 10:32:02 13.8 C 7.15 g/m*3 13.8 C 0 km/h
174 26-03-2010 10:44:02 13.6 C 6.83 g/m*3 13.6 C 0 km/h
175 26-03-2010 10:56:02 13.3 C 6.82 g/m*3 13.3 C 0 km/h
Sensor: Nr:Datum:Temp:Abs-Feuchte:Windchill:Wind:
Aussen-T/F 176 26-03-2010 11:08:02 12.5 C 6.6 g/m*3 12.5 C 0 km/h
177 26-03-2010 11:20:02 12.2 C 6.58 g/m*3 12.2 C 0 km/h
178 26-03-2010 11:32:02 11 C 7.01 g/m*3 11 C 0 km/h
179 26-03-2010 11:44:02 9.9 C 7.28 g/m*3 9.9 C 0 km/h
180 26-03-2010 11:56:01 9 C 6.96 g/m*3 9 C 0 km/h
181 26-03-2010 12:08:01 8.5 C 7.17 g/m*3 8.5 C 0 km/h
182 26-03-2010 12:20:01 8.2 C 7.2 g/m*3 8.2 C 0 km/h
183 26-03-2010 12:32:01 7.9 C 7.23 g/m*3 7.9 C 0 km/h
184 26-03-2010 12:44:01 7.5 C 6.96 g/m*3 7.5 C 0 km/h
185 26-03-2010 12:56:01 7.4 C 7 g/m*3 7.4 C 0 km/h
186 26-03-2010 13:08:01 7.5 C 7.12 g/m*3 7.5 C 0 km/h
187 26-03-2010 13:20:02 7.4 C 7.08 g/m*3 7.4 C 0 km/h
188 26-03-2010 13:32:01 7.5 C 7.2 g/m*3 7.5 C 0 km/h
189 26-03-2010 13:44:01 7.8 C 7.43 g/m*3 7.8 C 0 km/h
190 26-03-2010 13:56:02 7.7 C 7.38 g/m*3 7.7 C 0 km/h
191 26-03-2010 14:08:02 7.5 C 7.28 g/m*3 7.5 C 0 km/h
192 26-03-2010 14:20:02 7.4 C 7.16 g/m*3 7.4 C 0 km/h
193 26-03-2010 14:32:02 7.5 C 7.2 g/m*3 7.5 C 0 km/h
194 26-03-2010 14:44:02 8.1 C 7.49 g/m*3 8.1 C 0 km/h
195 26-03-2010 14:56:02 8.2 C 7.54 g/m*3 8.2 C 0 km/h
196 26-03-2010 15:08:01 8.1 C 7.41 g/m*3 8.1 C 0 km/h
197 26-03-2010 15:20:01 8.2 C 7.45 g/m*3 8.2 C 0 km/h
198 26-03-2010 15:32:01 8.1 C 7.32 g/m*3 8.1 C 0 km/h
199 26-03-2010 15:44:01 8.3 C 7.42 g/m*3 8.3 C 0 km/h
200 26-03-2010 15:56:02 8.6 C 7.65 g/m*3 8.6 C 0 km/h
Sensor: Nr:Datum:Temp:Abs-Feuchte:Windchill:Wind:
Aussen-T/F 201 26-03-2010 16:08:02 8.7 C 7.7 g/m*3 8.7 C 0 km/h
202 26-03-2010 16:20:01 8.5 C 7.51 g/m*3 8.5 C 0 km/h
203 26-03-2010 16:32:01 8.6 C 7.56 g/m*3 8.6 C 0 km/h
204 26-03-2010 16:44:01 8.5 C 7.51 g/m*3 8.5 C 0 km/h
205 26-03-2010 16:56:01 8.4 C 7.38 g/m*3 8.4 C 0 km/h
206 26-03-2010 17:08:02 8.6 C 7.3 g/m*3 8.6 C 0 km/h
207 26-03-2010 17:20:02 8.6 C 7.22 g/m*3 8.6 C 0 km/h
208 26-03-2010 17:32:02 8.6 C 7.22 g/m*3 8.6 C 0 km/h
209 26-03-2010 17:44:02 8.6 C 7.22 g/m*3 8.6 C 0 km/h
210 26-03-2010 17:56:01 8.6 C 7.22 g/m*3 8.6 C 0 km/h
211 26-03-2010 18:08:02 8.5 C 7.17 g/m*3 8.5 C 0 km/h
212 26-03-2010 18:20:02 8.8 C 7.22 g/m*3 8.8 C 0 km/h
213 26-03-2010 18:32:01 8.7 C 7.01 g/m*3 8.7 C 0 km/h
214 26-03-2010 18:44:01 8.6 C 6.87 g/m*3 8.6 C 0 km/h
215 26-03-2010 18:56:02 8.6 C 6.96 g/m*3 8.6 C 0 km/h
216 26-03-2010 19:08:01 8.4 C 6.96 g/m*3 8.4 C 0 km/h
217 26-03-2010 19:20:02 8.4 C 7.04 g/m*3 8.4 C 0 km/h
218 26-03-2010 19:32:01 8.5 C 7.09 g/m*3 8.5 C 0 km/h
219 26-03-2010 19:44:01 8.4 C 7.04 g/m*3 8.4 C 0 km/h
220 26-03-2010 19:56:01 8.4 C 7.13 g/m*3 8.4 C 0 km/h
221 26-03-2010 20:08:01 8.5 C 7.09 g/m*3 8.5 C 0 km/h
222 26-03-2010 20:20:01 8.7 C 7.09 g/m*3 8.7 C 0 km/h
223 26-03-2010 20:32:02 8.7 C 6.92 g/m*3 8.7 C 0 km/h
224 26-03-2010 20:44:02 8.6 C 6.7 g/m*3 8.6 C 0 km/h
225 26-03-2010 20:56:02 8.4 C 6.53 g/m*3 8.4 C 0 km/h
Sensor: Nr:Datum:Temp:Abs-Feuchte:Windchill:Wind:
Aussen-T/F 226 26-03-2010 21:08:02 8.3 C 6.41 g/m*3 8.3 C 0 km/h
227 26-03-2010 21:20:01 8.5 C 6.15 g/m*3 8.5 C 0 km/h
228 26-03-2010 21:33:02 8.5 C 6.15 g/m*3 8.5 C 0 km/h
229 26-03-2010 21:45:03 8.3 C 6.15 g/m*3 8.3 C 0 km/h
230 26-03-2010 21:57:03 8.4 C 6.19 g/m*3 8.4 C 0 km/h
231 26-03-2010 22:09:03 8.3 C 6.32 g/m*3 8.3 C 0 km/h
232 26-03-2010 22:21:03 8.3 C 6.32 g/m*3 8.3 C 0 km/h
233 26-03-2010 22:33:03 8.2 C 6.36 g/m*3 8.2 C 0 km/h
234 26-03-2010 22:45:03 8.1 C 6.41 g/m*3 8.1 C 0 km/h
235 26-03-2010 22:57:03 7.8 C 6.37 g/m*3 7.8 C 0 km/h
236 26-03-2010 23:09:03 7.7 C 6.49 g/m*3 7.7 C 0 km/h
237 26-03-2010 23:21:03 7.8 C 6.53 g/m*3 7.8 C 0 km/h
238 26-03-2010 23:33:03 7.8 C 6.45 g/m*3 7.8 C 0 km/h
239 26-03-2010 23:45:03 7.6 C 6.44 g/m*3 7.6 C 0 km/h
240 26-03-2010 23:57:03 7.7 C 6.49 g/m*3 7.7 C 0 km/h
241 27-03-2010 00:09:03 7.7 C 6.41 g/m*3 7.7 C 0 km/h
242 27-03-2010 00:21:03 7.9 C 6.49 g/m*3 7.9 C 0 km/h
243 27-03-2010 00:33:03 7.9 C 6.49 g/m*3 7.9 C 0 km/h
244 27-03-2010 00:45:03 8 C 6.45 g/m*3 8 C 0 km/h
245 27-03-2010 00:57:03 8.2 C 6.45 g/m*3 8.2 C 0 km/h
246 27-03-2010 01:09:03 8.4 C 6.45 g/m*3 8.4 C 0 km/h
247 27-03-2010 01:21:03 8.4 C 6.36 g/m*3 8.4 C 0 km/h
248 27-03-2010 01:33:03 8.5 C 6.4 g/m*3 8.5 C 0 km/h
249 27-03-2010 01:45:03 8.5 C 6.23 g/m*3 8.5 C 0 km/h
250 27-03-2010 01:57:03 8.5 C 6.23 g/m*3 8.5 C 0 km/h
Sensor: Nr:Datum:Temp:Abs-Feuchte:Windchill:Wind:
Aussen-T/F 251 27-03-2010 02:09:03 8.5 C 6.06 g/m*3 8.5 C 0 km/h
252 27-03-2010 02:21:04 8.2 C 6.11 g/m*3 8.2 C 0 km/h
253 27-03-2010 02:33:04 8.1 C 5.99 g/m*3 8.1 C 0 km/h
254 27-03-2010 02:45:04 8 C 6.04 g/m*3 8 C 0 km/h
255 27-03-2010 02:57:04 8.3 C 6.15 g/m*3 8.3 C 0 km/h
256 27-03-2010 03:09:04 8.4 C 6.19 g/m*3 8.4 C 0 km/h
257 27-03-2010 03:21:04 8.1 C 6.07 g/m*3 8.1 C 0 km/h
258 27-03-2010 03:33:04 7.9 C 6.16 g/m*3 7.9 C 0 km/h
259 27-03-2010 03:45:04 8 C 6.2 g/m*3 8 C 0 km/h
260 27-03-2010 03:57:04 8.1 C 6.07 g/m*3 8.1 C 0 km/h
261 27-03-2010 04:09:04 8.1 C 6.07 g/m*3 8.1 C 0 km/h
262 27-03-2010 04:21:04 8.2 C 6.03 g/m*3 8.2 C 0 km/h
263 27-03-2010 04:33:04 8.2 C 6.03 g/m*3 8.2 C 0 km/h
264 27-03-2010 04:45:04 8.2 C 5.95 g/m*3 8.2 C 0 km/h
265 27-03-2010 04:57:04 8.2 C 5.95 g/m*3 8.2 C 0 km/h
266 27-03-2010 05:09:05 8.1 C 5.91 g/m*3 8.1 C 0 km/h
267 27-03-2010 05:21:05 8.1 C 5.99 g/m*3 8.1 C 0 km/h
268 27-03-2010 05:33:05 8.1 C 5.99 g/m*3 8.1 C 0 km/h
269 27-03-2010 05:45:05 8 C 5.95 g/m*3 8 C 0 km/h
270 27-03-2010 05:57:05 8 C 5.87 g/m*3 8 C 0 km/h
271 27-03-2010 06:09:05 8 C 5.79 g/m*3 8 C 0 km/h
272 27-03-2010 06:21:05 8 C 5.7 g/m*3 8 C 0 km/h
273 27-03-2010 06:33:02 8.1 C 5.74 g/m*3 8.1 C 0 km/h
274 27-03-2010 06:45:02 8.1 C 5.74 g/m*3 8.1 C 0 km/h
275 27-03-2010 06:57:02 8.2 C 5.69 g/m*3 8.2 C 0 km/h
Sensor: Nr:Datum:Temp:Abs-Feuchte:Windchill:Wind:
Aussen-T/F 276 27-03-2010 07:09:01 8.3 C 5.65 g/m*3 8.3 C 0 km/h
277 27-03-2010 07:21:02 8.4 C 5.68 g/m*3 8.4 C 0 km/h
278 27-03-2010 07:33:02 8.5 C 5.72 g/m*3 8.5 C 0 km/h
279 27-03-2010 07:45:02 8.5 C 5.64 g/m*3 8.5 C 0 km/h
280 27-03-2010 07:57:02 8.5 C 5.72 g/m*3 8.5 C 0 km/h
281 27-03-2010 08:09:02 8.5 C 5.72 g/m*3 8.5 C 0 km/h
282 27-03-2010 08:21:02 8.7 C 5.79 g/m*3 8.7 C 0 km/h
283 27-03-2010 08:33:02 8.9 C 5.69 g/m*3 8.9 C 0 km/h
284 27-03-2010 08:45:01 9.3 C 5.75 g/m*3 9.3 C 0 km/h
285 27-03-2010 08:57:01 9.6 C 5.68 g/m*3 9.6 C 0 km/h
286 27-03-2010 09:09:02 10 C 5.54 g/m*3 10 C 0 km/h
287 27-03-2010 09:21:01 9.8 C 5.57 g/m*3 9.8 C 0 km/h
288 27-03-2010 09:33:02 9.5 C 5.55 g/m*3 9.5 C 0 km/h
289 27-03-2010 09:45:02 9.7 C 5.62 g/m*3 9.7 C 0 km/h
290 27-03-2010 09:57:02 9.7 C 5.72 g/m*3 9.7 C 0 km/h
291 27-03-2010 10:09:02 9.7 C 5.62 g/m*3 9.7 C 0 km/h
292 27-03-2010 10:21:02 9.8 C 5.66 g/m*3 9.8 C 0 km/h
293 27-03-2010 10:33:02 10.1 C 5.2 g/m*3 10.1 C 0 km/h
294 27-03-2010 10:45:01 10.6 C 5.17 g/m*3 10.6 C 0 km/h
295 27-03-2010 10:57:01 11.1 C 5.14 g/m*3 11.1 C 0 km/h
296 27-03-2010 11:09:02 11.5 C 4.96 g/m*3 11.5 C 0 km/h
297 27-03-2010 11:21:01 11.3 C 4.79 g/m*3 11.3 C 0 km/h
298 27-03-2010 11:33:02 11.3 C 5 g/m*3 11.3 C 0 km/h
299 27-03-2010 11:45:02 11.7 C 4.92 g/m*3 11.7 C 0 km/h
300 27-03-2010 11:57:02 11.8 C 4.95 g/m*3 11.8 C 0 km/h
Sensor: Nr:Datum:Temp:Abs-Feuchte:Windchill:Wind:
Aussen-T/F 301 27-03-2010 12:09:02 11.9 C 4.87 g/m*3 11.9 C 0 km/h
302 27-03-2010 12:21:01 11.8 C 4.74 g/m*3 11.8 C 0 km/h
303 27-03-2010 12:33:02 11.9 C 4.98 g/m*3 11.9 C 0 km/h
304 27-03-2010 12:45:03 11.6 C 5.3 g/m*3 11.6 C 0 km/h
305 27-03-2010 12:57:03 10.8 C 5.73 g/m*3 10.8 C 0 km/h
306 27-03-2010 13:09:02 10.7 C 5.89 g/m*3 10.7 C 0 km/h
307 27-03-2010 13:21:02 11.4 C 5.85 g/m*3 11.4 C 0 km/h
308 27-03-2010 13:33:02 11.3 C 5.61 g/m*3 11.3 C 0 km/h
309 27-03-2010 13:45:02 11.4 C 5.34 g/m*3 11.4 C 0 km/h
310 27-03-2010 13:57:02 12 C 5.12 g/m*3 12 C 0 km/h
311 27-03-2010 14:09:02 11.8 C 5.16 g/m*3 11.8 C 0 km/h
312 27-03-2010 14:21:02 11.2 C 4.97 g/m*3 11.2 C 0 km/h
313 27-03-2010 14:33:01 11.1 C 5.04 g/m*3 11.1 C 0 km/h
314 27-03-2010 14:45:02 10.9 C 5.07 g/m*3 10.9 C 0 km/h
315 27-03-2010 14:57:03 11 C 5 g/m*3 11 C 0 km/h
316 27-03-2010 15:09:01 11.2 C 4.97 g/m*3 11.2 C 0 km/h
317 27-03-2010 15:21:01 11.2 C 4.87 g/m*3 11.2 C 0 km/h
318 27-03-2010 15:33:02 11.8 C 4.95 g/m*3 11.8 C 0 km/h
319 27-03-2010 15:45:02 12.5 C 4.84 g/m*3 12.5 C 0 km/h
320 27-03-2010 15:57:02 12.1 C 4.72 g/m*3 12.1 C 0 km/h
321 27-03-2010 16:09:02 11.2 C 4.87 g/m*3 11.2 C 0 km/h
322 27-03-2010 16:21:02 10.8 C 5.04 g/m*3 10.8 C 0 km/h
323 27-03-2010 16:33:02 10.8 C 5.04 g/m*3 10.8 C 0 km/h
324 27-03-2010 16:45:02 10.7 C 5.11 g/m*3 10.7 C 0 km/h
325 27-03-2010 16:57:02 10.7 C 5.11 g/m*3 10.7 C 0 km/h
Sensor: Nr:Datum:Temp:Abs-Feuchte:Windchill:Wind:
Aussen-T/F 326 27-03-2010 17:09:03 11 C 5.1 g/m*3 11 C 0 km/h
327 27-03-2010 17:21:02 11.6 C 5.09 g/m*3 11.6 C 0 km/h
328 27-03-2010 17:33:02 11.2 C 5.17 g/m*3 11.2 C 0 km/h
329 27-03-2010 17:45:01 11.3 C 5.2 g/m*3 11.3 C 0 km/h
330 27-03-2010 17:57:01 11.8 C 5.05 g/m*3 11.8 C 0 km/h
331 27-03-2010 18:09:02 11.4 C 5.13 g/m*3 11.4 C 0 km/h
332 27-03-2010 18:21:01 11.4 C 5.13 g/m*3 11.4 C 0 km/h
333 27-03-2010 18:33:01 11.3 C 5 g/m*3 11.3 C 0 km/h
334 27-03-2010 18:45:01 10.5 C 5.14 g/m*3 10.5 C 0 km/h
335 27-03-2010 18:57:01 10 C 5.17 g/m*3 10 C 0 km/h
336 27-03-2010 19:09:01 9.5 C 5.19 g/m*3 9.5 C 0 km/h
337 27-03-2010 19:21:02 9.2 C 5.27 g/m*3 9.2 C 0 km/h
338 27-03-2010 19:33:01 8.9 C 5.34 g/m*3 8.9 C 0 km/h
339 27-03-2010 19:45:02 8.7 C 5.45 g/m*3 8.7 C 0 km/h
340 27-03-2010 19:57:02 8.5 C 5.55 g/m*3 8.5 C 0 km/h
341 27-03-2010 20:09:02 8.3 C 5.56 g/m*3 8.3 C 0 km/h
342 27-03-2010 20:21:02 8.2 C 5.61 g/m*3 8.2 C 0 km/h
343 27-03-2010 20:33:01 7.9 C 5.67 g/m*3 7.9 C 0 km/h
344 27-03-2010 20:45:02 7.7 C 5.76 g/m*3 7.7 C 0 km/h
345 27-03-2010 20:57:02 7.5 C 5.76 g/m*3 7.5 C 0 km/h
346 27-03-2010 21:09:01 7.4 C 5.81 g/m*3 7.4 C 0 km/h
347 27-03-2010 21:21:01 7.4 C 5.96 g/m*3 7.4 C 0 km/h
348 27-03-2010 21:33:02 7.2 C 5.97 g/m*3 7.2 C 0 km/h
349 27-03-2010 21:45:02 7.2 C 6.04 g/m*3 7.2 C 0 km/h
350 27-03-2010 21:57:02 7.1 C 6.08 g/m*3 7.1 C 0 km/h
Sensor: Nr:Datum:Temp:Abs-Feuchte:Windchill:Wind:
Aussen-T/F 351 27-03-2010 22:09:02 7.2 C 6.12 g/m*3 7.2 C 0 km/h
352 27-03-2010 22:21:02 7.1 C 6.16 g/m*3 7.1 C 0 km/h
353 27-03-2010 22:33:02 7.2 C 6.2 g/m*3 7.2 C 0 km/h
354 27-03-2010 22:45:02 7.4 C 6.28 g/m*3 7.4 C 0 km/h
355 27-03-2010 22:57:02 7.4 C 6.2 g/m*3 7.4 C 0 km/h
356 27-03-2010 23:09:03 7.7 C 6.16 g/m*3 7.7 C 0 km/h
357 27-03-2010 23:21:02 7.8 C 6.04 g/m*3 7.8 C 0 km/h
358 27-03-2010 23:33:03 8 C 5.87 g/m*3 8 C 0 km/h
359 27-03-2010 23:45:02 7.7 C 6 g/m*3 7.7 C 0 km/h
360 27-03-2010 23:57:02 7.7 C 6 g/m*3 7.7 C 0 km/h
361 28-03-2010 00:09:02 7.7 C 6 g/m*3 7.7 C 0 km/h
362 28-03-2010 00:21:02 7.4 C 5.96 g/m*3 7.4 C 0 km/h
363 28-03-2010 00:33:02 7.5 C 6.08 g/m*3 7.5 C 0 km/h
364 28-03-2010 00:45:02 7.7 C 6.08 g/m*3 7.7 C 0 km/h
365 28-03-2010 00:57:02 7.7 C 6.08 g/m*3 7.7 C 0 km/h
366 28-03-2010 01:09:02 7.9 C 6.08 g/m*3 7.9 C 0 km/h
367 28-03-2010 01:21:02 8.2 C 5.95 g/m*3 8.2 C 0 km/h
368 28-03-2010 01:33:01 8.4 C 5.85 g/m*3 8.4 C 0 km/h
369 28-03-2010 01:45:02 8.4 C 5.85 g/m*3 8.4 C 0 km/h
370 28-03-2010 01:57:02 8.1 C 5.82 g/m*3 8.1 C 0 km/h
371 28-03-2010 02:09:01 7.9 C 5.91 g/m*3 7.9 C 0 km/h
372 28-03-2010 02:21:02 8.1 C 5.99 g/m*3 8.1 C 0 km/h
373 28-03-2010 02:33:01 8.4 C 6.02 g/m*3 8.4 C 0 km/h
374 28-03-2010 02:45:01 8.3 C 5.9 g/m*3 8.3 C 0 km/h
375 28-03-2010 02:57:01 8.2 C 5.95 g/m*3 8.2 C 0 km/h
Sensor: Nr:Datum:Temp:Abs-Feuchte:Windchill:Wind:
Aussen-T/F 376 28-03-2010 04:09:02 8.2 C 6.03 g/m*3 8.2 C 0 km/h
377 28-03-2010 04:21:01 8.1 C 5.99 g/m*3 8.1 C 0 km/h
378 28-03-2010 04:33:01 8.2 C 6.11 g/m*3 8.2 C 0 km/h
379 28-03-2010 04:45:01 8.2 C 6.11 g/m*3 8.2 C 0 km/h
380 28-03-2010 04:57:01 8.2 C 6.11 g/m*3 8.2 C 0 km/h
381 28-03-2010 05:09:01 8.2 C 6.03 g/m*3 8.2 C 0 km/h
382 28-03-2010 05:21:02 8.2 C 6.11 g/m*3 8.2 C 0 km/h
383 28-03-2010 05:33:01 8.1 C 6.24 g/m*3 8.1 C 0 km/h
384 28-03-2010 05:45:01 8.1 C 6.32 g/m*3 8.1 C 0 km/h
385 28-03-2010 05:57:01 8.1 C 6.32 g/m*3 8.1 C 0 km/h
386 28-03-2010 06:09:01 8.2 C 6.28 g/m*3 8.2 C 0 km/h
387 28-03-2010 06:21:02 8.4 C 6.36 g/m*3 8.4 C 0 km/h
388 28-03-2010 06:33:01 8.4 C 6.28 g/m*3 8.4 C 0 km/h
389 28-03-2010 06:45:02 8.4 C 6.36 g/m*3 8.4 C 0 km/h
390 28-03-2010 06:57:02 8.3 C 6.32 g/m*3 8.3 C 0 km/h
391 28-03-2010 07:09:01 8.2 C 6.28 g/m*3 8.2 C 0 km/h
392 28-03-2010 07:21:01 8.2 C 6.28 g/m*3 8.2 C 0 km/h
393 28-03-2010 07:33:01 8.2 C 6.11 g/m*3 8.2 C 0 km/h
394 28-03-2010 07:45:01 8.2 C 6.11 g/m*3 8.2 C 0 km/h
395 28-03-2010 07:57:02 8.3 C 6.15 g/m*3 8.3 C 0 km/h
396 28-03-2010 08:09:01 8.6 C 6.27 g/m*3 8.6 C 0 km/h
397 28-03-2010 08:21:01 8.7 C 6.23 g/m*3 8.7 C 0 km/h
398 28-03-2010 08:33:02 8.9 C 6.22 g/m*3 8.9 C 0 km/h
399 28-03-2010 08:45:01 9 C 6.08 g/m*3 9 C 0 km/h
400 28-03-2010 08:57:01 9.1 C 6.03 g/m*3 9.1 C 0 km/h
Sensor: Nr:Datum:Temp:Abs-Feuchte:Windchill:Wind:
Aussen-T/F 401 28-03-2010 09:09:02 9.1 C 5.94 g/m*3 9.1 C 0 km/h
402 28-03-2010 09:21:01 9.2 C 5.98 g/m*3 9.2 C 0 km/h
403 28-03-2010 09:33:02 9.8 C 5.94 g/m*3 9.8 C 0 km/h
404 28-03-2010 09:45:01 10.2 C 5.9 g/m*3 10.2 C 0 km/h
405 28-03-2010 09:57:01 10.4 C 5.88 g/m*3 10.4 C 0 km/h
406 28-03-2010 10:09:02 10.2 C 5.71 g/m*3 10.2 C 0 km/h
407 28-03-2010 10:21:01 10.1 C 5.77 g/m*3 10.1 C 0 km/h
408 28-03-2010 10:33:01 10.5 C 5.82 g/m*3 10.5 C 0 km/h
409 28-03-2010 10:45:01 10.7 C 5.8 g/m*3 10.7 C 0 km/h
410 28-03-2010 10:57:01 10.7 C 5.8 g/m*3 10.7 C 0 km/h
411 28-03-2010 11:09:01 11.2 C 5.47 g/m*3 11.2 C 0 km/h
412 28-03-2010 11:21:01 10.9 C 5.37 g/m*3 10.9 C 0 km/h
413 28-03-2010 11:33:01 10.9 C 5.57 g/m*3 10.9 C 0 km/h
414 28-03-2010 11:45:01 11.7 C 5.54 g/m*3 11.7 C 0 km/h
415 28-03-2010 11:57:01 11.3 C 5.41 g/m*3 11.3 C 0 km/h
416 28-03-2010 12:09:01 11 C 5.31 g/m*3 11 C 0 km/h
417 28-03-2010 12:21:02 10.8 C 5.63 g/m*3 10.8 C 0 km/h
418 28-03-2010 12:33:01 11.8 C 5.79 g/m*3 11.8 C 0 km/h
419 28-03-2010 12:45:02 12 C 5.44 g/m*3 12 C 0 km/h
420 28-03-2010 12:57:02 11.6 C 5.4 g/m*3 11.6 C 0 km/h
421 28-03-2010 13:09:01 11.6 C 5.51 g/m*3 11.6 C 0 km/h
422 28-03-2010 13:21:02 12.3 C 5.21 g/m*3 12.3 C 0 km/h
423 28-03-2010 13:33:01 11.9 C 5.3 g/m*3 11.9 C 0 km/h
424 28-03-2010 13:45:02 11.7 C 5.23 g/m*3 11.7 C 0 km/h
425 28-03-2010 13:57:02 11.5 C 5.37 g/m*3 11.5 C 0 km/h
Sensor: Nr:Datum:Temp:Abs-Feuchte:Windchill:Wind:
Aussen-T/F 426 28-03-2010 14:09:01 11.7 C 5.44 g/m*3 11.7 C 0 km/h
427 28-03-2010 14:21:01 12 C 5.22 g/m*3 12 C 0 km/h
428 28-03-2010 14:33:02 11.9 C 5.3 g/m*3 11.9 C 0 km/h
429 28-03-2010 14:45:01 10.2 C 6.19 g/m*3 10.2 C 0 km/h
430 28-03-2010 14:57:01 9.3 C 6.47 g/m*3 9.3 C 0 km/h
431 28-03-2010 15:09:01 10.1 C 6.81 g/m*3 10.1 C 0 km/h
432 28-03-2010 15:21:01 11.3 C 6.43 g/m*3 11.3 C 0 km/h
433 28-03-2010 15:33:02 11.7 C 6.48 g/m*3 11.7 C 0 km/h
434 28-03-2010 15:45:01 13.1 C 6.5 g/m*3 13.1 C 0 km/h
435 28-03-2010 15:57:01 13.7 C 6.16 g/m*3 13.7 C 0 km/h
436 28-03-2010 16:09:02 13.7 C 5.68 g/m*3 13.7 C 0 km/h
437 28-03-2010 16:21:01 13.4 C 4.88 g/m*3 13.4 C 0 km/h
438 28-03-2010 16:33:01 13.1 C 4.91 g/m*3 13.1 C 0 km/h
439 28-03-2010 16:45:01 12.6 C 5.09 g/m*3 12.6 C 0 km/h
440 28-03-2010 16:57:01 11 C 6.51 g/m*3 11 C 0 km/h
441 28-03-2010 17:09:02 11.1 C 7.15 g/m*3 11.1 C 0 km/h
442 28-03-2010 17:21:01 11.4 C 6.88 g/m*3 11.4 C 0 km/h
443 28-03-2010 17:33:01 11.6 C 6.86 g/m*3 11.6 C 0 km/h
444 28-03-2010 17:45:01 11.7 C 7.01 g/m*3 11.7 C 0 km/h
445 28-03-2010 17:57:01 11.7 C 6.07 g/m*3 11.7 C 0 km/h
446 28-03-2010 18:09:01 11.6 C 6.03 g/m*3 11.6 C 0 km/h
447 28-03-2010 18:21:02 11.5 C 5.78 g/m*3 11.5 C 0 km/h
448 28-03-2010 18:33:01 11.4 C 5.85 g/m*3 11.4 C 0 km/h
449 28-03-2010 18:45:01 11.3 C 5.92 g/m*3 11.3 C 0 km/h
450 28-03-2010 18:57:01 11.3 C 6.12 g/m*3 11.3 C 0 km/h
Sensor: Nr:Datum:Temp:Abs-Feuchte:Windchill:Wind:
Aussen-T/F 451 28-03-2010 19:09:01 11.2 C 6.08 g/m*3 11.2 C 0 km/h
452 28-03-2010 19:21:02 11.1 C 6.25 g/m*3 11.1 C 0 km/h
453 28-03-2010 19:33:01 10.9 C 6.37 g/m*3 10.9 C 0 km/h
454 28-03-2010 19:45:02 10.3 C 6.61 g/m*3 10.3 C 0 km/h
455 28-03-2010 19:57:02 10 C 6.77 g/m*3 10 C 0 km/h
456 28-03-2010 20:09:01 9.9 C 6.91 g/m*3 9.9 C 0 km/h
457 28-03-2010 20:21:01 9.8 C 6.96 g/m*3 9.8 C 0 km/h
458 28-03-2010 20:33:01 9.8 C 6.96 g/m*3 9.8 C 0 km/h
459 28-03-2010 20:45:01 9.9 C 6.91 g/m*3 9.9 C 0 km/h
460 28-03-2010 20:57:02 9.9 C 6.91 g/m*3 9.9 C 0 km/h
461 28-03-2010 21:09:01 9.9 C 6.91 g/m*3 9.9 C 0 km/h
462 28-03-2010 21:21:01 9.9 C 6.82 g/m*3 9.9 C 0 km/h
463 28-03-2010 21:33:02 9.9 C 6.82 g/m*3 9.9 C 0 km/h
464 28-03-2010 21:45:01 9.8 C 6.87 g/m*3 9.8 C 0 km/h
465 28-03-2010 21:57:01 9.8 C 6.87 g/m*3 9.8 C 0 km/h
466 28-03-2010 22:10:04 9.7 C 6.91 g/m*3 9.7 C 0 km/h
467 28-03-2010 22:22:04 9.6 C 6.78 g/m*3 9.6 C 0 km/h
468 28-03-2010 22:34:04 9.5 C 6.74 g/m*3 9.5 C 0 km/h
469 28-03-2010 22:46:04 9.4 C 6.87 g/m*3 9.4 C 0 km/h
470 28-03-2010 22:58:04 9.4 C 6.87 g/m*3 9.4 C 0 km/h
471 28-03-2010 23:10:04 9.5 C 6.92 g/m*3 9.5 C 0 km/h
472 28-03-2010 23:22:04 9.3 C 6.83 g/m*3 9.3 C 0 km/h
473 28-03-2010 23:34:04 9.4 C 6.96 g/m*3 9.4 C 0 km/h
474 28-03-2010 23:46:04 9.7 C 6.91 g/m*3 9.7 C 0 km/h
475 28-03-2010 23:58:04 9.8 C 6.87 g/m*3 9.8 C 0 km/h
Sensor: Nr:Datum:Temp:Abs-Feuchte:Windchill:Wind:
Aussen-T/F 476 29-03-2010 00:10:04 10 C 6.86 g/m*3 10 C 0 km/h
477 29-03-2010 00:22:04 10 C 6.77 g/m*3 10 C 0 km/h
478 29-03-2010 00:34:04 9.8 C 6.87 g/m*3 9.8 C 0 km/h
479 29-03-2010 00:46:04 9.8 C 6.87 g/m*3 9.8 C 0 km/h
480 29-03-2010 00:58:04 9.8 C 6.87 g/m*3 9.8 C 0 km/h
481 29-03-2010 01:10:04 9.8 C 7.05 g/m*3 9.8 C 0 km/h
482 29-03-2010 01:22:04 9.7 C 7.1 g/m*3 9.7 C 0 km/h
483 29-03-2010 01:34:04 9.6 C 7.15 g/m*3 9.6 C 0 km/h
484 29-03-2010 01:46:05 9.6 C 7.15 g/m*3 9.6 C 0 km/h
485 29-03-2010 01:58:05 9.6 C 7.24 g/m*3 9.6 C 0 km/h
486 29-03-2010 02:10:05 9.5 C 7.28 g/m*3 9.5 C 0 km/h
487 29-03-2010 02:22:05 9.3 C 7.28 g/m*3 9.3 C 0 km/h
488 29-03-2010 02:34:05 9.3 C 7.46 g/m*3 9.3 C 0 km/h
489 29-03-2010 02:46:05 9.3 C 7.55 g/m*3 9.3 C 0 km/h
490 29-03-2010 02:58:05 9.3 C 7.64 g/m*3 9.3 C 0 km/h
491 29-03-2010 03:10:05 9.3 C 7.73 g/m*3 9.3 C 0 km/h
492 29-03-2010 03:22:05 9.4 C 7.87 g/m*3 9.4 C 0 km/h
493 29-03-2010 03:34:05 10 C 7.99 g/m*3 10 C 0 km/h
494 29-03-2010 03:46:05 10.4 C 8.1 g/m*3 10.4 C 0 km/h
495 29-03-2010 03:58:05 10.6 C 8 g/m*3 10.6 C 0 km/h
496 29-03-2010 04:10:05 11 C 8.01 g/m*3 11 C 0 km/h
497 29-03-2010 04:22:05 11.1 C 7.96 g/m*3 11.1 C 0 km/h
498 29-03-2010 04:34:05 11.3 C 7.96 g/m*3 11.3 C 0 km/h
499 29-03-2010 04:46:05 11.5 C 7.95 g/m*3 11.5 C 0 km/h
500 29-03-2010 04:58:05 11.5 C 7.95 g/m*3 11.5 C 0 km/h
Sensor: Nr:Datum:Temp:Abs-Feuchte:Windchill:Wind:
Aussen-T/F 501 29-03-2010 05:10:05 11.5 C 7.95 g/m*3 11.5 C 0 km/h
502 29-03-2010 05:22:05 11.5 C 7.95 g/m*3 11.5 C 0 km/h
503 29-03-2010 05:34:05 11.5 C 8.06 g/m*3 11.5 C 0 km/h
504 29-03-2010 05:46:05 11.4 C 8.01 g/m*3 11.4 C 0 km/h
505 29-03-2010 05:58:05 11.5 C 8.06 g/m*3 11.5 C 0 km/h
506 29-03-2010 06:10:05 11.5 C 8.06 g/m*3 11.5 C 0 km/h
507 29-03-2010 06:22:06 11.5 C 8.06 g/m*3 11.5 C 0 km/h
508 29-03-2010 06:34:06 11.5 C 7.95 g/m*3 11.5 C 0 km/h
509 29-03-2010 06:46:01 11.4 C 7.9 g/m*3 11.4 C 0 km/h
510 29-03-2010 06:58:01 11.4 C 8.11 g/m*3 11.4 C 0 km/h
511 29-03-2010 07:10:02 11.2 C 8.11 g/m*3 11.2 C 0 km/h
512 29-03-2010 07:22:02 10.9 C 8.26 g/m*3 10.9 C 0 km/h
513 29-03-2010 07:34:02 10.7 C 8.35 g/m*3 10.7 C 0 km/h
514 29-03-2010 07:46:02 10.6 C 8.49 g/m*3 10.6 C 0 km/h
515 29-03-2010 07:58:02 10.6 C 8.59 g/m*3 10.6 C 0 km/h
516 29-03-2010 08:10:02 10.7 C 8.55 g/m*3 10.7 C 0 km/h
517 29-03-2010 08:22:01 10.8 C 8.5 g/m*3 10.8 C 0 km/h
518 29-03-2010 08:34:02 11.2 C 8.41 g/m*3 11.2 C 0 km/h
519 29-03-2010 08:46:02 11.4 C 8.11 g/m*3 11.4 C 0 km/h
520 29-03-2010 08:58:02 11.6 C 8 g/m*3 11.6 C 0 km/h
521 29-03-2010 09:10:02 11.8 C 7.89 g/m*3 11.8 C 0 km/h
522 29-03-2010 09:22:01 11.9 C 7.84 g/m*3 11.9 C 0 km/h
523 29-03-2010 09:34:02 12 C 7.78 g/m*3 12 C 0 km/h
524 29-03-2010 09:46:01 12.1 C 7.72 g/m*3 12.1 C 0 km/h
525 29-03-2010 09:58:01 12.2 C 7.77 g/m*3 12.2 C 0 km/h
Sensor: Nr:Datum:Temp:Abs-Feuchte:Windchill:Wind:
Aussen-T/F 526 29-03-2010 10:10:02 12.4 C 7.87 g/m*3 12.4 C 0 km/h
527 29-03-2010 10:22:02 12.6 C 7.85 g/m*3 12.6 C 0 km/h
528 29-03-2010 10:34:02 12.7 C 7.9 g/m*3 12.7 C 0 km/h
529 29-03-2010 10:46:02 12.5 C 7.7 g/m*3 12.5 C 0 km/h
530 29-03-2010 10:58:02 13 C 7.83 g/m*3 13 C 0 km/h
531 29-03-2010 11:10:02 13.1 C 7.87 g/m*3 13.1 C 0 km/h
532 29-03-2010 11:22:02 13.3 C 7.86 g/m*3 13.3 C 0 km/h
533 29-03-2010 11:34:01 13.5 C 7.84 g/m*3 13.5 C 0 km/h
534 29-03-2010 11:46:02 13.9 C 7.91 g/m*3 13.9 C 0 km/h
535 29-03-2010 11:58:02 14 C 7.72 g/m*3 14 C 0 km/h
536 29-03-2010 12:10:01 14.4 C 7.66 g/m*3 14.4 C 0 km/h
537 29-03-2010 12:22:02 15 C 7.57 g/m*3 15 C 0 km/h
538 29-03-2010 12:34:01 15.3 C 7.44 g/m*3 15.3 C 0 km/h
539 29-03-2010 12:46:02 14.9 C 7.52 g/m*3 14.9 C 0 km/h
540 29-03-2010 12:58:02 14.9 C 7.39 g/m*3 14.9 C 0 km/h
541 29-03-2010 13:10:02 15.3 C 7.18 g/m*3 15.3 C 0 km/h
542 29-03-2010 13:22:02 14.8 C 7.09 g/m*3 14.8 C 0 km/h
543 29-03-2010 13:34:03 14.6 C 7.38 g/m*3 14.6 C 0 km/h
544 29-03-2010 13:46:02 14.4 C 7.54 g/m*3 14.4 C 0 km/h
545 29-03-2010 13:58:02 13.8 C 8.1 g/m*3 13.8 C 0 km/h
546 29-03-2010 14:10:01 14.2 C 8.91 g/m*3 14.2 C 0 km/h
547 29-03-2010 14:22:02 14.7 C 8.69 g/m*3 14.7 C 0 km/h
548 29-03-2010 14:34:02 14.2 C 7.82 g/m*3 14.2 C 0 km/h
549 29-03-2010 14:46:02 13.1 C 8.33 g/m*3 13.1 C 0 km/h
550 29-03-2010 14:58:02 12.7 C 8.13 g/m*3 12.7 C 0 km/h
Sensor: Nr:Datum:Temp:Abs-Feuchte:Windchill:Wind:
Aussen-T/F 551 29-03-2010 15:10:02 13.2 C 8.38 g/m*3 13.2 C 0 km/h
552 29-03-2010 15:22:02 12.8 C 8.4 g/m*3 12.8 C 0 km/h
553 29-03-2010 15:34:02 12.8 C 8.62 g/m*3 12.8 C 0 km/h
554 29-03-2010 15:46:02 12.7 C 8.68 g/m*3 12.7 C 0 km/h
555 29-03-2010 15:58:02 13.4 C 8.6 g/m*3 13.4 C 0 km/h
556 29-03-2010 16:10:02 14 C 8.2 g/m*3 14 C 0 km/h
557 29-03-2010 16:22:02 14.2 C 7.69 g/m*3 14.2 C 0 km/h
558 29-03-2010 16:34:02 14.3 C 7.62 g/m*3 14.3 C 0 km/h
559 29-03-2010 16:46:02 14 C 7.96 g/m*3 14 C 0 km/h
560 29-03-2010 16:58:02 13.8 C 8.22 g/m*3 13.8 C 0 km/h
561 29-03-2010 17:10:02 12.2 C 8.31 g/m*3 12.2 C 0 km/h
562 29-03-2010 17:22:03 12.2 C 8.96 g/m*3 12.2 C 0 km/h
563 29-03-2010 17:34:02 12.6 C 9.4 g/m*3 12.6 C 0 km/h
564 29-03-2010 17:46:02 14.2 C 10.14 g/m*3 14.2 C 0 km/h
565 29-03-2010 17:58:02 14.5 C 9.45 g/m*3 14.5 C 0 km/h
566 29-03-2010 18:10:02 14.7 C 9.44 g/m*3 14.7 C 0 km/h
567 29-03-2010 18:22:02 14.9 C 8.92 g/m*3 14.9 C 0 km/h
568 29-03-2010 18:34:02 14.8 C 8.87 g/m*3 14.8 C 0 km/h
569 29-03-2010 18:46:02 14.5 C 8.83 g/m*3 14.5 C 0 km/h
570 29-03-2010 18:58:02 14.4 C 9.02 g/m*3 14.4 C 0 km/h
571 29-03-2010 19:10:01 14.2 C 8.91 g/m*3 14.2 C 0 km/h
572 29-03-2010 19:22:02 13.7 C 8.76 g/m*3 13.7 C 0 km/h
573 29-03-2010 19:34:01 13 C 8.73 g/m*3 13 C 0 km/h
574 29-03-2010 19:46:02 12.2 C 8.52 g/m*3 12.2 C 0 km/h
575 29-03-2010 19:58:02 11.7 C 8.37 g/m*3 11.7 C 0 km/h
Sensor: Nr:Datum:Temp:Abs-Feuchte:Windchill:Wind:
Aussen-T/F 576 29-03-2010 20:10:01 11.2 C 8.21 g/m*3 11.2 C 0 km/h
577 29-03-2010 20:22:01 10.8 C 8.2 g/m*3 10.8 C 0 km/h
578 29-03-2010 20:34:02 10.6 C 8.2 g/m*3 10.6 C 0 km/h
579 29-03-2010 20:46:02 10.5 C 8.15 g/m*3 10.5 C 0 km/h
580 29-03-2010 20:58:02 10.4 C 8.1 g/m*3 10.4 C 0 km/h
581 29-03-2010 21:10:01 10.3 C 8.04 g/m*3 10.3 C 0 km/h
582 29-03-2010 21:22:02 10.2 C 7.99 g/m*3 10.2 C 0 km/h
583 29-03-2010 21:34:02 10.3 C 8.04 g/m*3 10.3 C 0 km/h
584 29-03-2010 21:47:02 10.3 C 8.04 g/m*3 10.3 C 0 km/h
585 29-03-2010 21:59:02 10.2 C 7.99 g/m*3 10.2 C 0 km/h
586 29-03-2010 22:11:02 10 C 7.89 g/m*3 10 C 0 km/h
587 29-03-2010 22:23:03 10 C 7.89 g/m*3 10 C 0 km/h
588 29-03-2010 22:35:03 9.9 C 7.94 g/m*3 9.9 C 0 km/h
589 29-03-2010 22:47:03 9.8 C 7.89 g/m*3 9.8 C 0 km/h
590 29-03-2010 22:59:03 9.9 C 8.03 g/m*3 9.9 C 0 km/h
591 29-03-2010 23:11:03 9.9 C 7.94 g/m*3 9.9 C 0 km/h
592 29-03-2010 23:23:03 9.9 C 7.94 g/m*3 9.9 C 0 km/h
593 29-03-2010 23:35:03 10.1 C 7.85 g/m*3 10.1 C 0 km/h
594 29-03-2010 23:47:03 10.1 C 7.66 g/m*3 10.1 C 0 km/h
595 29-03-2010 23:59:03 10.2 C 7.71 g/m*3 10.2 C 0 km/h
596 30-03-2010 00:11:03 10.2 C 7.61 g/m*3 10.2 C 0 km/h
597 30-03-2010 00:23:03 10.3 C 7.66 g/m*3 10.3 C 0 km/h
598 30-03-2010 00:35:03 10.6 C 7.71 g/m*3 10.6 C 0 km/h
599 30-03-2010 00:47:03 10.7 C 7.66 g/m*3 10.7 C 0 km/h
600 30-03-2010 00:59:03 11.1 C 7.66 g/m*3 11.1 C 0 km/h
Sensor: Nr:Datum:Temp:Abs-Feuchte:Windchill:Wind:
Aussen-T/F 601 30-03-2010 01:11:03 11.3 C 7.65 g/m*3 11.3 C 0 km/h
602 30-03-2010 01:23:03 11.3 C 7.65 g/m*3 11.3 C 0 km/h
603 30-03-2010 01:35:03 11.3 C 7.55 g/m*3 11.3 C 0 km/h
604 30-03-2010 01:47:03 11 C 7.41 g/m*3 11 C 0 km/h
605 30-03-2010 01:59:03 11.1 C 7.35 g/m*3 11.1 C 0 km/h
606 30-03-2010 02:11:03 11.3 C 7.24 g/m*3 11.3 C 0 km/h
607 30-03-2010 02:23:03 11.3 C 7.24 g/m*3 11.3 C 0 km/h
608 30-03-2010 02:35:03 11.1 C 7.25 g/m*3 11.1 C 0 km/h
609 30-03-2010 02:47:04 11.7 C 7.22 g/m*3 11.7 C 0 km/h
610 30-03-2010 02:59:04 11.6 C 7.17 g/m*3 11.6 C 0 km/h
611 30-03-2010 03:11:04 11.3 C 7.14 g/m*3 11.3 C 0 km/h
612 30-03-2010 03:23:04 11.3 C 7.24 g/m*3 11.3 C 0 km/h
613 30-03-2010 03:35:04 10.9 C 7.16 g/m*3 10.9 C 0 km/h
614 30-03-2010 03:47:04 10.8 C 7.22 g/m*3 10.8 C 0 km/h
615 30-03-2010 03:59:04 11 C 7.21 g/m*3 11 C 0 km/h
616 30-03-2010 04:11:04 11.4 C 7.29 g/m*3 11.4 C 0 km/h
617 30-03-2010 04:23:04 11.4 C 7.19 g/m*3 11.4 C 0 km/h
618 30-03-2010 04:35:04 11.5 C 7.13 g/m*3 11.5 C 0 km/h
619 30-03-2010 04:47:04 11.4 C 7.08 g/m*3 11.4 C 0 km/h
620 30-03-2010 04:59:04 11.3 C 7.14 g/m*3 11.3 C 0 km/h
621 30-03-2010 05:11:04 11.4 C 7.29 g/m*3 11.4 C 0 km/h
622 30-03-2010 05:23:04 11.1 C 7.05 g/m*3 11.1 C 0 km/h
623 30-03-2010 05:35:04 11 C 7.01 g/m*3 11 C 0 km/h
624 30-03-2010 05:47:04 10.7 C 7.07 g/m*3 10.7 C 0 km/h
625 30-03-2010 05:59:04 10.5 C 6.98 g/m*3 10.5 C 0 km/h
Sensor: Nr:Datum:Temp:Abs-Feuchte:Windchill:Wind:
Aussen-T/F 626 30-03-2010 06:11:04 10.5 C 7.08 g/m*3 10.5 C 0 km/h
627 30-03-2010 06:23:04 10.3 C 7.09 g/m*3 10.3 C 0 km/h
628 30-03-2010 06:35:04 10 C 6.95 g/m*3 10 C 0 km/h
629 30-03-2010 06:47:04 9.8 C 7.14 g/m*3 9.8 C 0 km/h
630 30-03-2010 06:59:04 9.8 C 7.24 g/m*3 9.8 C 0 km/h
631 30-03-2010 07:11:01 10 C 7.14 g/m*3 10 C 0 km/h
632 30-03-2010 07:23:02 10.2 C 7.04 g/m*3 10.2 C 0 km/h
633 30-03-2010 07:35:02 10.5 C 6.89 g/m*3 10.5 C 0 km/h
634 30-03-2010 07:47:02 10.6 C 6.83 g/m*3 10.6 C 0 km/h
635 30-03-2010 07:59:02 10.7 C 6.88 g/m*3 10.7 C 0 km/h
636 30-03-2010 08:11:02 10.7 C 6.88 g/m*3 10.7 C 0 km/h
637 30-03-2010 08:23:02 11 C 6.91 g/m*3 11 C 0 km/h
638 30-03-2010 08:35:02 11.1 C 6.85 g/m*3 11.1 C 0 km/h
639 30-03-2010 08:47:01 11.4 C 6.67 g/m*3 11.4 C 0 km/h
640 30-03-2010 08:59:01 11.4 C 6.77 g/m*3 11.4 C 0 km/h
641 30-03-2010 09:11:02 11.8 C 6.95 g/m*3 11.8 C 0 km/h
642 30-03-2010 09:23:01 12.2 C 6.69 g/m*3 12.2 C 0 km/h
643 30-03-2010 09:35:02 12.6 C 6.75 g/m*3 12.6 C 0 km/h
644 30-03-2010 09:47:02 12.9 C 6.54 g/m*3 12.9 C 0 km/h
645 30-03-2010 09:59:02 13.1 C 6.39 g/m*3 13.1 C 0 km/h
646 30-03-2010 10:11:02 13.2 C 6.43 g/m*3 13.2 C 0 km/h
647 30-03-2010 10:23:01 13.1 C 5.93 g/m*3 13.1 C 0 km/h
648 30-03-2010 10:35:02 14.2 C 6.11 g/m*3 14.2 C 0 km/h
649 30-03-2010 10:47:02 14.4 C 5.07 g/m*3 14.4 C 0 km/h
650 30-03-2010 10:59:02 14.1 C 4.85 g/m*3 14.1 C 0 km/h
Sensor: Nr:Datum:Temp:Abs-Feuchte:Windchill:Wind:
Aussen-T/F 651 30-03-2010 11:11:02 14.1 C 4.98 g/m*3 14.1 C 0 km/h
652 30-03-2010 11:23:01 15 C 4.74 g/m*3 15 C 0 km/h
653 30-03-2010 11:35:02 15.2 C 4.67 g/m*3 15.2 C 0 km/h
654 30-03-2010 11:47:02 15.3 C 4.57 g/m*3 15.3 C 0 km/h
655 30-03-2010 11:59:02 15.8 C 4.71 g/m*3 15.8 C 0 km/h
656 30-03-2010 12:11:02 16 C 4.63 g/m*3 16 C 0 km/h
657 30-03-2010 12:23:02 16.2 C 4.55 g/m*3 16.2 C 0 km/h
658 30-03-2010 12:35:02 16.6 C 4.66 g/m*3 16.6 C 0 km/h
659 30-03-2010 12:47:02 16.7 C 4.55 g/m*3 16.7 C 0 km/h
660 30-03-2010 12:59:02 17.2 C 4.69 g/m*3 17.2 C 0 km/h
661 30-03-2010 13:11:02 17.4 C 4.59 g/m*3 17.4 C 0 km/h
662 30-03-2010 13:23:02 17.3 C 4.71 g/m*3 17.3 C 0 km/h
663 30-03-2010 13:35:02 17.7 C 4.83 g/m*3 17.7 C 0 km/h
664 30-03-2010 13:47:02 18.1 C 4.79 g/m*3 18.1 C 0 km/h
665 30-03-2010 13:59:02 18.2 C 4.66 g/m*3 18.2 C 0 km/h
666 30-03-2010 14:11:02 18.5 C 4.9 g/m*3 18.5 C 0 km/h
667 30-03-2010 14:23:02 18.9 C 4.7 g/m*3 18.9 C 0 km/h
668 30-03-2010 14:35:01 18.3 C 4.53 g/m*3 18.3 C 0 km/h
669 30-03-2010 14:47:02 18 C 4.61 g/m*3 18 C 0 km/h
670 30-03-2010 14:59:02 17.7 C 4.68 g/m*3 17.7 C 0 km/h
671 30-03-2010 15:11:01 17.9 C 4.58 g/m*3 17.9 C 0 km/h
672 30-03-2010 15:23:01 17.7 C 4.68 g/m*3 17.7 C 0 km/h
673 30-03-2010 15:35:02 18.6 C 4.62 g/m*3 18.6 C 0 km/h
674 30-03-2010 15:47:02 18.7 C 4.48 g/m*3 18.7 C 0 km/h
675 30-03-2010 15:59:03 18.2 C 4.51 g/m*3 18.2 C 0 km/h
Sensor: Nr:Datum:Temp:Abs-Feuchte:Windchill:Wind:
Aussen-T/F 676 30-03-2010 16:11:02 18.7 C 4.64 g/m*3 18.7 C 0 km/h
677 30-03-2010 16:23:02 17.5 C 5.22 g/m*3 17.5 C 0 km/h
678 30-03-2010 16:35:02 16.4 C 5.58 g/m*3 16.4 C 0 km/h
679 30-03-2010 16:47:01 15.9 C 5.55 g/m*3 15.9 C 0 km/h
680 30-03-2010 16:59:01 15.6 C 5.45 g/m*3 15.6 C 0 km/h
681 30-03-2010 17:11:02 14.9 C 5.48 g/m*3 14.9 C 0 km/h
682 30-03-2010 17:23:01 14.4 C 5.44 g/m*3 14.4 C 0 km/h
683 30-03-2010 17:35:02 14.2 C 5.49 g/m*3 14.2 C 0 km/h
684 30-03-2010 17:47:02 14 C 5.43 g/m*3 14 C 0 km/h
685 30-03-2010 17:59:02 13.8 C 5.48 g/m*3 13.8 C 0 km/h
686 30-03-2010 18:11:02 13.6 C 5.65 g/m*3 13.6 C 0 km/h
687 30-03-2010 18:23:02 13.3 C 5.89 g/m*3 13.3 C 0 km/h
688 30-03-2010 18:35:02 12.9 C 6.2 g/m*3 12.9 C 0 km/h
689 30-03-2010 18:47:02 12 C 6.39 g/m*3 12 C 0 km/h
690 30-03-2010 18:59:02 11.6 C 6.65 g/m*3 11.6 C 0 km/h
691 30-03-2010 19:11:02 11.5 C 6.82 g/m*3 11.5 C 0 km/h
692 30-03-2010 19:23:02 11.1 C 6.65 g/m*3 11.1 C 0 km/h
693 30-03-2010 19:35:02 11.3 C 6.73 g/m*3 11.3 C 0 km/h
694 30-03-2010 19:47:01 11.4 C 6.67 g/m*3 11.4 C 0 km/h
695 30-03-2010 19:59:01 11.3 C 6.43 g/m*3 11.3 C 0 km/h
696 30-03-2010 20:11:02 10.9 C 6.47 g/m*3 10.9 C 0 km/h
697 30-03-2010 20:23:01 10.5 C 6.4 g/m*3 10.5 C 0 km/h
698 30-03-2010 20:35:01 10.6 C 6.44 g/m*3 10.6 C 0 km/h
699 30-03-2010 20:47:01 10.7 C 6.38 g/m*3 10.7 C 0 km/h
700 30-03-2010 20:59:01 10.7 C 6.29 g/m*3 10.7 C 0 km/h
Sensor: Nr:Datum:Temp:Abs-Feuchte:Windchill:Wind:
Aussen-T/F 701 30-03-2010 21:11:02 10.4 C 6.36 g/m*3 10.4 C 0 km/h
702 30-03-2010 21:23:01 10.1 C 6.24 g/m*3 10.1 C 0 km/h
703 30-03-2010 21:35:01 10 C 6.3 g/m*3 10 C 0 km/h
704 30-03-2010 21:47:01 9.8 C 6.31 g/m*3 9.8 C 0 km/h
705 30-03-2010 21:59:01 9.7 C 6.27 g/m*3 9.7 C 0 km/h
706 30-03-2010 22:11:02 9.4 C 6.24 g/m*3 9.4 C 0 km/h
707 30-03-2010 22:23:02 9.3 C 6.29 g/m*3 9.3 C 0 km/h
708 30-03-2010 22:36:04 9.6 C 6.32 g/m*3 9.6 C 0 km/h
709 30-03-2010 22:48:05 9.8 C 6.12 g/m*3 9.8 C 0 km/h
710 30-03-2010 23:00:05 10.2 C 5.8 g/m*3 10.2 C 0 km/h
711 30-03-2010 23:12:05 10.6 C 5.76 g/m*3 10.6 C 0 km/h
712 30-03-2010 23:24:05 7.9 C 5.83 g/m*3 7.9 C 0 km/h
713 30-03-2010 23:36:05 7.4 C 5.49 g/m*3 7.4 C 0 km/h
714 30-03-2010 23:48:05 7.3 C 5.37 g/m*3 7.3 C 0 km/h
715 31-03-2010 00:00:05 7.1 C 5.07 g/m*3 7.1 C 0 km/h
716 31-03-2010 00:12:05 7 C 4.88 g/m*3 7 C 0 km/h
717 31-03-2010 00:24:05 6.9 C 4.93 g/m*3 6.9 C 0 km/h
718 31-03-2010 00:36:05 6.6 C 4.83 g/m*3 6.6 C 0 km/h
719 31-03-2010 00:48:05 6.6 C 4.76 g/m*3 6.6 C 0 km/h
720 31-03-2010 01:00:05 6.3 C 4.74 g/m*3 6.3 C 0 km/h
721 31-03-2010 01:12:05 6.2 C 4.71 g/m*3 6.2 C 0 km/h
722 31-03-2010 01:24:05 6.3 C 4.74 g/m*3 6.3 C 0 km/h
723 31-03-2010 01:36:05 6.2 C 4.63 g/m*3 6.2 C 0 km/h
724 31-03-2010 01:48:05 6.1 C 4.6 g/m*3 6.1 C 0 km/h
725 31-03-2010 02:00:05 6 C 4.57 g/m*3 6 C 0 km/h
Sensor: Nr:Datum:Temp:Abs-Feuchte:Windchill:Wind:
Aussen-T/F 726 31-03-2010 02:12:05 6 C 4.65 g/m*3 6 C 0 km/h
727 31-03-2010 02:24:05 6 C 4.65 g/m*3 6 C 0 km/h
728 31-03-2010 02:36:05 6 C 4.65 g/m*3 6 C 0 km/h
729 31-03-2010 02:48:05 5.9 C 4.69 g/m*3 5.9 C 0 km/h
730 31-03-2010 03:00:06 5.7 C 4.7 g/m*3 5.7 C 0 km/h
731 31-03-2010 03:12:06 5.8 C 4.73 g/m*3 5.8 C 0 km/h
732 31-03-2010 03:24:06 5.8 C 4.8 g/m*3 5.8 C 0 km/h
733 31-03-2010 03:36:06 5.8 C 4.8 g/m*3 5.8 C 0 km/h
734 31-03-2010 03:48:06 5.5 C 4.78 g/m*3 5.5 C 0 km/h
735 31-03-2010 04:00:06 5.5 C 4.85 g/m*3 5.5 C 0 km/h
736 31-03-2010 04:12:06 5.3 C 4.85 g/m*3 5.3 C 0 km/h
737 31-03-2010 04:24:06 5.3 C 4.99 g/m*3 5.3 C 0 km/h
738 31-03-2010 04:36:06 5.6 C 5.16 g/m*3 5.6 C 0 km/h
739 31-03-2010 04:48:06 5.8 C 5.16 g/m*3 5.8 C 0 km/h
740 31-03-2010 05:00:06 5.7 C 5.12 g/m*3 5.7 C 0 km/h
741 31-03-2010 05:12:06 6.1 C 5.11 g/m*3 6.1 C 0 km/h
742 31-03-2010 05:24:06 6.5 C 4.95 g/m*3 6.5 C 0 km/h
743 31-03-2010 05:36:06 6.6 C 4.91 g/m*3 6.6 C 0 km/h
744 31-03-2010 05:48:06 7.1 C 4.76 g/m*3 7.1 C 0 km/h
745 31-03-2010 06:00:06 7 C 4.65 g/m*3 7 C 0 km/h
746 31-03-2010 06:12:06 7.1 C 4.68 g/m*3 7.1 C 0 km/h
747 31-03-2010 06:24:06 7.3 C 4.58 g/m*3 7.3 C 0 km/h
748 31-03-2010 06:36:06 7.3 C 4.5 g/m*3 7.3 C 0 km/h
749 31-03-2010 06:48:06 7.3 C 4.5 g/m*3 7.3 C 0 km/h
750 31-03-2010 07:00:07 7.3 C 4.42 g/m*3 7.3 C 0 km/h
Sensor: Nr:Datum:Temp:Abs-Feuchte:Windchill:Wind:
Aussen-T/F 751 31-03-2010 07:12:04 7.3 C 4.42 g/m*3 7.3 C 0 km/h
752 31-03-2010 07:24:03 7.4 C 4.21 g/m*3 7.4 C 0 km/h
753 31-03-2010 07:36:04 7.4 C 4.06 g/m*3 7.4 C 0 km/h
754 31-03-2010 07:48:02 7.5 C 4.08 g/m*3 7.5 C 0 km/h
755 31-03-2010 08:00:02 7.4 C 4.14 g/m*3 7.4 C 0 km/h
756 31-03-2010 08:12:02 7.5 C 4.24 g/m*3 7.5 C 0 km/h
757 31-03-2010 08:24:01 7.5 C 4.24 g/m*3 7.5 C 0 km/h
758 31-03-2010 08:36:02 7.5 C 4.24 g/m*3 7.5 C 0 km/h
759 31-03-2010 08:48:02 7.4 C 4.14 g/m*3 7.4 C 0 km/h
760 31-03-2010 09:00:02 7.6 C 4.27 g/m*3 7.6 C 0 km/h
761 31-03-2010 09:12:02 7.8 C 4.41 g/m*3 7.8 C 0 km/h
762 31-03-2010 09:24:02 7.2 C 4.71 g/m*3 7.2 C 0 km/h
763 31-03-2010 09:36:02 7.4 C 4.85 g/m*3 7.4 C 0 km/h
764 31-03-2010 09:48:01 7.8 C 4.9 g/m*3 7.8 C 0 km/h
765 31-03-2010 10:00:01 6.8 C 5.05 g/m*3 6.8 C 0 km/h
766 31-03-2010 10:12:02 6 C 5.3 g/m*3 6 C 0 km/h
767 31-03-2010 10:24:02 6.5 C 5.55 g/m*3 6.5 C 0 km/h
768 31-03-2010 10:36:01 7.4 C 5.33 g/m*3 7.4 C 0 km/h
769 31-03-2010 10:48:02 8.5 C 4.7 g/m*3 8.5 C 0 km/h
770 31-03-2010 11:00:02 9.4 C 4.16 g/m*3 9.4 C 0 km/h
771 31-03-2010 11:12:01 10.1 C 4.26 g/m*3 10.1 C 0 km/h
772 31-03-2010 11:24:02 10.1 C 3.78 g/m*3 10.1 C 0 km/h
773 31-03-2010 11:36:01 10.2 C 3.81 g/m*3 10.2 C 0 km/h
774 31-03-2010 11:48:02 10.4 C 3.76 g/m*3 10.4 C 0 km/h
775 31-03-2010 12:00:02 10.8 C 3.85 g/m*3 10.8 C 0 km/h
Sensor: Nr:Datum:Temp:Abs-Feuchte:Windchill:Wind:
Aussen-T/F 776 31-03-2010 12:12:02 10.7 C 3.54 g/m*3 10.7 C 0 km/h
777 31-03-2010 12:24:02 10.2 C 3.52 g/m*3 10.2 C 0 km/h
778 31-03-2010 12:36:02 10.3 C 3.93 g/m*3 10.3 C 0 km/h
779 31-03-2010 12:48:02 10.6 C 3.71 g/m*3 10.6 C 0 km/h
780 31-03-2010 13:00:03 10.9 C 3.48 g/m*3 10.9 C 0 km/h
781 31-03-2010 13:12:01 11.6 C 3.22 g/m*3 11.6 C 0 km/h
782 31-03-2010 13:24:01 11.4 C 3.08 g/m*3 11.4 C 0 km/h
783 31-03-2010 13:36:02 11.8 C 3.16 g/m*3 11.8 C 0 km/h
784 31-03-2010 13:48:02 11.8 C 3.16 g/m*3 11.8 C 0 km/h
785 31-03-2010 14:00:02 11.6 C 3.22 g/m*3 11.6 C 0 km/h
786 31-03-2010 14:12:02 11.5 C 3.1 g/m*3 11.5 C 0 km/h
787 31-03-2010 14:24:02 11.8 C 3.05 g/m*3 11.8 C 0 km/h
788 31-03-2010 14:36:02 12.3 C 3.04 g/m*3 12.3 C 0 km/h
789 31-03-2010 14:48:02 11.9 C 3.18 g/m*3 11.9 C 0 km/h
790 31-03-2010 15:00:02 11.2 C 3.45 g/m*3 11.2 C 0 km/h
791 31-03-2010 15:12:02 11.9 C 4.13 g/m*3 11.9 C 0 km/h
792 31-03-2010 15:24:02 11.7 C 3.56 g/m*3 11.7 C 0 km/h
793 31-03-2010 15:36:02 8.6 C 5.41 g/m*3 8.6 C 0 km/h
794 31-03-2010 15:48:01 9.3 C 6.02 g/m*3 9.3 C 0 km/h
795 31-03-2010 16:00:01 11.2 C 5.17 g/m*3 11.2 C 0 km/h
796 31-03-2010 16:12:01 12.2 C 4.21 g/m*3 12.2 C 0 km/h
797 31-03-2010 16:24:01 12.7 C 4.01 g/m*3 12.7 C 0 km/h
798 31-03-2010 16:36:01 13.6 C 3.77 g/m*3 13.6 C 0 km/h
799 31-03-2010 16:48:01 13.4 C 3.25 g/m*3 13.4 C 0 km/h
800 31-03-2010 17:00:01 13.4 C 3.14 g/m*3 13.4 C 0 km/h
Sensor: Nr:Datum:Temp:Abs-Feuchte:Windchill:Wind:
Aussen-T/F 801 31-03-2010 17:12:01 13 C 2.84 g/m*3 13 C 0 km/h
802 31-03-2010 17:24:02 12.5 C 2.86 g/m*3 12.5 C 0 km/h
803 31-03-2010 17:36:01 13.3 C 2.66 g/m*3 13.3 C 0 km/h
804 31-03-2010 17:48:02 12.5 C 3.3 g/m*3 12.5 C 0 km/h
805 31-03-2010 18:00:02 11.4 C 4 g/m*3 11.4 C 0 km/h
806 31-03-2010 18:12:02 11.9 C 3.71 g/m*3 11.9 C 0 km/h
807 31-03-2010 18:24:02 12.2 C 3.45 g/m*3 12.2 C 0 km/h
808 31-03-2010 18:36:02 10.3 C 3.35 g/m*3 10.3 C 0 km/h
809 31-03-2010 18:48:02 9.3 C 4.58 g/m*3 9.3 C 0 km/h
810 31-03-2010 19:00:02 9.6 C 4.12 g/m*3 9.6 C 0 km/h
811 31-03-2010 19:12:02 8.4 C 4.58 g/m*3 8.4 C 0 km/h
812 31-03-2010 19:24:02 8.1 C 4.74 g/m*3 8.1 C 0 km/h
813 31-03-2010 19:36:01 8.2 C 4.44 g/m*3 8.2 C 0 km/h
814 31-03-2010 19:48:02 7.9 C 4.19 g/m*3 7.9 C 0 km/h
815 31-03-2010 20:00:02 7.5 C 4.08 g/m*3 7.5 C 0 km/h
816 31-03-2010 20:12:01 7.3 C 4.03 g/m*3 7.3 C 0 km/h
817 31-03-2010 20:24:02 7.1 C 3.98 g/m*3 7.1 C 0 km/h
818 31-03-2010 20:36:02 7 C 3.95 g/m*3 7 C 0 km/h
819 31-03-2010 20:48:02 6.9 C 4.16 g/m*3 6.9 C 0 km/h
820 31-03-2010 21:00:03 7 C 4.26 g/m*3 7 C 0 km/h
821 31-03-2010 21:12:02 6.2 C 4.85 g/m*3 6.2 C 0 km/h
822 31-03-2010 21:24:02 5.7 C 4.98 g/m*3 5.7 C 0 km/h
823 31-03-2010 21:36:02 5.6 C 4.95 g/m*3 5.6 C 0 km/h
824 31-03-2010 21:48:02 5.5 C 4.92 g/m*3 5.5 C 0 km/h
825 31-03-2010 22:00:02 5.6 C 4.74 g/m*3 5.6 C 0 km/h
Sensor: Nr:Datum:Temp:Abs-Feuchte:Windchill:Wind:
Aussen-T/F 826 31-03-2010 22:12:01 5.3 C 4.78 g/m*3 5.3 C 0 km/h
827 31-03-2010 22:25:03 5.3 C 4.71 g/m*3 5.3 C 0 km/h
828 31-03-2010 22:37:03 5.2 C 4.68 g/m*3 5.2 C 0 km/h
829 31-03-2010 22:49:03 5.1 C 4.65 g/m*3 5.1 C 0 km/h
830 31-03-2010 23:01:03 5.1 C 4.65 g/m*3 5.1 C 0 km/h
831 31-03-2010 23:13:03 5.2 C 4.54 g/m*3 5.2 C 0 km/h
832 31-03-2010 23:25:03 5.1 C 4.51 g/m*3 5.1 C 0 km/h
833 31-03-2010 23:37:03 5.5 C 4.28 g/m*3 5.5 C 0 km/h
834 31-03-2010 23:49:03 5.5 C 4.21 g/m*3 5.5 C 0 km/h
835 01-04-2010 00:01:03 5.6 C 4.1 g/m*3 5.6 C 0 km/h
836 01-04-2010 00:13:03 5.6 C 3.96 g/m*3 5.6 C 0 km/h
837 01-04-2010 00:25:03 5.7 C 3.77 g/m*3 5.7 C 0 km/h
838 01-04-2010 00:37:03 5.6 C 3.75 g/m*3 5.6 C 0 km/h
839 01-04-2010 00:49:03 5.5 C 3.65 g/m*3 5.5 C 0 km/h
840 01-04-2010 01:01:03 5.3 C 3.6 g/m*3 5.3 C 0 km/h
841 01-04-2010 01:13:03 5.3 C 3.6 g/m*3 5.3 C 0 km/h
842 01-04-2010 01:25:03 5.2 C 3.51 g/m*3 5.2 C 0 km/h
843 01-04-2010 01:37:04 5 C 3.53 g/m*3 5 C 0 km/h
844 01-04-2010 01:49:04 4.9 C 3.58 g/m*3 4.9 C 0 km/h
845 01-04-2010 02:01:04 4.8 C 3.62 g/m*3 4.8 C 0 km/h
846 01-04-2010 02:13:04 5 C 3.53 g/m*3 5 C 0 km/h
847 01-04-2010 02:25:04 5.1 C 3.49 g/m*3 5.1 C 0 km/h
848 01-04-2010 02:37:04 5 C 3.47 g/m*3 5 C 0 km/h
849 01-04-2010 02:49:04 4.6 C 3.44 g/m*3 4.6 C 0 km/h
850 01-04-2010 03:01:04 4.4 C 3.46 g/m*3 4.4 C 0 km/h
Sensor: Nr:Datum:Temp:Abs-Feuchte:Windchill:Wind:
Aussen-T/F 851 01-04-2010 03:13:04 4.7 C 3.46 g/m*3 4.7 C 0 km/h
852 01-04-2010 03:25:04 4.7 C 3.46 g/m*3 4.7 C 0 km/h
853 01-04-2010 03:37:04 4.4 C 3.33 g/m*3 4.4 C 0 km/h
854 01-04-2010 03:49:04 4.2 C 3.35 g/m*3 4.2 C 0 km/h
855 01-04-2010 04:01:04 4.2 C 3.41 g/m*3 4.2 C 0 km/h
856 01-04-2010 04:13:04 3.8 C 3.45 g/m*3 3.8 C 0 km/h
857 01-04-2010 04:25:04 3.9 C 3.54 g/m*3 3.9 C 0 km/h
858 01-04-2010 04:37:04 3.8 C 3.45 g/m*3 3.8 C 0 km/h
859 01-04-2010 04:49:04 3.8 C 3.45 g/m*3 3.8 C 0 km/h
860 01-04-2010 05:01:04 3.5 C 3.44 g/m*3 3.5 C 0 km/h
861 01-04-2010 05:13:04 3.6 C 3.53 g/m*3 3.6 C 0 km/h
862 01-04-2010 05:25:04 3.6 C 3.53 g/m*3 3.6 C 0 km/h
863 01-04-2010 05:37:04 3.5 C 3.5 g/m*3 3.5 C 0 km/h
864 01-04-2010 05:49:05 3.5 C 3.57 g/m*3 3.5 C 0 km/h
865 01-04-2010 06:01:05 3.6 C 3.53 g/m*3 3.6 C 0 km/h
866 01-04-2010 06:13:05 3.5 C 3.5 g/m*3 3.5 C 0 km/h
867 01-04-2010 06:25:05 3.5 C 3.5 g/m*3 3.5 C 0 km/h
868 01-04-2010 06:37:05 3.5 C 3.5 g/m*3 3.5 C 0 km/h
869 01-04-2010 06:49:05 3.2 C 3.56 g/m*3 3.2 C 0 km/h
870 01-04-2010 07:01:03 3.5 C 3.69 g/m*3 3.5 C 0 km/h
871 01-04-2010 07:13:03 3.5 C 3.69 g/m*3 3.5 C 0 km/h
872 01-04-2010 07:25:03 3.3 C 3.64 g/m*3 3.3 C 0 km/h
873 01-04-2010 07:37:02 3.3 C 3.64 g/m*3 3.3 C 0 km/h
874 01-04-2010 07:49:02 3.4 C 3.66 g/m*3 3.4 C 0 km/h
875 01-04-2010 08:01:01 3.4 C 3.66 g/m*3 3.4 C 0 km/h
Sensor: Nr:Datum:Temp:Abs-Feuchte:Windchill:Wind:
Aussen-T/F 876 01-04-2010 08:13:01 3.5 C 3.69 g/m*3 3.5 C 0 km/h
877 01-04-2010 08:25:02 3.5 C 3.63 g/m*3 3.5 C 0 km/h
878 01-04-2010 08:37:01 3.5 C 3.69 g/m*3 3.5 C 0 km/h
879 01-04-2010 08:49:02 3.8 C 3.7 g/m*3 3.8 C 0 km/h
880 01-04-2010 09:01:02 3.9 C 3.73 g/m*3 3.9 C 0 km/h
881 01-04-2010 09:13:02 4.2 C 3.67 g/m*3 4.2 C 0 km/h
882 01-04-2010 09:25:02 4.5 C 3.68 g/m*3 4.5 C 0 km/h
883 01-04-2010 09:37:03 5.2 C 3.72 g/m*3 5.2 C 0 km/h
884 01-04-2010 09:49:02 5.2 C 3.65 g/m*3 5.2 C 0 km/h
885 01-04-2010 10:01:02 5.1 C 3.69 g/m*3 5.1 C 0 km/h
886 01-04-2010 10:13:02 5.2 C 3.72 g/m*3 5.2 C 0 km/h
887 01-04-2010 10:25:02 5.3 C 3.67 g/m*3 5.3 C 0 km/h
888 01-04-2010 10:37:02 5.6 C 3.68 g/m*3 5.6 C 0 km/h
889 01-04-2010 10:49:02 6.1 C 3.65 g/m*3 6.1 C 0 km/h
890 01-04-2010 11:01:02 6.7 C 3.57 g/m*3 6.7 C 0 km/h
891 01-04-2010 11:13:02 6.9 C 3.46 g/m*3 6.9 C 0 km/h
892 01-04-2010 11:25:02 6.9 C 3.31 g/m*3 6.9 C 0 km/h
893 01-04-2010 11:37:02 7.2 C 3.45 g/m*3 7.2 C 0 km/h
894 01-04-2010 11:49:02 7.5 C 3.52 g/m*3 7.5 C 0 km/h
895 01-04-2010 12:01:02 8 C 3.39 g/m*3 8 C 0 km/h
896 01-04-2010 12:13:03 7.9 C 3.29 g/m*3 7.9 C 0 km/h
897 01-04-2010 12:25:02 7.7 C 3.32 g/m*3 7.7 C 0 km/h
898 01-04-2010 12:37:02 8 C 3.22 g/m*3 8 C 0 km/h
899 01-04-2010 12:49:02 9.1 C 3.28 g/m*3 9.1 C 0 km/h
900 01-04-2010 13:01:02 8.7 C 2.94 g/m*3 8.7 C 0 km/h
Sensor: Nr:Datum:Temp:Abs-Feuchte:Windchill:Wind:
Aussen-T/F 901 01-04-2010 13:13:02 8.5 C 2.73 g/m*3 8.5 C 0 km/h
902 01-04-2010 13:25:03 8.8 C 2.96 g/m*3 8.8 C 0 km/h
903 01-04-2010 13:37:02 9.3 C 2.79 g/m*3 9.3 C 0 km/h
904 01-04-2010 13:49:02 9 C 2.73 g/m*3 9 C 0 km/h
905 01-04-2010 14:01:02 8.8 C 2.7 g/m*3 8.8 C 0 km/h
906 01-04-2010 14:13:02 8.9 C 2.8 g/m*3 8.9 C 0 km/h
907 01-04-2010 14:25:02 10.2 C 2.66 g/m*3 10.2 C 0 km/h
908 01-04-2010 14:37:02 11 C 2.6 g/m*3 11 C 0 km/h
909 01-04-2010 14:49:02 8.2 C 3.43 g/m*3 8.2 C 0 km/h
910 01-04-2010 15:01:01 8.7 C 3.81 g/m*3 8.7 C 0 km/h
911 01-04-2010 15:13:01 9.7 C 3.69 g/m*3 9.7 C 0 km/h
912 01-04-2010 15:25:02 10.7 C 3.54 g/m*3 10.7 C 0 km/h
913 01-04-2010 15:37:01 10.6 C 3.32 g/m*3 10.6 C 0 km/h
914 01-04-2010 15:49:02 10.5 C 2.91 g/m*3 10.5 C 0 km/h
915 01-04-2010 16:01:01 10.4 C 2.89 g/m*3 10.4 C 0 km/h
916 01-04-2010 16:13:01 10.8 C 2.97 g/m*3 10.8 C 0 km/h
917 01-04-2010 16:25:01 10.4 C 2.89 g/m*3 10.4 C 0 km/h
918 01-04-2010 16:37:02 10.4 C 2.99 g/m*3 10.4 C 0 km/h
919 01-04-2010 16:49:02 11 C 3.1 g/m*3 11 C 0 km/h
920 01-04-2010 17:01:02 11 C 2.8 g/m*3 11 C 0 km/h
921 01-04-2010 17:13:02 10.7 C 2.75 g/m*3 10.7 C 0 km/h
922 01-04-2010 17:25:02 9.9 C 2.61 g/m*3 9.9 C 0 km/h
923 01-04-2010 17:37:02 9.2 C 3.04 g/m*3 9.2 C 0 km/h
924 01-04-2010 17:49:02 8.3 C 3.54 g/m*3 8.3 C 0 km/h
925 01-04-2010 18:01:02 8.1 C 3.41 g/m*3 8.1 C 0 km/h
Sensor: Nr:Datum:Temp:Abs-Feuchte:Windchill:Wind:
Aussen-T/F 926 01-04-2010 18:13:02 9.8 C 3.25 g/m*3 9.8 C 0 km/h
927 01-04-2010 18:25:02 8.4 C 3.31 g/m*3 8.4 C 0 km/h
928 01-04-2010 18:37:02 7.8 C 3.43 g/m*3 7.8 C 0 km/h
929 01-04-2010 18:49:02 5.4 C 3.28 g/m*3 5.4 C 0 km/h
930 01-04-2010 19:01:02 5.8 C 5.52 g/m*3 5.8 C 0 km/h
931 01-04-2010 19:13:03 6.4 C 5.51 g/m*3 6.4 C 0 km/h
932 01-04-2010 19:25:02 6.7 C 5.24 g/m*3 6.7 C 0 km/h
933 01-04-2010 19:37:02 6.5 C 4.8 g/m*3 6.5 C 0 km/h
934 01-04-2010 19:49:01 5.8 C 4.58 g/m*3 5.8 C 0 km/h
935 01-04-2010 20:01:02 5.3 C 4.44 g/m*3 5.3 C 0 km/h
936 01-04-2010 20:13:02 5 C 4.35 g/m*3 5 C 0 km/h
937 01-04-2010 20:25:01 4.7 C 4.53 g/m*3 4.7 C 0 km/h
938 01-04-2010 20:37:01 4.5 C 4.54 g/m*3 4.5 C 0 km/h
939 01-04-2010 20:49:01 4.2 C 4.51 g/m*3 4.2 C 0 km/h
940 01-04-2010 21:01:02 4.1 C 4.48 g/m*3 4.1 C 0 km/h
941 01-04-2010 21:13:02 3.9 C 4.48 g/m*3 3.9 C 0 km/h
942 01-04-2010 21:25:01 3.7 C 4.42 g/m*3 3.7 C 0 km/h
943 01-04-2010 21:37:01 3.6 C 4.46 g/m*3 3.6 C 0 km/h
944 01-04-2010 21:49:01 3.5 C 4.43 g/m*3 3.5 C 0 km/h
945 01-04-2010 22:01:02 3.2 C 4.46 g/m*3 3.2 C 0 km/h
946 01-04-2010 22:13:02 3.2 C 4.46 g/m*3 3.2 C 0 km/h
947 01-04-2010 22:25:01 3.2 C 4.46 g/m*3 3.2 C 0 km/h
948 01-04-2010 22:37:02 3.1 C 4.43 g/m*3 3.1 C 0 km/h
949 01-04-2010 22:50:02 3 C 4.46 g/m*3 3 C 0 km/h
950 01-04-2010 23:02:02 2.8 C 4.46 g/m*3 2.8 C 0 km/h
Sensor: Nr:Datum:Temp:Abs-Feuchte:Windchill:Wind:
Aussen-T/F 951 01-04-2010 23:14:02 2.6 C 4.46 g/m*3 2.6 C 0 km/h
952 01-04-2010 23:26:02 2.5 C 4.48 g/m*3 2.5 C 0 km/h
953 01-04-2010 23:38:02 2.4 C 4.45 g/m*3 2.4 C 0 km/h
954 01-04-2010 23:50:02 2.3 C 4.42 g/m*3 2.3 C 0 km/h
955 02-04-2010 00:02:02 2.3 C 4.48 g/m*3 2.3 C 0 km/h
956 02-04-2010 00:14:02 2.1 C 4.42 g/m*3 2.1 C 0 km/h
957 02-04-2010 00:26:02 1.9 C 4.42 g/m*3 1.9 C 0 km/h
958 02-04-2010 00:38:02 1.8 C 4.44 g/m*3 1.8 C 0 km/h
959 02-04-2010 00:50:02 1.6 C 4.38 g/m*3 1.6 C 0 km/h
960 02-04-2010 01:02:02 1.4 C 4.37 g/m*3 1.4 C 0 km/h
961 02-04-2010 01:14:02 1.2 C 4.31 g/m*3 1.2 C 0 km/h
962 02-04-2010 01:26:02 1.1 C 4.29 g/m*3 1.1 C 0 km/h
963 02-04-2010 01:38:02 0.9 C 4.28 g/m*3 0.9 C 0 km/h
964 02-04-2010 01:50:02 0.7 C 4.22 g/m*3 0.7 C 0 km/h
965 02-04-2010 02:02:02 0.6 C 4.19 g/m*3 0.6 C 0 km/h
966 02-04-2010 02:14:02 0.6 C 4.24 g/m*3 0.6 C 0 km/h
967 02-04-2010 02:26:02 0.5 C 4.26 g/m*3 0.5 C 0 km/h
968 02-04-2010 02:38:03 0.4 C 4.23 g/m*3 0.4 C 0 km/h
969 02-04-2010 02:50:03 0.1 C 4.15 g/m*3 0.1 C 0 km/h
970 02-04-2010 03:02:03 0.1 C 4.15 g/m*3 0.1 C 0 km/h
971 02-04-2010 03:14:03 -0.1 C 4.14 g/m*3 -0.1 C 0 km/h
972 02-04-2010 03:26:03 -0.1 C 4.14 g/m*3 -0.1 C 0 km/h
973 02-04-2010 03:38:03 -0.2 C 4.16 g/m*3 -0.2 C 0 km/h
974 02-04-2010 03:50:03 -0.3 C 4.13 g/m*3 -0.3 C 0 km/h
975 02-04-2010 04:02:03 -0.3 C 4.13 g/m*3 -0.3 C 0 km/h
Sensor: Nr:Datum:Temp:Abs-Feuchte:Windchill:Wind:
Aussen-T/F 976 02-04-2010 04:14:03 -0.5 C 4.07 g/m*3 -0.5 C 0 km/h
977 02-04-2010 04:26:03 -0.4 C 4.1 g/m*3 -0.4 C 0 km/h
978 02-04-2010 04:38:03 -0.5 C 4.12 g/m*3 -0.5 C 0 km/h
979 02-04-2010 04:50:03 -0.8 C 3.99 g/m*3 -0.8 C 0 km/h
980 02-04-2010 05:02:03 -0.9 C 3.96 g/m*3 -0.9 C 0 km/h
981 02-04-2010 05:14:03 -0.9 C 4.01 g/m*3 -0.9 C 0 km/h
982 02-04-2010 05:26:03 -1 C 3.98 g/m*3 -1 C 0 km/h
983 02-04-2010 05:38:03 -1 C 3.98 g/m*3 -1 C 0 km/h
984 02-04-2010 05:50:03 -0.9 C 4.05 g/m*3 -0.9 C 0 km/h
985 02-04-2010 06:02:03 -1 C 4.02 g/m*3 -1 C 0 km/h
986 02-04-2010 06:14:03 -1 C 4.07 g/m*3 -1 C 0 km/h
987 02-04-2010 06:26:03 -1 C 4.07 g/m*3 -1 C 0 km/h
988 02-04-2010 06:38:04 -1 C 4.11 g/m*3 -1 C 0 km/h
989 02-04-2010 06:50:04 -1 C 4.11 g/m*3 -1 C 0 km/h
990 02-04-2010 07:02:04 -1 C 4.11 g/m*3 -1 C 0 km/h
991 02-04-2010 07:14:04 -0.9 C 4.19 g/m*3 -0.9 C 0 km/h
992 02-04-2010 07:26:04 -0.9 C 4.19 g/m*3 -0.9 C 0 km/h
993 02-04-2010 07:38:04 -0.8 C 4.22 g/m*3 -0.8 C 0 km/h
994 02-04-2010 07:50:04 -0.9 C 4.19 g/m*3 -0.9 C 0 km/h
995 02-04-2010 08:02:04 -0.4 C 4.34 g/m*3 -0.4 C 0 km/h
996 02-04-2010 08:14:04 -0.3 C 4.41 g/m*3 -0.3 C 0 km/h
997 02-04-2010 08:26:04 -0.1 C 4.43 g/m*3 -0.1 C 0 km/h
998 02-04-2010 08:38:04 0.3 C 4.55 g/m*3 0.3 C 0 km/h
999 02-04-2010 08:50:04 0.2 C 4.52 g/m*3 0.2 C 0 km/h
1000 02-04-2010 09:02:04 0.3 C 4.5 g/m*3 0.3 C 0 km/h
Sensor: Nr:Datum:Temp:Abs-Feuchte:Windchill:Wind:
Aussen-T/F 1001 02-04-2010 09:14:04 0.7 C 4.58 g/m*3 0.7 C 0 km/h
1002 02-04-2010 09:26:02 1.2 C 4.68 g/m*3 1.2 C 0 km/h
1003 02-04-2010 09:38:02 1.5 C 4.73 g/m*3 1.5 C 0 km/h
1004 02-04-2010 09:50:01 1.8 C 4.77 g/m*3 1.8 C 0 km/h
1005 02-04-2010 10:02:02 2.2 C 4.79 g/m*3 2.2 C 0 km/h
1006 02-04-2010 10:14:02 2.7 C 4.89 g/m*3 2.7 C 0 km/h
1007 02-04-2010 10:26:02 3.3 C 4.97 g/m*3 3.3 C 0 km/h
1008 02-04-2010 10:38:01 4.2 C 5.22 g/m*3 4.2 C 0 km/h
1009 02-04-2010 10:50:01 5 C 5.37 g/m*3 5 C 0 km/h
1010 02-04-2010 11:02:01 5.7 C 5.34 g/m*3 5.7 C 0 km/h
1011 02-04-2010 11:14:01 6.9 C 5.62 g/m*3 6.9 C 0 km/h
1012 02-04-2010 11:26:02 8.1 C 4.83 g/m*3 8.1 C 0 km/h
1013 02-04-2010 11:38:01 9 C 4.67 g/m*3 9 C 0 km/h
1014 02-04-2010 11:50:02 9.9 C 4.67 g/m*3 9.9 C 0 km/h
1015 02-04-2010 12:02:02 10 C 4.23 g/m*3 10 C 0 km/h
1016 02-04-2010 12:14:02 10.3 C 4.21 g/m*3 10.3 C 0 km/h
1017 02-04-2010 12:26:02 10.5 C 4.07 g/m*3 10.5 C 0 km/h
1018 02-04-2010 12:38:02 10.9 C 4.08 g/m*3 10.9 C 0 km/h
1019 02-04-2010 12:50:02 11.4 C 4 g/m*3 11.4 C 0 km/h
1020 02-04-2010 13:02:02 11.3 C 3.88 g/m*3 11.3 C 0 km/h
1021 02-04-2010 13:14:02 11.7 C 3.66 g/m*3 11.7 C 0 km/h
1022 02-04-2010 13:26:02 11.5 C 3.41 g/m*3 11.5 C 0 km/h
1023 02-04-2010 13:38:02 11.7 C 3.45 g/m*3 11.7 C 0 km/h
1024 02-04-2010 13:50:01 12.5 C 3.52 g/m*3 12.5 C 0 km/h
1025 02-04-2010 14:02:02 12.5 C 3.41 g/m*3 12.5 C 0 km/h
Sensor: Nr:Datum:Temp:Abs-Feuchte:Windchill:Wind:
Aussen-T/F 1026 02-04-2010 14:14:02 12.1 C 3.32 g/m*3 12.1 C 0 km/h
1027 02-04-2010 14:26:01 12.8 C 3.36 g/m*3 12.8 C 0 km/h
1028 02-04-2010 14:38:02 12.7 C 3.23 g/m*3 12.7 C 0 km/h
1029 02-04-2010 14:50:02 13.6 C 3.18 g/m*3 13.6 C 0 km/h
1030 02-04-2010 15:02:02 12.7 C 3.01 g/m*3 12.7 C 0 km/h
1031 02-04-2010 15:14:02 12.5 C 3.08 g/m*3 12.5 C 0 km/h
1032 02-04-2010 15:26:01 13.6 C 3.06 g/m*3 13.6 C 0 km/h
1033 02-04-2010 15:38:02 12.8 C 3.14 g/m*3 12.8 C 0 km/h
1034 02-04-2010 15:50:02 14.4 C 3.21 g/m*3 14.4 C 0 km/h
1035 02-04-2010 16:02:02 13.7 C 2.72 g/m*3 13.7 C 0 km/h
1036 02-04-2010 16:14:02 14.5 C 2.86 g/m*3 14.5 C 0 km/h
1037 02-04-2010 16:26:01 14.8 C 2.53 g/m*3 14.8 C 0 km/h
1038 02-04-2010 16:38:02 15.6 C 2.66 g/m*3 15.6 C 0 km/h
1039 02-04-2010 16:50:02 14.6 C 2.5 g/m*3 14.6 C 0 km/h
1040 02-04-2010 17:02:02 15.2 C 2.6 g/m*3 15.2 C 0 km/h
1041 02-04-2010 17:14:02 16.6 C 2.83 g/m*3 16.6 C 0 km/h
1042 02-04-2010 17:26:02 15.9 C 2.71 g/m*3 15.9 C 0 km/h
1043 02-04-2010 17:38:02 16 C 2.72 g/m*3 16 C 0 km/h
1044 02-04-2010 17:50:02 15.1 C 2.58 g/m*3 15.1 C 0 km/h
1045 02-04-2010 18:02:02 13.8 C 2.38 g/m*3 13.8 C 0 km/h
1046 02-04-2010 18:14:02 13.3 C 2.31 g/m*3 13.3 C 0 km/h
1047 02-04-2010 18:26:02 13.1 C 2.28 g/m*3 13.1 C 0 km/h
1048 02-04-2010 18:38:02 12.8 C 2.24 g/m*3 12.8 C 0 km/h
1049 02-04-2010 18:50:02 12.3 C 2.39 g/m*3 12.3 C 0 km/h
1050 02-04-2010 19:02:01 12.2 C 2.7 g/m*3 12.2 C 0 km/h
Sensor: Nr:Datum:Temp:Abs-Feuchte:Windchill:Wind:
Aussen-T/F 1051 02-04-2010 19:14:01 12 C 2.77 g/m*3 12 C 0 km/h
1052 02-04-2010 19:26:02 11.8 C 2.84 g/m*3 11.8 C 0 km/h
1053 02-04-2010 19:38:01 11.6 C 3.01 g/m*3 11.6 C 0 km/h
1054 02-04-2010 19:50:02 11.4 C 2.98 g/m*3 11.4 C 0 km/h
1055 02-04-2010 20:02:01 11.3 C 3.06 g/m*3 11.3 C 0 km/h
1056 02-04-2010 20:14:01 11.1 C 3.02 g/m*3 11.1 C 0 km/h
1057 02-04-2010 20:26:01 10.8 C 3.06 g/m*3 10.8 C 0 km/h
1058 02-04-2010 20:38:02 10.7 C 3.24 g/m*3 10.7 C 0 km/h
1059 02-04-2010 20:50:02 10.7 C 3.04 g/m*3 10.7 C 0 km/h
1060 02-04-2010 21:02:02 10.7 C 3.14 g/m*3 10.7 C 0 km/h
1061 02-04-2010 21:14:02 10.5 C 3.3 g/m*3 10.5 C 0 km/h
1062 02-04-2010 21:26:02 10.3 C 3.26 g/m*3 10.3 C 0 km/h
1063 02-04-2010 21:38:02 10.3 C 3.35 g/m*3 10.3 C 0 km/h
1064 02-04-2010 21:50:01 10 C 3.38 g/m*3 10 C 0 km/h
1065 02-04-2010 22:02:01 9.7 C 3.5 g/m*3 9.7 C 0 km/h
1066 02-04-2010 22:14:01 9.5 C 3.64 g/m*3 9.5 C 0 km/h
1067 02-04-2010 22:26:02 9.6 C 3.66 g/m*3 9.6 C 0 km/h
1068 02-04-2010 22:38:01 9.8 C 3.71 g/m*3 9.8 C 0 km/h
1069 02-04-2010 22:50:03 9.9 C 3.83 g/m*3 9.9 C 0 km/h
1070 02-04-2010 23:02:02 9.4 C 4.25 g/m*3 9.4 C 0 km/h
1071 02-04-2010 23:14:02 9 C 4.76 g/m*3 9 C 0 km/h
1072 02-04-2010 23:26:02 8.7 C 4.84 g/m*3 8.7 C 0 km/h
1073 02-04-2010 23:38:02 8.3 C 5.06 g/m*3 8.3 C 0 km/h
1074 02-04-2010 23:50:02 8.1 C 5.33 g/m*3 8.1 C 0 km/h
1075 03-04-2010 00:02:02 8 C 5.37 g/m*3 8 C 0 km/h
Sensor: Nr:Datum:Temp:Abs-Feuchte:Windchill:Wind:
Aussen-T/F 1076 03-04-2010 00:14:02 7.6 C 5.8 g/m*3 7.6 C 0 km/h
1077 03-04-2010 00:26:02 7.4 C 6.12 g/m*3 7.4 C 0 km/h
1078 03-04-2010 00:38:02 7.4 C 6.28 g/m*3 7.4 C 0 km/h
1079 03-04-2010 00:50:02 7.4 C 6.36 g/m*3 7.4 C 0 km/h
1080 03-04-2010 01:02:01 7.3 C 6.32 g/m*3 7.3 C 0 km/h
1081 03-04-2010 01:14:01 7.2 C 6.28 g/m*3 7.2 C 0 km/h
1082 03-04-2010 01:26:02 7.4 C 6.36 g/m*3 7.4 C 0 km/h
1083 03-04-2010 01:38:02 7.3 C 6.24 g/m*3 7.3 C 0 km/h
1084 03-04-2010 01:50:02 7.3 C 6.24 g/m*3 7.3 C 0 km/h
1085 03-04-2010 02:02:03 7.3 C 6.24 g/m*3 7.3 C 0 km/h
1086 03-04-2010 02:14:03 7 C 6.04 g/m*3 7 C 0 km/h
1087 03-04-2010 02:26:02 7.1 C 6.16 g/m*3 7.1 C 0 km/h
1088 03-04-2010 02:38:02 7.3 C 6.16 g/m*3 7.3 C 0 km/h
1089 03-04-2010 02:50:01 7.4 C 6.12 g/m*3 7.4 C 0 km/h
1090 03-04-2010 03:02:01 7.5 C 6.08 g/m*3 7.5 C 0 km/h
1091 03-04-2010 03:14:02 7.7 C 6 g/m*3 7.7 C 0 km/h
1092 03-04-2010 03:26:02 7.6 C 5.88 g/m*3 7.6 C 0 km/h
1093 03-04-2010 03:38:02 7.5 C 5.84 g/m*3 7.5 C 0 km/h
1094 03-04-2010 03:50:02 7.2 C 5.81 g/m*3 7.2 C 0 km/h
1095 03-04-2010 04:02:01 7.3 C 5.93 g/m*3 7.3 C 0 km/h
1096 03-04-2010 04:14:01 7.1 C 5.93 g/m*3 7.1 C 0 km/h
1097 03-04-2010 04:26:01 7 C 5.89 g/m*3 7 C 0 km/h
1098 03-04-2010 04:38:02 7 C 5.89 g/m*3 7 C 0 km/h
1099 03-04-2010 04:50:01 7.1 C 5.93 g/m*3 7.1 C 0 km/h
1100 03-04-2010 05:02:02 6.9 C 5.93 g/m*3 6.9 C 0 km/h
Sensor: Nr:Datum:Temp:Abs-Feuchte:Windchill:Wind:
Aussen-T/F 1101 03-04-2010 05:14:02 6.9 C 5.93 g/m*3 6.9 C 0 km/h
1102 03-04-2010 05:26:01 6.8 C 5.81 g/m*3 6.8 C 0 km/h
1103 03-04-2010 05:38:02 6.5 C 5.7 g/m*3 6.5 C 0 km/h
1104 03-04-2010 05:50:01 6.3 C 5.7 g/m*3 6.3 C 0 km/h
1105 03-04-2010 06:02:02 6.1 C 5.7 g/m*3 6.1 C 0 km/h
1106 03-04-2010 06:14:02 6.4 C 5.81 g/m*3 6.4 C 0 km/h
1107 03-04-2010 06:26:01 6.5 C 5.85 g/m*3 6.5 C 0 km/h
1108 03-04-2010 06:38:01 6.6 C 5.89 g/m*3 6.6 C 0 km/h
1109 03-04-2010 06:50:01 6.8 C 5.97 g/m*3 6.8 C 0 km/h
1110 03-04-2010 07:02:01 6.6 C 5.81 g/m*3 6.6 C 0 km/h
1111 03-04-2010 07:14:02 6.4 C 5.81 g/m*3 6.4 C 0 km/h
1112 03-04-2010 07:26:01 6.4 C 5.81 g/m*3 6.4 C 0 km/h
1113 03-04-2010 07:38:01 6.6 C 5.89 g/m*3 6.6 C 0 km/h
1114 03-04-2010 07:50:01 6.7 C 5.85 g/m*3 6.7 C 0 km/h
1115 03-04-2010 08:02:01 7.1 C 5.85 g/m*3 7.1 C 0 km/h
1116 03-04-2010 08:14:01 7.5 C 5.76 g/m*3 7.5 C 0 km/h
1117 03-04-2010 08:26:01 7.8 C 5.71 g/m*3 7.8 C 0 km/h
1118 03-04-2010 08:38:01 8 C 5.54 g/m*3 8 C 0 km/h
1119 03-04-2010 08:50:01 8.6 C 5.59 g/m*3 8.6 C 0 km/h
1120 03-04-2010 09:02:01 8.9 C 5.43 g/m*3 8.9 C 0 km/h
1121 03-04-2010 09:14:01 9.2 C 5.45 g/m*3 9.2 C 0 km/h
1122 03-04-2010 09:26:01 9.4 C 5.43 g/m*3 9.4 C 0 km/h
1123 03-04-2010 09:38:01 9.9 C 5.51 g/m*3 9.9 C 0 km/h
1124 03-04-2010 09:50:01 10.2 C 5.42 g/m*3 10.2 C 0 km/h
1125 03-04-2010 10:02:01 10.3 C 5.27 g/m*3 10.3 C 0 km/h
Sensor: Nr:Datum:Temp:Abs-Feuchte:Windchill:Wind:
Aussen-T/F 1126 03-04-2010 10:14:01 10.4 C 5.3 g/m*3 10.4 C 0 km/h
1127 03-04-2010 10:26:01 10.6 C 5.27 g/m*3 10.6 C 0 km/h
1128 03-04-2010 10:38:01 10.9 C 5.27 g/m*3 10.9 C 0 km/h
1129 03-04-2010 10:50:01 10.9 C 5.17 g/m*3 10.9 C 0 km/h
1130 03-04-2010 11:02:01 11.2 C 4.87 g/m*3 11.2 C 0 km/h
1131 03-04-2010 11:14:01 11.4 C 4.93 g/m*3 11.4 C 0 km/h
1132 03-04-2010 11:26:02 11.9 C 5.19 g/m*3 11.9 C 0 km/h
1133 03-04-2010 11:38:01 11.9 C 4.98 g/m*3 11.9 C 0 km/h
1134 03-04-2010 11:50:02 12.2 C 4.86 g/m*3 12.2 C 0 km/h
1135 03-04-2010 12:02:01 11.9 C 4.77 g/m*3 11.9 C 0 km/h
1136 03-04-2010 12:14:01 11.9 C 4.77 g/m*3 11.9 C 0 km/h
1137 03-04-2010 12:26:02 11.8 C 4.84 g/m*3 11.8 C 0 km/h
1138 03-04-2010 12:38:01 12.2 C 4.75 g/m*3 12.2 C 0 km/h
1139 03-04-2010 12:50:02 12.2 C 4.64 g/m*3 12.2 C 0 km/h
1140 03-04-2010 13:02:01 11.5 C 4.85 g/m*3 11.5 C 0 km/h
1141 03-04-2010 13:14:01 10.9 C 5.17 g/m*3 10.9 C 0 km/h
1142 03-04-2010 13:26:01 11.7 C 5.12 g/m*3 11.7 C 0 km/h
1143 03-04-2010 13:38:02 12.4 C 4.92 g/m*3 12.4 C 0 km/h
1144 03-04-2010 13:50:01 12.3 C 4.78 g/m*3 12.3 C 0 km/h
1145 03-04-2010 14:02:01 11.9 C 4.66 g/m*3 11.9 C 0 km/h
1146 03-04-2010 14:14:01 12.3 C 4.45 g/m*3 12.3 C 0 km/h
1147 03-04-2010 14:26:01 12.5 C 4.4 g/m*3 12.5 C 0 km/h
1148 03-04-2010 14:38:02 12.5 C 4.29 g/m*3 12.5 C 0 km/h
1149 03-04-2010 14:50:01 12.5 C 4.18 g/m*3 12.5 C 0 km/h
1150 03-04-2010 15:02:02 12.7 C 4.34 g/m*3 12.7 C 0 km/h
Sensor: Nr:Datum:Temp:Abs-Feuchte:Windchill:Wind:
Aussen-T/F 1151 03-04-2010 15:14:02 12.7 C 4.45 g/m*3 12.7 C 0 km/h
1152 03-04-2010 15:26:01 12.2 C 4.64 g/m*3 12.2 C 0 km/h
1153 03-04-2010 15:38:01 12.3 C 4.99 g/m*3 12.3 C 0 km/h
1154 03-04-2010 15:50:01 12.9 C 4.62 g/m*3 12.9 C 0 km/h
1155 03-04-2010 16:02:01 13.1 C 4.34 g/m*3 13.1 C 0 km/h
1156 03-04-2010 16:14:02 13.4 C 4.3 g/m*3 13.4 C 0 km/h
1157 03-04-2010 16:26:01 13.4 C 4.3 g/m*3 13.4 C 0 km/h
1158 03-04-2010 16:38:01 13.1 C 4.34 g/m*3 13.1 C 0 km/h
1159 03-04-2010 16:50:01 13.3 C 4.51 g/m*3 13.3 C 0 km/h
1160 03-04-2010 17:02:01 13.2 C 4.59 g/m*3 13.2 C 0 km/h
1161 03-04-2010 17:14:01 13.5 C 4.44 g/m*3 13.5 C 0 km/h
1162 03-04-2010 17:26:02 13.2 C 4.59 g/m*3 13.2 C 0 km/h
1163 03-04-2010 17:38:01 12.9 C 4.62 g/m*3 12.9 C 0 km/h
1164 03-04-2010 17:50:02 13.3 C 4.74 g/m*3 13.3 C 0 km/h
1165 03-04-2010 18:02:01 12.9 C 4.62 g/m*3 12.9 C 0 km/h
1166 03-04-2010 18:14:01 12 C 4.58 g/m*3 12 C 0 km/h
1167 03-04-2010 18:26:02 12.1 C 4.72 g/m*3 12.1 C 0 km/h
1168 03-04-2010 18:38:01 11.9 C 4.87 g/m*3 11.9 C 0 km/h
1169 03-04-2010 18:50:02 11.7 C 4.92 g/m*3 11.7 C 0 km/h
1170 03-04-2010 19:02:01 11.4 C 4.82 g/m*3 11.4 C 0 km/h
1171 03-04-2010 19:14:01 11.4 C 4.93 g/m*3 11.4 C 0 km/h
1172 03-04-2010 19:26:01 11.2 C 4.87 g/m*3 11.2 C 0 km/h
1173 03-04-2010 19:38:02 11.1 C 4.94 g/m*3 11.1 C 0 km/h
1174 03-04-2010 19:50:01 10.7 C 5.01 g/m*3 10.7 C 0 km/h
1175 03-04-2010 20:02:02 10.7 C 5.11 g/m*3 10.7 C 0 km/h
Sensor: Nr:Datum:Temp:Abs-Feuchte:Windchill:Wind:
Aussen-T/F 1176 03-04-2010 20:14:02 10.5 C 5.14 g/m*3 10.5 C 0 km/h
1177 03-04-2010 20:26:01 10.5 C 5.14 g/m*3 10.5 C 0 km/h
1178 03-04-2010 20:38:02 10.4 C 5.2 g/m*3 10.4 C 0 km/h
1179 03-04-2010 20:50:01 10.3 C 5.27 g/m*3 10.3 C 0 km/h
1180 03-04-2010 21:02:02 10.3 C 5.36 g/m*3 10.3 C 0 km/h
1181 03-04-2010 21:14:02 10.3 C 5.27 g/m*3 10.3 C 0 km/h
1182 03-04-2010 21:26:01 10.2 C 5.33 g/m*3 10.2 C 0 km/h
1183 03-04-2010 21:38:01 10.1 C 5.39 g/m*3 10.1 C 0 km/h
1184 03-04-2010 21:50:01 9.9 C 5.42 g/m*3 9.9 C 0 km/h
1185 03-04-2010 22:02:02 9.7 C 5.44 g/m*3 9.7 C 0 km/h
1186 03-04-2010 22:14:02 9.5 C 5.46 g/m*3 9.5 C 0 km/h
1187 03-04-2010 22:27:04 9.4 C 5.43 g/m*3 9.4 C 0 km/h
1188 03-04-2010 22:39:04 9.3 C 5.48 g/m*3 9.3 C 0 km/h
1189 03-04-2010 22:51:04 9.2 C 5.45 g/m*3 9.2 C 0 km/h
1190 03-04-2010 23:03:04 9.1 C 5.41 g/m*3 9.1 C 0 km/h
1191 03-04-2010 23:15:04 9.2 C 5.54 g/m*3 9.2 C 0 km/h
1192 03-04-2010 23:27:05 9.2 C 5.54 g/m*3 9.2 C 0 km/h
1193 03-04-2010 23:39:05 9.3 C 5.48 g/m*3 9.3 C 0 km/h
1194 03-04-2010 23:51:05 9 C 5.38 g/m*3 9 C 0 km/h
1195 04-04-2010 00:03:05 8.6 C 5.5 g/m*3 8.6 C 0 km/h
1196 04-04-2010 00:15:05 8.9 C 5.61 g/m*3 8.9 C 0 km/h
1197 04-04-2010 00:27:05 8.9 C 5.61 g/m*3 8.9 C 0 km/h
1198 04-04-2010 00:39:05 8.9 C 5.61 g/m*3 8.9 C 0 km/h
1199 04-04-2010 00:51:05 8.9 C 5.61 g/m*3 8.9 C 0 km/h
1200 04-04-2010 01:03:05 8.9 C 5.61 g/m*3 8.9 C 0 km/h
Sensor: Nr:Datum:Temp:Abs-Feuchte:Windchill:Wind:
Aussen-T/F 1201 04-04-2010 01:15:05 9 C 5.55 g/m*3 9 C 0 km/h
1202 04-04-2010 01:27:05 9 C 5.55 g/m*3 9 C 0 km/h
1203 04-04-2010 01:39:05 9 C 5.55 g/m*3 9 C 0 km/h
1204 04-04-2010 01:51:05 8.7 C 5.53 g/m*3 8.7 C 0 km/h
1205 04-04-2010 02:03:05 7.9 C 5.59 g/m*3 7.9 C 0 km/h
1206 04-04-2010 02:15:05 8.1 C 5.66 g/m*3 8.1 C 0 km/h
1207 04-04-2010 02:27:05 8 C 5.62 g/m*3 8 C 0 km/h
1208 04-04-2010 02:39:05 7.5 C 5.6 g/m*3 7.5 C 0 km/h
1209 04-04-2010 02:51:05 7.2 C 5.49 g/m*3 7.2 C 0 km/h
1210 04-04-2010 03:03:05 7 C 5.58 g/m*3 7 C 0 km/h
1211 04-04-2010 03:15:05 6.9 C 5.7 g/m*3 6.9 C 0 km/h
1212 04-04-2010 03:27:05 6.9 C 5.7 g/m*3 6.9 C 0 km/h
1213 04-04-2010 03:39:05 6.8 C 5.66 g/m*3 6.8 C 0 km/h
1214 04-04-2010 03:51:06 7.1 C 5.69 g/m*3 7.1 C 0 km/h
1215 04-04-2010 04:03:06 7.3 C 5.69 g/m*3 7.3 C 0 km/h
1216 04-04-2010 04:15:06 7.2 C 5.65 g/m*3 7.2 C 0 km/h
1217 04-04-2010 04:27:06 7.2 C 5.65 g/m*3 7.2 C 0 km/h
1218 04-04-2010 04:39:06 7.3 C 5.69 g/m*3 7.3 C 0 km/h
1219 04-04-2010 04:51:06 7.4 C 5.65 g/m*3 7.4 C 0 km/h
1220 04-04-2010 05:03:06 7.6 C 5.48 g/m*3 7.6 C 0 km/h
1221 04-04-2010 05:15:06 7.3 C 5.37 g/m*3 7.3 C 0 km/h
1222 04-04-2010 05:27:06 6.9 C 5.31 g/m*3 6.9 C 0 km/h
1223 04-04-2010 05:39:06 6.5 C 5.32 g/m*3 6.5 C 0 km/h
1224 04-04-2010 05:51:06 6.3 C 5.26 g/m*3 6.3 C 0 km/h
1225 04-04-2010 06:03:06 6.2 C 5.22 g/m*3 6.2 C 0 km/h
Sensor: Nr:Datum:Temp:Abs-Feuchte:Windchill:Wind:
Aussen-T/F 1226 04-04-2010 06:15:06 6.4 C 5.29 g/m*3 6.4 C 0 km/h
1227 04-04-2010 06:27:06 6.4 C 5.29 g/m*3 6.4 C 0 km/h
1228 04-04-2010 06:39:06 6.1 C 5.19 g/m*3 6.1 C 0 km/h
1229 04-04-2010 06:51:06 6.4 C 5.29 g/m*3 6.4 C 0 km/h
1230 04-04-2010 07:03:06 7 C 5.19 g/m*3 7 C 0 km/h
1231 04-04-2010 07:15:04 7.3 C 4.98 g/m*3 7.3 C 0 km/h
1232 04-04-2010 07:27:05 7.5 C 4.8 g/m*3 7.5 C 0 km/h
1233 04-04-2010 07:39:03 7.3 C 4.74 g/m*3 7.3 C 0 km/h
1234 04-04-2010 07:51:02 7.3 C 4.74 g/m*3 7.3 C 0 km/h
1235 04-04-2010 08:03:01 7.1 C 4.76 g/m*3 7.1 C 0 km/h
1236 04-04-2010 08:15:02 7.4 C 4.93 g/m*3 7.4 C 0 km/h
1237 04-04-2010 08:27:03 7.6 C 4.91 g/m*3 7.6 C 0 km/h
1238 04-04-2010 08:39:01 8.1 C 4.83 g/m*3 8.1 C 0 km/h
1239 04-04-2010 08:51:02 8.1 C 4.83 g/m*3 8.1 C 0 km/h
1240 04-04-2010 09:03:01 8.6 C 4.73 g/m*3 8.6 C 0 km/h
1241 04-04-2010 09:15:01 9.2 C 4.55 g/m*3 9.2 C 0 km/h
1242 04-04-2010 09:27:01 9.7 C 4.52 g/m*3 9.7 C 0 km/h
1243 04-04-2010 09:39:02 10.2 C 4.38 g/m*3 10.2 C 0 km/h
1244 04-04-2010 09:51:02 9.9 C 4.29 g/m*3 9.9 C 0 km/h
1245 04-04-2010 10:03:02 10.4 C 4.34 g/m*3 10.4 C 0 km/h
1246 04-04-2010 10:15:02 10.7 C 4.22 g/m*3 10.7 C 0 km/h
1247 04-04-2010 10:27:02 10.7 C 4.22 g/m*3 10.7 C 0 km/h
1248 04-04-2010 10:39:02 10.8 C 4.35 g/m*3 10.8 C 0 km/h
1249 04-04-2010 10:51:02 11 C 4.3 g/m*3 11 C 0 km/h
1250 04-04-2010 11:03:02 11.4 C 4.31 g/m*3 11.4 C 0 km/h
Sensor: Nr:Datum:Temp:Abs-Feuchte:Windchill:Wind:
Aussen-T/F 1251 04-04-2010 11:15:02 11.7 C 4.29 g/m*3 11.7 C 0 km/h
1252 04-04-2010 11:27:02 11.9 C 4.34 g/m*3 11.9 C 0 km/h
1253 04-04-2010 11:39:02 11.8 C 4.32 g/m*3 11.8 C 0 km/h
1254 04-04-2010 11:51:02 11.1 C 4.33 g/m*3 11.1 C 0 km/h
1255 04-04-2010 12:03:02 11.5 C 4.13 g/m*3 11.5 C 0 km/h
1256 04-04-2010 12:15:02 12.2 C 4.21 g/m*3 12.2 C 0 km/h
1257 04-04-2010 12:27:02 12.3 C 4.02 g/m*3 12.3 C 0 km/h
1258 04-04-2010 12:39:02 12.4 C 4.04 g/m*3 12.4 C 0 km/h
1259 04-04-2010 12:51:02 12.5 C 3.96 g/m*3 12.5 C 0 km/h
1260 04-04-2010 13:03:02 11.8 C 4.21 g/m*3 11.8 C 0 km/h
1261 04-04-2010 13:15:03 10.2 C 5.52 g/m*3 10.2 C 0 km/h
1262 04-04-2010 13:27:03 11.1 C 5.44 g/m*3 11.1 C 0 km/h
1263 04-04-2010 13:39:02 11.6 C 5.09 g/m*3 11.6 C 0 km/h
1264 04-04-2010 13:51:01 11.8 C 4.84 g/m*3 11.8 C 0 km/h
1265 04-04-2010 14:03:02 12.1 C 4.61 g/m*3 12.1 C 0 km/h
1266 04-04-2010 14:15:01 11.8 C 4.53 g/m*3 11.8 C 0 km/h
1267 04-04-2010 14:27:01 11.9 C 4.55 g/m*3 11.9 C 0 km/h
1268 04-04-2010 14:39:01 12.2 C 4.75 g/m*3 12.2 C 0 km/h
1269 04-04-2010 14:51:01 11.5 C 4.65 g/m*3 11.5 C 0 km/h
1270 04-04-2010 15:03:02 11.4 C 4.82 g/m*3 11.4 C 0 km/h
1271 04-04-2010 15:15:01 11.5 C 4.85 g/m*3 11.5 C 0 km/h
1272 04-04-2010 15:27:01 11.7 C 4.92 g/m*3 11.7 C 0 km/h
1273 04-04-2010 15:39:02 11.4 C 5.13 g/m*3 11.4 C 0 km/h
1274 04-04-2010 15:51:02 11.2 C 5.07 g/m*3 11.2 C 0 km/h
1275 04-04-2010 16:03:02 11 C 5 g/m*3 11 C 0 km/h
Sensor: Nr:Datum:Temp:Abs-Feuchte:Windchill:Wind:
Aussen-T/F 1276 04-04-2010 16:15:01 11.1 C 5.14 g/m*3 11.1 C 0 km/h
1277 04-04-2010 16:27:01 11.4 C 5.13 g/m*3 11.4 C 0 km/h
1278 04-04-2010 16:39:02 11.4 C 5.13 g/m*3 11.4 C 0 km/h
1279 04-04-2010 16:51:02 12.6 C 4.98 g/m*3 12.6 C 0 km/h
1280 04-04-2010 17:03:02 12.2 C 4.96 g/m*3 12.2 C 0 km/h
1281 04-04-2010 17:15:02 11.6 C 4.78 g/m*3 11.6 C 0 km/h
1282 04-04-2010 17:27:02 11.3 C 4.9 g/m*3 11.3 C 0 km/h
1283 04-04-2010 17:39:02 11.1 C 4.94 g/m*3 11.1 C 0 km/h
1284 04-04-2010 17:51:01 10.7 C 5.3 g/m*3 10.7 C 0 km/h
1285 04-04-2010 18:03:02 9.7 C 6.08 g/m*3 9.7 C 0 km/h
1286 04-04-2010 18:15:02 8.7 C 6.14 g/m*3 8.7 C 0 km/h
1287 04-04-2010 18:27:02 8.5 C 6.32 g/m*3 8.5 C 0 km/h
1288 04-04-2010 18:39:01 8.2 C 5.95 g/m*3 8.2 C 0 km/h
1289 04-04-2010 18:51:02 7.8 C 5.96 g/m*3 7.8 C 0 km/h
1290 04-04-2010 19:03:01 7.8 C 6.12 g/m*3 7.8 C 0 km/h
1291 04-04-2010 19:15:02 7.8 C 6.12 g/m*3 7.8 C 0 km/h
1292 04-04-2010 19:27:03 7.8 C 6.04 g/m*3 7.8 C 0 km/h
1293 04-04-2010 19:39:01 8.1 C 5.82 g/m*3 8.1 C 0 km/h
1294 04-04-2010 19:51:02 7.8 C 5.3 g/m*3 7.8 C 0 km/h
1295 04-04-2010 20:03:02 7.8 C 5.14 g/m*3 7.8 C 0 km/h
1296 04-04-2010 20:15:02 7.7 C 5.35 g/m*3 7.7 C 0 km/h
1297 04-04-2010 20:27:02 7.6 C 5.48 g/m*3 7.6 C 0 km/h
1298 04-04-2010 20:39:03 7.5 C 5.44 g/m*3 7.5 C 0 km/h
1299 04-04-2010 20:51:02 7.6 C 5.56 g/m*3 7.6 C 0 km/h
1300 04-04-2010 21:03:02 7.7 C 5.51 g/m*3 7.7 C 0 km/h
Sensor: Nr:Datum:Temp:Abs-Feuchte:Windchill:Wind:
Aussen-T/F 1301 04-04-2010 21:15:01 7.8 C 5.55 g/m*3 7.8 C 0 km/h
1302 04-04-2010 21:27:01 7.7 C 5.51 g/m*3 7.7 C 0 km/h
1303 04-04-2010 21:39:02 7.8 C 5.47 g/m*3 7.8 C 0 km/h
1304 04-04-2010 21:51:02 7.8 C 5.39 g/m*3 7.8 C 0 km/h
1305 04-04-2010 22:03:02 7.8 C 5.39 g/m*3 7.8 C 0 km/h
1306 04-04-2010 22:15:02 7.7 C 5.35 g/m*3 7.7 C 0 km/h
1307 04-04-2010 22:27:02 7.5 C 5.36 g/m*3 7.5 C 0 km/h
1308 04-04-2010 22:39:02 7.4 C 5.41 g/m*3 7.4 C 0 km/h
1309 04-04-2010 22:51:02 7.2 C 5.42 g/m*3 7.2 C 0 km/h
1310 04-04-2010 23:03:01 7.1 C 5.46 g/m*3 7.1 C 0 km/h
1311 04-04-2010 23:16:03 6.9 C 5.47 g/m*3 6.9 C 0 km/h
1312 04-04-2010 23:28:03 6.9 C 5.62 g/m*3 6.9 C 0 km/h
1313 04-04-2010 23:40:03 6.9 C 5.62 g/m*3 6.9 C 0 km/h
1314 04-04-2010 23:52:03 7 C 5.66 g/m*3 7 C 0 km/h
1315 05-04-2010 00:04:03 7 C 5.66 g/m*3 7 C 0 km/h
1316 05-04-2010 00:16:03 6.9 C 5.7 g/m*3 6.9 C 0 km/h
1317 05-04-2010 00:28:03 6.7 C 5.62 g/m*3 6.7 C 0 km/h
1318 05-04-2010 00:40:03 6.8 C 5.74 g/m*3 6.8 C 0 km/h
1319 05-04-2010 00:52:03 6.9 C 5.77 g/m*3 6.9 C 0 km/h
1320 05-04-2010 01:04:03 7 C 5.73 g/m*3 7 C 0 km/h
1321 05-04-2010 01:16:03 6.9 C 5.7 g/m*3 6.9 C 0 km/h
1322 05-04-2010 01:28:03 7 C 5.58 g/m*3 7 C 0 km/h
1323 05-04-2010 01:40:03 7 C 5.5 g/m*3 7 C 0 km/h
1324 05-04-2010 01:52:03 7 C 5.42 g/m*3 7 C 0 km/h
1325 05-04-2010 02:04:03 7 C 5.5 g/m*3 7 C 0 km/h
Sensor: Nr:Datum:Temp:Abs-Feuchte:Windchill:Wind:
Aussen-T/F 1326 05-04-2010 02:16:03 7 C 5.42 g/m*3 7 C 0 km/h
1327 05-04-2010 02:28:03 7 C 5.27 g/m*3 7 C 0 km/h
1328 05-04-2010 02:40:03 7 C 5.27 g/m*3 7 C 0 km/h
1329 05-04-2010 02:52:03 6.9 C 5.31 g/m*3 6.9 C 0 km/h
1330 05-04-2010 03:04:03 6.9 C 5.31 g/m*3 6.9 C 0 km/h
1331 05-04-2010 03:16:04 6.9 C 5.23 g/m*3 6.9 C 0 km/h
1332 05-04-2010 03:28:04 6.8 C 5.2 g/m*3 6.8 C 0 km/h
1333 05-04-2010 03:40:04 6.6 C 5.28 g/m*3 6.6 C 0 km/h
1334 05-04-2010 03:52:04 6.5 C 5.32 g/m*3 6.5 C 0 km/h
1335 05-04-2010 04:04:04 6.5 C 5.32 g/m*3 6.5 C 0 km/h
1336 05-04-2010 04:16:04 6.6 C 5.36 g/m*3 6.6 C 0 km/h
1337 05-04-2010 04:28:04 6.5 C 5.32 g/m*3 6.5 C 0 km/h
1338 05-04-2010 04:40:04 6.3 C 5.33 g/m*3 6.3 C 0 km/h
1339 05-04-2010 04:52:04 6 C 5.37 g/m*3 6 C 0 km/h
1340 05-04-2010 05:04:04 6 C 5.37 g/m*3 6 C 0 km/h
1341 05-04-2010 05:16:04 6.2 C 5.44 g/m*3 6.2 C 0 km/h
1342 05-04-2010 05:28:04 6.3 C 5.48 g/m*3 6.3 C 0 km/h
1343 05-04-2010 05:40:04 6.5 C 5.55 g/m*3 6.5 C 0 km/h
1344 05-04-2010 05:52:04 6.3 C 5.48 g/m*3 6.3 C 0 km/h
1345 05-04-2010 06:04:04 6.1 C 5.48 g/m*3 6.1 C 0 km/h
1346 05-04-2010 06:16:04 5.8 C 5.52 g/m*3 5.8 C 0 km/h
1347 05-04-2010 06:28:04 5.6 C 5.51 g/m*3 5.6 C 0 km/h
1348 05-04-2010 06:40:04 5.4 C 5.51 g/m*3 5.4 C 0 km/h
1349 05-04-2010 06:52:04 5.2 C 5.44 g/m*3 5.2 C 0 km/h
1350 05-04-2010 07:04:04 5.1 C 5.34 g/m*3 5.1 C 0 km/h
Sensor: Nr:Datum:Temp:Abs-Feuchte:Windchill:Wind:
Aussen-T/F 1351 05-04-2010 07:16:04 5 C 5.23 g/m*3 5 C 0 km/h
1352 05-04-2010 07:28:04 4.9 C 5.27 g/m*3 4.9 C 0 km/h
1353 05-04-2010 07:40:05 4.8 C 5.23 g/m*3 4.8 C 0 km/h
1354 05-04-2010 07:52:05 4.9 C 5.27 g/m*3 4.9 C 0 km/h
1355 05-04-2010 08:04:05 4.9 C 5.33 g/m*3 4.9 C 0 km/h
1356 05-04-2010 08:16:05 5 C 5.23 g/m*3 5 C 0 km/h
1357 05-04-2010 08:28:05 5.1 C 5.2 g/m*3 5.1 C 0 km/h
1358 05-04-2010 08:40:03 5.2 C 5.1 g/m*3 5.2 C 0 km/h
1359 05-04-2010 08:52:02 5.5 C 5.13 g/m*3 5.5 C 0 km/h
1360 05-04-2010 09:04:02 5.7 C 5.12 g/m*3 5.7 C 0 km/h
1361 05-04-2010 09:16:01 5.8 C 5.09 g/m*3 5.8 C 0 km/h
1362 05-04-2010 09:28:01 5.9 C 5.12 g/m*3 5.9 C 0 km/h
1363 05-04-2010 09:40:02 6.4 C 5.07 g/m*3 6.4 C 0 km/h
1364 05-04-2010 09:52:02 6.6 C 4.91 g/m*3 6.6 C 0 km/h
1365 05-04-2010 10:04:02 6.9 C 4.93 g/m*3 6.9 C 0 km/h
1366 05-04-2010 10:16:02 7.3 C 4.98 g/m*3 7.3 C 0 km/h
1367 05-04-2010 10:28:02 7.6 C 4.83 g/m*3 7.6 C 0 km/h
1368 05-04-2010 10:40:02 8 C 4.8 g/m*3 8 C 0 km/h
1369 05-04-2010 10:52:02 8.4 C 4.75 g/m*3 8.4 C 0 km/h
1370 05-04-2010 11:04:02 8.7 C 4.67 g/m*3 8.7 C 0 km/h
1371 05-04-2010 11:16:01 9.1 C 4.7 g/m*3 9.1 C 0 km/h
1372 05-04-2010 11:28:01 9.5 C 4.64 g/m*3 9.5 C 0 km/h
1373 05-04-2010 11:40:02 9.9 C 4.76 g/m*3 9.9 C 0 km/h
1374 05-04-2010 11:52:02 10.4 C 4.63 g/m*3 10.4 C 0 km/h
1375 05-04-2010 12:04:02 10.6 C 4.39 g/m*3 10.6 C 0 km/h
Sensor: Nr:Datum:Temp:Abs-Feuchte:Windchill:Wind:
Aussen-T/F 1376 05-04-2010 12:16:01 10.7 C 4.32 g/m*3 10.7 C 0 km/h
1377 05-04-2010 12:28:01 11.3 C 4.08 g/m*3 11.3 C 0 km/h
1378 05-04-2010 12:40:02 11.5 C 3.93 g/m*3 11.5 C 0 km/h
1379 05-04-2010 12:52:02 11.4 C 4 g/m*3 11.4 C 0 km/h
1380 05-04-2010 13:04:02 11.7 C 3.97 g/m*3 11.7 C 0 km/h
1381 05-04-2010 13:16:02 11.7 C 3.97 g/m*3 11.7 C 0 km/h
1382 05-04-2010 13:28:02 11.9 C 3.92 g/m*3 11.9 C 0 km/h
1383 05-04-2010 13:40:02 12.4 C 3.82 g/m*3 12.4 C 0 km/h
1384 05-04-2010 13:52:02 12.3 C 3.26 g/m*3 12.3 C 0 km/h
1385 05-04-2010 14:04:02 12.3 C 3.26 g/m*3 12.3 C 0 km/h
1386 05-04-2010 14:16:02 12.8 C 3.36 g/m*3 12.8 C 0 km/h
1387 05-04-2010 14:28:02 12.8 C 3.25 g/m*3 12.8 C 0 km/h
1388 05-04-2010 14:40:02 12.6 C 3.32 g/m*3 12.6 C 0 km/h
1389 05-04-2010 14:52:01 12.8 C 3.25 g/m*3 12.8 C 0 km/h
1390 05-04-2010 15:04:02 13.1 C 2.97 g/m*3 13.1 C 0 km/h
1391 05-04-2010 15:16:02 13.6 C 2.94 g/m*3 13.6 C 0 km/h
1392 05-04-2010 15:28:02 13.6 C 2.71 g/m*3 13.6 C 0 km/h
1393 05-04-2010 15:40:02 13.9 C 2.64 g/m*3 13.9 C 0 km/h
1394 05-04-2010 15:52:02 14.5 C 2.49 g/m*3 14.5 C 0 km/h
1395 05-04-2010 16:04:01 14.6 C 2.5 g/m*3 14.6 C 0 km/h
1396 05-04-2010 16:16:02 14.1 C 2.43 g/m*3 14.1 C 0 km/h
1397 05-04-2010 16:28:03 15.4 C 2.63 g/m*3 15.4 C 0 km/h
1398 05-04-2010 16:40:01 13.8 C 2.38 g/m*3 13.8 C 0 km/h
1399 05-04-2010 16:52:02 13.8 C 2.38 g/m*3 13.8 C 0 km/h
1400 05-04-2010 17:04:01 14.8 C 2.53 g/m*3 14.8 C 0 km/h
Sensor: Nr:Datum:Temp:Abs-Feuchte:Windchill:Wind:
Aussen-T/F 1401 05-04-2010 17:16:01 15.7 C 2.68 g/m*3 15.7 C 0 km/h
1402 05-04-2010 17:28:01 15.8 C 2.69 g/m*3 15.8 C 0 km/h
1403 05-04-2010 17:40:02 15 C 2.56 g/m*3 15 C 0 km/h
1404 05-04-2010 17:52:02 13.8 C 2.38 g/m*3 13.8 C 0 km/h
1405 05-04-2010 18:04:02 13.1 C 2.62 g/m*3 13.1 C 0 km/h
1406 05-04-2010 18:16:01 12.8 C 2.8 g/m*3 12.8 C 0 km/h
1407 05-04-2010 18:28:01 12.5 C 2.97 g/m*3 12.5 C 0 km/h
1408 05-04-2010 18:40:02 12.6 C 2.88 g/m*3 12.6 C 0 km/h
1409 05-04-2010 18:52:02 12.3 C 2.93 g/m*3 12.3 C 0 km/h
1410 05-04-2010 19:04:02 12.1 C 3 g/m*3 12.1 C 0 km/h
1411 05-04-2010 19:16:02 12 C 2.98 g/m*3 12 C 0 km/h
1412 05-04-2010 19:28:02 11.9 C 3.07 g/m*3 11.9 C 0 km/h
1413 05-04-2010 19:40:02 11.8 C 3.16 g/m*3 11.8 C 0 km/h
1414 05-04-2010 19:52:02 11.8 C 3.16 g/m*3 11.8 C 0 km/h
1415 05-04-2010 20:04:02 11.7 C 3.24 g/m*3 11.7 C 0 km/h
1416 05-04-2010 20:16:02 11.6 C 3.22 g/m*3 11.6 C 0 km/h
1417 05-04-2010 20:28:02 11.4 C 3.39 g/m*3 11.4 C 0 km/h
1418 05-04-2010 20:40:02 11.3 C 3.37 g/m*3 11.3 C 0 km/h
1419 05-04-2010 20:52:01 11 C 3.4 g/m*3 11 C 0 km/h
1420 05-04-2010 21:04:01 10.8 C 3.56 g/m*3 10.8 C 0 km/h
1421 05-04-2010 21:16:02 10.6 C 3.61 g/m*3 10.6 C 0 km/h
1422 05-04-2010 21:28:02 10.2 C 3.62 g/m*3 10.2 C 0 km/h
1423 05-04-2010 21:40:01 9.7 C 3.69 g/m*3 9.7 C 0 km/h
1424 05-04-2010 21:52:01 9.1 C 3.64 g/m*3 9.1 C 0 km/h
1425 05-04-2010 22:04:01 8.8 C 3.57 g/m*3 8.8 C 0 km/h
Sensor: Nr:Datum:Temp:Abs-Feuchte:Windchill:Wind:
Aussen-T/F 1426 05-04-2010 22:16:02 8.8 C 3.57 g/m*3 8.8 C 0 km/h
1427 05-04-2010 22:28:02 8.4 C 3.56 g/m*3 8.4 C 0 km/h
1428 05-04-2010 22:41:02 8.1 C 3.58 g/m*3 8.1 C 0 km/h
1429 05-04-2010 22:53:02 8 C 3.64 g/m*3 8 C 0 km/h
1430 05-04-2010 23:05:02 7.6 C 3.87 g/m*3 7.6 C 0 km/h
1431 05-04-2010 23:17:02 7.3 C 3.87 g/m*3 7.3 C 0 km/h
1432 05-04-2010 23:29:02 7 C 3.87 g/m*3 7 C 0 km/h
1433 05-04-2010 23:41:02 7 C 3.95 g/m*3 7 C 0 km/h
1434 05-04-2010 23:53:02 6.8 C 3.98 g/m*3 6.8 C 0 km/h
1435 06-04-2010 00:05:02 6.5 C 3.9 g/m*3 6.5 C 0 km/h
1436 06-04-2010 00:17:02 6.3 C 4 g/m*3 6.3 C 0 km/h
1437 06-04-2010 00:29:02 6.1 C 4.02 g/m*3 6.1 C 0 km/h
1438 06-04-2010 00:41:02 5.9 C 4.11 g/m*3 5.9 C 0 km/h
1439 06-04-2010 00:53:02 5.8 C 4.08 g/m*3 5.8 C 0 km/h
1440 06-04-2010 01:05:02 5.6 C 4.03 g/m*3 5.6 C 0 km/h
1441 06-04-2010 01:17:02 5.4 C 3.98 g/m*3 5.4 C 0 km/h
1442 06-04-2010 01:29:02 5.3 C 4.02 g/m*3 5.3 C 0 km/h
1443 06-04-2010 01:41:02 5.2 C 4.06 g/m*3 5.2 C 0 km/h
1444 06-04-2010 01:53:02 5.1 C 4.1 g/m*3 5.1 C 0 km/h
1445 06-04-2010 02:05:03 5 C 4.08 g/m*3 5 C 0 km/h
1446 06-04-2010 02:17:03 4.7 C 4.13 g/m*3 4.7 C 0 km/h
1447 06-04-2010 02:29:03 4.5 C 4.21 g/m*3 4.5 C 0 km/h
1448 06-04-2010 02:41:03 4.3 C 4.15 g/m*3 4.3 C 0 km/h
1449 06-04-2010 02:53:03 4.2 C 4.12 g/m*3 4.2 C 0 km/h
1450 06-04-2010 03:05:03 4.1 C 4.1 g/m*3 4.1 C 0 km/h
Sensor: Nr:Datum:Temp:Abs-Feuchte:Windchill:Wind:
Aussen-T/F 1451 06-04-2010 03:17:03 3.9 C 4.17 g/m*3 3.9 C 0 km/h
1452 06-04-2010 03:29:03 3.8 C 4.14 g/m*3 3.8 C 0 km/h
1453 06-04-2010 03:41:03 3.6 C 4.09 g/m*3 3.6 C 0 km/h
1454 06-04-2010 03:53:03 3.5 C 4.12 g/m*3 3.5 C 0 km/h
1455 06-04-2010 04:05:03 3.3 C 4.06 g/m*3 3.3 C 0 km/h
1456 06-04-2010 04:17:03 3.2 C 4.16 g/m*3 3.2 C 0 km/h
1457 06-04-2010 04:29:03 3.2 C 4.22 g/m*3 3.2 C 0 km/h
1458 06-04-2010 04:41:03 3 C 4.22 g/m*3 3 C 0 km/h
1459 06-04-2010 04:53:03 2.8 C 4.22 g/m*3 2.8 C 0 km/h
1460 06-04-2010 05:05:03 2.7 C 4.2 g/m*3 2.7 C 0 km/h
1461 06-04-2010 05:17:03 2.5 C 4.14 g/m*3 2.5 C 0 km/h
1462 06-04-2010 05:29:03 2.4 C 4.11 g/m*3 2.4 C 0 km/h
1463 06-04-2010 05:41:03 2.3 C 4.14 g/m*3 2.3 C 0 km/h
1464 06-04-2010 05:53:03 2.1 C 4.08 g/m*3 2.1 C 0 km/h
1465 06-04-2010 06:05:03 2 C 4.06 g/m*3 2 C 0 km/h
1466 06-04-2010 06:17:03 1.7 C 4.03 g/m*3 1.7 C 0 km/h
1467 06-04-2010 06:29:04 1.7 C 4.08 g/m*3 1.7 C 0 km/h
1468 06-04-2010 06:41:04 1.7 C 4.08 g/m*3 1.7 C 0 km/h
1469 06-04-2010 06:53:04 1.7 C 4.08 g/m*3 1.7 C 0 km/h
1470 06-04-2010 07:05:01 1.5 C 4.08 g/m*3 1.5 C 0 km/h
1471 06-04-2010 07:17:02 1.5 C 4.08 g/m*3 1.5 C 0 km/h
1472 06-04-2010 07:29:02 1.5 C 4.08 g/m*3 1.5 C 0 km/h
1473 06-04-2010 07:41:02 1.4 C 4.11 g/m*3 1.4 C 0 km/h
1474 06-04-2010 07:53:02 1.5 C 4.14 g/m*3 1.5 C 0 km/h
1475 06-04-2010 08:05:02 1.8 C 4.22 g/m*3 1.8 C 0 km/h
Sensor: Nr:Datum:Temp:Abs-Feuchte:Windchill:Wind:
Aussen-T/F 1476 06-04-2010 08:17:02 1.8 C 4.22 g/m*3 1.8 C 0 km/h
1477 06-04-2010 08:29:02 1.9 C 4.3 g/m*3 1.9 C 0 km/h
1478 06-04-2010 08:41:02 2.1 C 4.31 g/m*3 2.1 C 0 km/h
1479 06-04-2010 08:53:02 2.3 C 4.37 g/m*3 2.3 C 0 km/h
1480 06-04-2010 09:05:02 2.6 C 4.51 g/m*3 2.6 C 0 km/h
1481 06-04-2010 09:17:03 3 C 4.52 g/m*3 3 C 0 km/h
1482 06-04-2010 09:29:03 3.5 C 4.61 g/m*3 3.5 C 0 km/h
1483 06-04-2010 09:41:02 4.1 C 4.54 g/m*3 4.1 C 0 km/h
1484 06-04-2010 09:53:02 4.5 C 4.54 g/m*3 4.5 C 0 km/h
1485 06-04-2010 10:05:02 5.1 C 4.58 g/m*3 5.1 C 0 km/h
1486 06-04-2010 10:17:02 5.9 C 4.69 g/m*3 5.9 C 0 km/h
1487 06-04-2010 10:29:02 7.1 C 4.68 g/m*3 7.1 C 0 km/h
1488 06-04-2010 10:41:02 9.2 C 3.93 g/m*3 9.2 C 0 km/h
1489 06-04-2010 10:53:02 9.8 C 3.62 g/m*3 9.8 C 0 km/h
1490 06-04-2010 11:05:01 10.4 C 3.47 g/m*3 10.4 C 0 km/h
1491 06-04-2010 11:17:02 10.9 C 3.28 g/m*3 10.9 C 0 km/h
1492 06-04-2010 11:29:03 11.2 C 3.14 g/m*3 11.2 C 0 km/h
1493 06-04-2010 11:41:01 11.5 C 3.1 g/m*3 11.5 C 0 km/h
1494 06-04-2010 11:53:02 12.2 C 3.02 g/m*3 12.2 C 0 km/h
1495 06-04-2010 12:05:01 12.4 C 2.84 g/m*3 12.4 C 0 km/h
1496 06-04-2010 12:17:01 12.7 C 2.78 g/m*3 12.7 C 0 km/h
1497 06-04-2010 12:29:01 13 C 2.72 g/m*3 13 C 0 km/h
1498 06-04-2010 12:41:02 13.4 C 2.91 g/m*3 13.4 C 0 km/h
1499 06-04-2010 12:53:02 13.5 C 2.81 g/m*3 13.5 C 0 km/h
1500 06-04-2010 13:05:02 13.9 C 3 g/m*3 13.9 C 0 km/h
Sensor: Nr:Datum:Temp:Abs-Feuchte:Windchill:Wind:
Aussen-T/F 1501 06-04-2010 13:17:02 14.2 C 3.05 g/m*3 14.2 C 0 km/h
1502 06-04-2010 13:29:02 14.2 C 3.05 g/m*3 14.2 C 0 km/h
1503 06-04-2010 13:41:02 14.8 C 3.17 g/m*3 14.8 C 0 km/h
1504 06-04-2010 13:53:02 15.4 C 2.89 g/m*3 15.4 C 0 km/h
1505 06-04-2010 14:05:03 16.7 C 3.13 g/m*3 16.7 C 0 km/h
1506 06-04-2010 14:17:02 16.8 C 3 g/m*3 16.8 C 0 km/h
1507 06-04-2010 14:29:02 17 C 2.89 g/m*3 17 C 0 km/h
1508 06-04-2010 14:41:02 17.3 C 2.95 g/m*3 17.3 C 0 km/h
1509 06-04-2010 14:53:01 17.4 C 2.96 g/m*3 17.4 C 0 km/h
1510 06-04-2010 15:05:02 18 C 3.07 g/m*3 18 C 0 km/h
1511 06-04-2010 15:17:01 18.6 C 3.18 g/m*3 18.6 C 0 km/h
1512 06-04-2010 15:29:01 18.5 C 3.16 g/m*3 18.5 C 0 km/h
1513 06-04-2010 15:41:01 19 C 3.26 g/m*3 19 C 0 km/h
1514 06-04-2010 15:53:01 19 C 3.26 g/m*3 19 C 0 km/h
1515 06-04-2010 16:05:02 19.4 C 3.34 g/m*3 19.4 C 0 km/h
1516 06-04-2010 16:17:02 19.7 C 3.4 g/m*3 19.7 C 0 km/h
1517 06-04-2010 16:29:02 20.5 C 3.56 g/m*3 20.5 C 0 km/h
1518 06-04-2010 16:41:01 20.7 C 3.6 g/m*3 20.7 C 0 km/h
1519 06-04-2010 16:53:01 21.5 C 3.77 g/m*3 21.5 C 0 km/h
1520 06-04-2010 17:05:02 21.4 C 3.75 g/m*3 21.4 C 0 km/h
1521 06-04-2010 17:17:02 21.6 C 3.79 g/m*3 21.6 C 0 km/h
1522 06-04-2010 17:29:02 21 C 3.66 g/m*3 21 C 0 km/h
1523 06-04-2010 17:41:01 21.1 C 3.69 g/m*3 21.1 C 0 km/h
1524 06-04-2010 17:53:01 21.9 C 3.86 g/m*3 21.9 C 0 km/h
1525 06-04-2010 18:05:02 21.7 C 3.82 g/m*3 21.7 C 0 km/h
Sensor: Nr:Datum:Temp:Abs-Feuchte:Windchill:Wind:
Aussen-T/F 1526 06-04-2010 18:17:02 21.3 C 3.73 g/m*3 21.3 C 0 km/h
1527 06-04-2010 18:29:02 21.5 C 3.77 g/m*3 21.5 C 0 km/h
1528 06-04-2010 18:41:01 21.9 C 3.86 g/m*3 21.9 C 0 km/h
1529 06-04-2010 18:53:02 21.2 C 3.71 g/m*3 21.2 C 0 km/h
1530 06-04-2010 19:05:01 21.1 C 3.69 g/m*3 21.1 C 0 km/h
1531 06-04-2010 19:17:02 19.8 C 3.42 g/m*3 19.8 C 0 km/h
1532 06-04-2010 19:29:02 19.9 C 3.44 g/m*3 19.9 C 0 km/h
1533 06-04-2010 19:41:01 19.7 C 3.4 g/m*3 19.7 C 0 km/h
1534 06-04-2010 19:53:02 18.2 C 3.26 g/m*3 18.2 C 0 km/h
1535 06-04-2010 20:05:02 16.8 C 3.57 g/m*3 16.8 C 0 km/h
1536 06-04-2010 20:17:02 15.5 C 3.83 g/m*3 15.5 C 0 km/h
1537 06-04-2010 20:29:02 14.7 C 4.03 g/m*3 14.7 C 0 km/h
1538 06-04-2010 20:41:02 14.3 C 3.93 g/m*3 14.3 C 0 km/h
1539 06-04-2010 20:53:02 13.8 C 4.05 g/m*3 13.8 C 0 km/h
1540 06-04-2010 21:05:01 13.5 C 4.09 g/m*3 13.5 C 0 km/h
1541 06-04-2010 21:17:02 13.2 C 4.13 g/m*3 13.2 C 0 km/h
1542 06-04-2010 21:29:02 12.9 C 4.17 g/m*3 12.9 C 0 km/h
1543 06-04-2010 21:41:02 12.8 C 4.14 g/m*3 12.8 C 0 km/h
1544 06-04-2010 21:53:02 12.5 C 4.29 g/m*3 12.5 C 0 km/h
1545 06-04-2010 22:05:02 12.2 C 4.32 g/m*3 12.2 C 0 km/h
1546 06-04-2010 22:17:02 12.1 C 4.29 g/m*3 12.1 C 0 km/h
1547 06-04-2010 22:29:03 11.8 C 4.32 g/m*3 11.8 C 0 km/h
1548 06-04-2010 22:41:02 11.5 C 4.44 g/m*3 11.5 C 0 km/h
1549 06-04-2010 22:53:02 11.3 C 4.59 g/m*3 11.3 C 0 km/h
1550 06-04-2010 23:05:02 10.9 C 4.58 g/m*3 10.9 C 0 km/h
Sensor: Nr:Datum:Temp:Abs-Feuchte:Windchill:Wind:
Aussen-T/F 1551 06-04-2010 23:17:02 10.8 C 4.65 g/m*3 10.8 C 0 km/h
1552 06-04-2010 23:29:02 10.5 C 4.56 g/m*3 10.5 C 0 km/h
1553 06-04-2010 23:41:01 10.3 C 4.5 g/m*3 10.3 C 0 km/h
1554 06-04-2010 23:53:02 10.1 C 4.63 g/m*3 10.1 C 0 km/h
1555 07-04-2010 00:05:01 10 C 4.6 g/m*3 10 C 0 km/h
1556 07-04-2010 00:17:01 9.7 C 4.61 g/m*3 9.7 C 0 km/h
1557 07-04-2010 00:29:01 9.3 C 4.67 g/m*3 9.3 C 0 km/h
1558 07-04-2010 00:41:02 9.1 C 4.7 g/m*3 9.1 C 0 km/h
1559 07-04-2010 00:53:02 8.9 C 4.73 g/m*3 8.9 C 0 km/h
1560 07-04-2010 01:05:02 8.6 C 4.73 g/m*3 8.6 C 0 km/h
1561 07-04-2010 01:17:02 8.4 C 4.75 g/m*3 8.4 C 0 km/h
1562 07-04-2010 01:29:02 8.2 C 4.77 g/m*3 8.2 C 0 km/h
1563 07-04-2010 01:41:03 8.1 C 4.74 g/m*3 8.1 C 0 km/h
1564 07-04-2010 01:53:02 7.9 C 4.76 g/m*3 7.9 C 0 km/h
1565 07-04-2010 02:05:02 7.6 C 4.67 g/m*3 7.6 C 0 km/h
1566 07-04-2010 02:17:02 7.4 C 4.69 g/m*3 7.4 C 0 km/h
1567 07-04-2010 02:29:03 7.3 C 4.74 g/m*3 7.3 C 0 km/h
1568 07-04-2010 02:41:02 7.1 C 4.76 g/m*3 7.1 C 0 km/h
1569 07-04-2010 02:54:02 7.1 C 4.76 g/m*3 7.1 C 0 km/h
1570 07-04-2010 03:06:02 7 C 4.73 g/m*3 7 C 0 km/h
1571 07-04-2010 03:18:02 6.8 C 4.74 g/m*3 6.8 C 0 km/h
1572 07-04-2010 03:30:02 6.7 C 4.71 g/m*3 6.7 C 0 km/h
1573 07-04-2010 03:42:02 6.5 C 4.72 g/m*3 6.5 C 0 km/h
1574 07-04-2010 03:54:02 6.5 C 4.72 g/m*3 6.5 C 0 km/h
1575 07-04-2010 04:06:02 6.2 C 4.71 g/m*3 6.2 C 0 km/h
Sensor: Nr:Datum:Temp:Abs-Feuchte:Windchill:Wind:
Aussen-T/F 1576 07-04-2010 04:18:02 6.1 C 4.75 g/m*3 6.1 C 0 km/h
1577 07-04-2010 04:30:02 5.9 C 4.76 g/m*3 5.9 C 0 km/h
1578 07-04-2010 04:42:03 5.8 C 4.8 g/m*3 5.8 C 0 km/h
1579 07-04-2010 04:54:03 5.8 C 4.73 g/m*3 5.8 C 0 km/h
1580 07-04-2010 05:06:03 5.5 C 4.64 g/m*3 5.5 C 0 km/h
1581 07-04-2010 05:18:03 5.6 C 4.67 g/m*3 5.6 C 0 km/h
1582 07-04-2010 05:30:03 5.3 C 4.64 g/m*3 5.3 C 0 km/h
1583 07-04-2010 05:42:03 5.2 C 4.61 g/m*3 5.2 C 0 km/h
1584 07-04-2010 05:54:03 5.1 C 4.58 g/m*3 5.1 C 0 km/h
1585 07-04-2010 06:06:03 4.8 C 4.63 g/m*3 4.8 C 0 km/h
1586 07-04-2010 06:18:03 4.8 C 4.69 g/m*3 4.8 C 0 km/h
1587 07-04-2010 06:30:03 4.5 C 4.6 g/m*3 4.5 C 0 km/h
1588 07-04-2010 06:42:03 4.5 C 4.67 g/m*3 4.5 C 0 km/h
1589 07-04-2010 06:54:03 4.3 C 4.54 g/m*3 4.3 C 0 km/h
1590 07-04-2010 07:06:02 4.3 C 4.67 g/m*3 4.3 C 0 km/h
1591 07-04-2010 07:18:02 4.3 C 4.61 g/m*3 4.3 C 0 km/h
1592 07-04-2010 07:30:03 4.3 C 4.61 g/m*3 4.3 C 0 km/h
1593 07-04-2010 07:42:02 4.4 C 4.64 g/m*3 4.4 C 0 km/h
1594 07-04-2010 07:54:02 4.4 C 4.64 g/m*3 4.4 C 0 km/h
1595 07-04-2010 08:06:02 4.4 C 4.64 g/m*3 4.4 C 0 km/h
1596 07-04-2010 08:18:03 4.5 C 4.73 g/m*3 4.5 C 0 km/h
1597 07-04-2010 08:30:03 4.7 C 4.8 g/m*3 4.7 C 0 km/h
1598 07-04-2010 08:42:02 4.8 C 4.83 g/m*3 4.8 C 0 km/h
1599 07-04-2010 08:54:02 5.1 C 4.86 g/m*3 5.1 C 0 km/h
1600 07-04-2010 09:06:01 5.4 C 4.88 g/m*3 5.4 C 0 km/h
Sensor: Nr:Datum:Temp:Abs-Feuchte:Windchill:Wind:
Aussen-T/F 1601 07-04-2010 09:18:01 5.9 C 5.05 g/m*3 5.9 C 0 km/h
1602 07-04-2010 09:30:01 6.5 C 5.02 g/m*3 6.5 C 0 km/h
1603 07-04-2010 09:42:02 7.1 C 5.07 g/m*3 7.1 C 0 km/h
1604 07-04-2010 09:54:02 8.1 C 4.91 g/m*3 8.1 C 0 km/h
1605 07-04-2010 10:06:01 9.1 C 4.97 g/m*3 9.1 C 0 km/h
1606 07-04-2010 10:18:02 9.7 C 4.98 g/m*3 9.7 C 0 km/h
1607 07-04-2010 10:30:02 10.7 C 4.52 g/m*3 10.7 C 0 km/h
1608 07-04-2010 10:42:02 11.7 C 4.5 g/m*3 11.7 C 0 km/h
1609 07-04-2010 10:54:01 12.4 C 4.15 g/m*3 12.4 C 0 km/h
1610 07-04-2010 11:06:02 13.2 C 4.13 g/m*3 13.2 C 0 km/h
1611 07-04-2010 11:18:01 13.6 C 4 g/m*3 13.6 C 0 km/h
1612 07-04-2010 11:30:01 14.1 C 3.88 g/m*3 14.1 C 0 km/h
1613 07-04-2010 11:42:02 14.9 C 4.21 g/m*3 14.9 C 0 km/h
1614 07-04-2010 11:54:02 15.7 C 4.01 g/m*3 15.7 C 0 km/h
1615 07-04-2010 12:06:02 16 C 3.95 g/m*3 16 C 0 km/h
1616 07-04-2010 12:18:01 16.4 C 4.05 g/m*3 16.4 C 0 km/h
1617 07-04-2010 12:30:01 16.8 C 3.86 g/m*3 16.8 C 0 km/h
1618 07-04-2010 12:42:02 17.3 C 3.83 g/m*3 17.3 C 0 km/h
1619 07-04-2010 12:54:01 18.1 C 3.71 g/m*3 18.1 C 0 km/h
1620 07-04-2010 13:06:02 18.5 C 3.48 g/m*3 18.5 C 0 km/h
1621 07-04-2010 13:18:02 19.1 C 3.44 g/m*3 19.1 C 0 km/h
1622 07-04-2010 13:30:03 19.2 C 3.3 g/m*3 19.2 C 0 km/h
1623 07-04-2010 13:42:01 19.7 C 3.4 g/m*3 19.7 C 0 km/h
1624 07-04-2010 13:54:02 20.6 C 3.58 g/m*3 20.6 C 0 km/h
1625 07-04-2010 14:06:02 20.9 C 3.64 g/m*3 20.9 C 0 km/h
Sensor: Nr:Datum:Temp:Abs-Feuchte:Windchill:Wind:
Aussen-T/F 1626 07-04-2010 14:18:02 21.3 C 3.73 g/m*3 21.3 C 0 km/h
1627 07-04-2010 14:30:02 21.7 C 3.82 g/m*3 21.7 C 0 km/h
1628 07-04-2010 14:42:03 22.7 C 4.04 g/m*3 22.7 C 0 km/h
1629 07-04-2010 14:54:02 23.3 C 4.18 g/m*3 23.3 C 0 km/h
1630 07-04-2010 15:06:02 23.7 C 4.28 g/m*3 23.7 C 0 km/h
1631 07-04-2010 15:18:01 24 C 4.35 g/m*3 24 C 0 km/h
1632 07-04-2010 15:30:01 24.1 C 4.38 g/m*3 24.1 C 0 km/h
1633 07-04-2010 15:42:02 24.4 C 4.45 g/m*3 24.4 C 0 km/h
1634 07-04-2010 15:54:02 25.2 C 4.66 g/m*3 25.2 C 0 km/h
1635 07-04-2010 16:06:02 25.4 C 4.71 g/m*3 25.4 C 0 km/h
1636 07-04-2010 16:18:02 25.8 C 4.82 g/m*3 25.8 C 0 km/h
1637 07-04-2010 16:30:02 24.2 C 4.4 g/m*3 24.2 C 0 km/h
1638 07-04-2010 16:42:02 24.7 C 4.53 g/m*3 24.7 C 0 km/h
1639 07-04-2010 16:54:02 25.1 C 4.63 g/m*3 25.1 C 0 km/h
1640 07-04-2010 17:06:03 25.9 C 4.84 g/m*3 25.9 C 0 km/h
1641 07-04-2010 17:18:02 25.9 C 4.84 g/m*3 25.9 C 0 km/h
1642 07-04-2010 17:30:02 25.4 C 4.71 g/m*3 25.4 C 0 km/h
1643 07-04-2010 17:42:02 25.2 C 4.66 g/m*3 25.2 C 0 km/h
1644 07-04-2010 17:54:01 25.2 C 4.66 g/m*3 25.2 C 0 km/h
1645 07-04-2010 18:06:02 24.9 C 4.58 g/m*3 24.9 C 0 km/h
1646 07-04-2010 18:18:01 24.7 C 4.53 g/m*3 24.7 C 0 km/h
1647 07-04-2010 18:30:01 24 C 4.35 g/m*3 24 C 0 km/h
1648 07-04-2010 18:42:01 23.5 C 4.23 g/m*3 23.5 C 0 km/h
1649 07-04-2010 18:54:01 23.1 C 4.13 g/m*3 23.1 C 0 km/h
1650 07-04-2010 19:06:02 22.5 C 3.99 g/m*3 22.5 C 0 km/h
Sensor: Nr:Datum:Temp:Abs-Feuchte:Windchill:Wind:
Aussen-T/F 1651 07-04-2010 19:18:01 21.5 C 3.77 g/m*3 21.5 C 0 km/h
1652 07-04-2010 19:30:01 20.5 C 3.91 g/m*3 20.5 C 0 km/h
1653 07-04-2010 19:42:01 19.5 C 4.03 g/m*3 19.5 C 0 km/h
1654 07-04-2010 19:54:01 18.7 C 4.16 g/m*3 18.7 C 0 km/h
1655 07-04-2010 20:06:16 18.1 C 3.86 g/m*3 18.1 C 0 km/h
1656 07-04-2010 20:18:02 17.8 C 3.95 g/m*3 17.8 C 0 km/h
1657 07-04-2010 20:30:02 17.5 C 4.03 g/m*3 17.5 C 0 km/h
1658 07-04-2010 20:42:03 17.2 C 4.1 g/m*3 17.2 C 0 km/h
1659 07-04-2010 20:54:03 16.8 C 4.29 g/m*3 16.8 C 0 km/h
1660 07-04-2010 21:06:03 16.4 C 4.19 g/m*3 16.4 C 0 km/h
1661 07-04-2010 21:18:02 16.1 C 4.25 g/m*3 16.1 C 0 km/h
1662 07-04-2010 21:30:02 15.8 C 4.31 g/m*3 15.8 C 0 km/h
1663 07-04-2010 21:42:03 15.4 C 4.6 g/m*3 15.4 C 0 km/h
1664 07-04-2010 21:54:02 15.1 C 4.64 g/m*3 15.1 C 0 km/h
1665 07-04-2010 22:06:03 14.7 C 4.78 g/m*3 14.7 C 0 km/h
1666 07-04-2010 22:18:04 14.4 C 4.94 g/m*3 14.4 C 0 km/h
1667 07-04-2010 22:30:04 14.2 C 4.76 g/m*3 14.2 C 0 km/h
1668 07-04-2010 22:43:04 14.1 C 4.61 g/m*3 14.1 C 0 km/h
1669 07-04-2010 22:55:04 13.8 C 4.77 g/m*3 13.8 C 0 km/h
1670 07-04-2010 23:07:04 13.5 C 4.91 g/m*3 13.5 C 0 km/h
1671 07-04-2010 23:19:04 13.4 C 5 g/m*3 13.4 C 0 km/h
1672 07-04-2010 23:31:04 13.2 C 5.05 g/m*3 13.2 C 0 km/h
1673 07-04-2010 23:43:04 13.2 C 4.82 g/m*3 13.2 C 0 km/h
1674 07-04-2010 23:55:04 13.1 C 4.91 g/m*3 13.1 C 0 km/h
1675 08-04-2010 00:07:04 12.8 C 5.04 g/m*3 12.8 C 0 km/h
Sensor: Nr:Datum:Temp:Abs-Feuchte:Windchill:Wind:
Aussen-T/F 1676 08-04-2010 00:19:04 12.6 C 5.09 g/m*3 12.6 C 0 km/h
1677 08-04-2010 00:31:04 12.2 C 5.07 g/m*3 12.2 C 0 km/h
1678 08-04-2010 00:43:04 12 C 5.12 g/m*3 12 C 0 km/h
1679 08-04-2010 00:55:05 11.8 C 5.26 g/m*3 11.8 C 0 km/h
1680 08-04-2010 01:07:05 11.6 C 5.3 g/m*3 11.6 C 0 km/h
1681 08-04-2010 01:19:05 11.6 C 5.3 g/m*3 11.6 C 0 km/h
1682 08-04-2010 01:31:05 11.6 C 5.3 g/m*3 11.6 C 0 km/h
1683 08-04-2010 01:43:05 11.4 C 5.34 g/m*3 11.4 C 0 km/h
1684 08-04-2010 01:55:05 11.6 C 5.3 g/m*3 11.6 C 0 km/h
1685 08-04-2010 02:07:05 11.4 C 5.44 g/m*3 11.4 C 0 km/h
1686 08-04-2010 02:19:05 11.2 C 5.37 g/m*3 11.2 C 0 km/h
1687 08-04-2010 02:31:05 10.8 C 5.54 g/m*3 10.8 C 0 km/h
1688 08-04-2010 02:43:05 10.5 C 5.63 g/m*3 10.5 C 0 km/h
1689 08-04-2010 02:55:05 10.4 C 5.59 g/m*3 10.4 C 0 km/h
1690 08-04-2010 03:07:05 10.5 C 5.63 g/m*3 10.5 C 0 km/h
1691 08-04-2010 03:19:05 10.5 C 5.72 g/m*3 10.5 C 0 km/h
1692 08-04-2010 03:31:05 10.5 C 5.72 g/m*3 10.5 C 0 km/h
1693 08-04-2010 03:43:05 10.2 C 5.8 g/m*3 10.2 C 0 km/h
1694 08-04-2010 03:55:05 10.2 C 5.8 g/m*3 10.2 C 0 km/h
1695 08-04-2010 04:07:05 10 C 5.83 g/m*3 10 C 0 km/h
1696 08-04-2010 04:19:05 9.9 C 5.88 g/m*3 9.9 C 0 km/h
1697 08-04-2010 04:31:05 9.9 C 5.88 g/m*3 9.9 C 0 km/h
1698 08-04-2010 04:43:05 10.3 C 5.94 g/m*3 10.3 C 0 km/h
1699 08-04-2010 04:55:06 10.1 C 5.86 g/m*3 10.1 C 0 km/h
1700 08-04-2010 05:07:06 9.9 C 5.98 g/m*3 9.9 C 0 km/h
Sensor: Nr:Datum:Temp:Abs-Feuchte:Windchill:Wind:
Aussen-T/F 1701 08-04-2010 05:19:06 10.1 C 5.96 g/m*3 10.1 C 0 km/h
1702 08-04-2010 05:31:06 10 C 5.92 g/m*3 10 C 0 km/h
1703 08-04-2010 05:43:06 10 C 6.01 g/m*3 10 C 0 km/h
1704 08-04-2010 05:55:06 10 C 5.92 g/m*3 10 C 0 km/h
1705 08-04-2010 06:07:06 10.1 C 6.05 g/m*3 10.1 C 0 km/h
1706 08-04-2010 06:19:06 10 C 6.01 g/m*3 10 C 0 km/h
1707 08-04-2010 06:31:06 9.9 C 6.16 g/m*3 9.9 C 0 km/h
1708 08-04-2010 06:43:06 9.9 C 6.16 g/m*3 9.9 C 0 km/h
1709 08-04-2010 06:55:02 9.9 C 6.26 g/m*3 9.9 C 0 km/h
1710 08-04-2010 07:07:02 10.1 C 6.43 g/m*3 10.1 C 0 km/h
1711 08-04-2010 07:19:02 10.3 C 6.42 g/m*3 10.3 C 0 km/h
1712 08-04-2010 07:31:02 10.7 C 6.78 g/m*3 10.7 C 0 km/h
1713 08-04-2010 07:43:02 11.1 C 6.85 g/m*3 11.1 C 0 km/h
1714 08-04-2010 07:55:01 11.2 C 6.69 g/m*3 11.2 C 0 km/h
1715 08-04-2010 08:07:01 11.7 C 7.11 g/m*3 11.7 C 0 km/h
1716 08-04-2010 08:19:01 11.9 C 7.2 g/m*3 11.9 C 0 km/h
1717 08-04-2010 08:31:01 12.2 C 7.12 g/m*3 12.2 C 0 km/h
1718 08-04-2010 08:43:01 12.4 C 7.1 g/m*3 12.4 C 0 km/h
1719 08-04-2010 08:55:01 12.5 C 7.15 g/m*3 12.5 C 0 km/h
1720 08-04-2010 09:07:01 12.6 C 7.3 g/m*3 12.6 C 0 km/h
1721 08-04-2010 09:19:02 12.7 C 7.24 g/m*3 12.7 C 0 km/h
1722 08-04-2010 09:31:01 13 C 7.26 g/m*3 13 C 0 km/h
1723 08-04-2010 09:43:01 12.7 C 7.12 g/m*3 12.7 C 0 km/h
1724 08-04-2010 09:55:02 12.8 C 7.28 g/m*3 12.8 C 0 km/h
1725 08-04-2010 10:07:02 13.1 C 7.3 g/m*3 13.1 C 0 km/h
Sensor: Nr:Datum:Temp:Abs-Feuchte:Windchill:Wind:
Aussen-T/F 1726 08-04-2010 10:19:02 13.4 C 7.32 g/m*3 13.4 C 0 km/h
1727 08-04-2010 10:31:02 13.3 C 7.28 g/m*3 13.3 C 0 km/h
1728 08-04-2010 10:43:02 13.3 C 7.28 g/m*3 13.3 C 0 km/h
1729 08-04-2010 10:55:02 13.6 C 7.65 g/m*3 13.6 C 0 km/h
1730 08-04-2010 11:07:02 14.2 C 7.33 g/m*3 14.2 C 0 km/h
1731 08-04-2010 11:19:02 14.9 C 6.75 g/m*3 14.9 C 0 km/h
1732 08-04-2010 11:31:02 14.9 C 6.75 g/m*3 14.9 C 0 km/h
1733 08-04-2010 11:43:02 15.2 C 6.62 g/m*3 15.2 C 0 km/h
1734 08-04-2010 11:55:02 15.6 C 6.65 g/m*3 15.6 C 0 km/h
1735 08-04-2010 12:07:01 15.3 C 6.53 g/m*3 15.3 C 0 km/h
1736 08-04-2010 12:19:02 15.7 C 6.69 g/m*3 15.7 C 0 km/h
1737 08-04-2010 12:31:02 15.4 C 6.57 g/m*3 15.4 C 0 km/h
1738 08-04-2010 12:43:02 15.5 C 6.48 g/m*3 15.5 C 0 km/h
1739 08-04-2010 12:55:02 15.3 C 6.92 g/m*3 15.3 C 0 km/h
1740 08-04-2010 13:07:02 15.3 C 7.05 g/m*3 15.3 C 0 km/h
1741 08-04-2010 13:19:02 15.7 C 7.09 g/m*3 15.7 C 0 km/h
1742 08-04-2010 13:31:02 15.8 C 7 g/m*3 15.8 C 0 km/h
1743 08-04-2010 13:43:02 15.6 C 6.92 g/m*3 15.6 C 0 km/h
1744 08-04-2010 13:55:01 15.7 C 6.96 g/m*3 15.7 C 0 km/h
1745 08-04-2010 14:07:02 15.4 C 6.96 g/m*3 15.4 C 0 km/h
1746 08-04-2010 14:19:01 15.2 C 6.88 g/m*3 15.2 C 0 km/h
1747 08-04-2010 14:31:01 14.9 C 7.01 g/m*3 14.9 C 0 km/h
1748 08-04-2010 14:43:01 15 C 7.05 g/m*3 15 C 0 km/h
1749 08-04-2010 14:55:01 15 C 7.18 g/m*3 15 C 0 km/h
1750 08-04-2010 15:07:02 14.9 C 7.39 g/m*3 14.9 C 0 km/h
Sensor: Nr:Datum:Temp:Abs-Feuchte:Windchill:Wind:
Aussen-T/F 1751 08-04-2010 15:19:01 14.2 C 7.33 g/m*3 14.2 C 0 km/h
1752 08-04-2010 15:31:01 14.8 C 7.6 g/m*3 14.8 C 0 km/h
1753 08-04-2010 15:43:01 14.2 C 7.69 g/m*3 14.2 C 0 km/h
1754 08-04-2010 15:55:01 13.9 C 8.03 g/m*3 13.9 C 0 km/h
1755 08-04-2010 16:07:02 13.9 C 8.15 g/m*3 13.9 C 0 km/h
1756 08-04-2010 16:19:02 13.8 C 8.34 g/m*3 13.8 C 0 km/h
1757 08-04-2010 16:31:01 13.3 C 8.32 g/m*3 13.3 C 0 km/h
1758 08-04-2010 16:43:01 13.3 C 8.43 g/m*3 13.3 C 0 km/h
1759 08-04-2010 16:55:01 13.6 C 8.59 g/m*3 13.6 C 0 km/h
1760 08-04-2010 17:07:02 13.7 C 8.53 g/m*3 13.7 C 0 km/h
1761 08-04-2010 17:19:02 13.8 C 8.58 g/m*3 13.8 C 0 km/h
1762 08-04-2010 17:31:01 13.5 C 8.3 g/m*3 13.5 C 0 km/h
1763 08-04-2010 17:43:01 13.8 C 8.34 g/m*3 13.8 C 0 km/h
1764 08-04-2010 17:55:02 13.6 C 8.24 g/m*3 13.6 C 0 km/h
1765 08-04-2010 18:07:01 13.2 C 8.27 g/m*3 13.2 C 0 km/h
1766 08-04-2010 18:19:07 12.9 C 8.34 g/m*3 12.9 C 0 km/h
1767 08-04-2010 18:31:02 13 C 8.28 g/m*3 13 C 0 km/h
1768 08-04-2010 18:43:02 12.9 C 8.23 g/m*3 12.9 C 0 km/h
1769 08-04-2010 18:55:02 12.8 C 8.06 g/m*3 12.8 C 0 km/h
1770 08-04-2010 19:07:02 12.7 C 8.24 g/m*3 12.7 C 0 km/h
1771 08-04-2010 19:19:01 12.7 C 8.24 g/m*3 12.7 C 0 km/h
1772 08-04-2010 19:31:02 12.5 C 8.14 g/m*3 12.5 C 0 km/h
1773 08-04-2010 19:43:02 12.1 C 8.04 g/m*3 12.1 C 0 km/h
1774 08-04-2010 19:55:02 11.9 C 8.15 g/m*3 11.9 C 0 km/h
1775 08-04-2010 20:07:02 11.3 C 8.16 g/m*3 11.3 C 0 km/h
Sensor: Nr:Datum:Temp:Abs-Feuchte:Windchill:Wind:
Aussen-T/F 1776 08-04-2010 20:19:02 11.3 C 8.26 g/m*3 11.3 C 0 km/h
1777 08-04-2010 20:31:02 11.2 C 8.11 g/m*3 11.2 C 0 km/h
1778 08-04-2010 20:43:02 11.2 C 7.91 g/m*3 11.2 C 0 km/h
1779 08-04-2010 20:55:02 11.3 C 7.96 g/m*3 11.3 C 0 km/h
1780 08-04-2010 21:07:02 11.3 C 7.85 g/m*3 11.3 C 0 km/h
1781 08-04-2010 21:19:02 11.5 C 7.95 g/m*3 11.5 C 0 km/h
1782 08-04-2010 21:31:02 11.5 C 7.85 g/m*3 11.5 C 0 km/h
1783 08-04-2010 21:43:02 11.3 C 7.75 g/m*3 11.3 C 0 km/h
1784 08-04-2010 21:56:02 11.3 C 7.75 g/m*3 11.3 C 0 km/h
1785 08-04-2010 22:08:02 11.4 C 7.8 g/m*3 11.4 C 0 km/h
1786 08-04-2010 22:20:02 11.2 C 7.6 g/m*3 11.2 C 0 km/h
1787 08-04-2010 22:32:02 11.1 C 7.45 g/m*3 11.1 C 0 km/h
1788 08-04-2010 22:44:02 11.1 C 7.35 g/m*3 11.1 C 0 km/h
1789 08-04-2010 22:56:02 11.1 C 7.15 g/m*3 11.1 C 0 km/h
1790 08-04-2010 23:08:02 11.1 C 7.15 g/m*3 11.1 C 0 km/h
1791 08-04-2010 23:20:02 11 C 7.21 g/m*3 11 C 0 km/h
1792 08-04-2010 23:32:02 11 C 7.31 g/m*3 11 C 0 km/h
1793 08-04-2010 23:44:02 11.1 C 7.35 g/m*3 11.1 C 0 km/h
1794 08-04-2010 23:56:02 11.1 C 7.25 g/m*3 11.1 C 0 km/h
1795 09-04-2010 00:08:02 11.1 C 7.25 g/m*3 11.1 C 0 km/h
1796 09-04-2010 00:20:02 11.1 C 7.25 g/m*3 11.1 C 0 km/h
1797 09-04-2010 00:32:02 11.2 C 7.2 g/m*3 11.2 C 0 km/h
1798 09-04-2010 00:44:02 11.1 C 7.15 g/m*3 11.1 C 0 km/h
1799 09-04-2010 00:56:02 11 C 7.11 g/m*3 11 C 0 km/h
1800 09-04-2010 01:08:02 11 C 7.11 g/m*3 11 C 0 km/h
Sensor: Nr:Datum:Temp:Abs-Feuchte:Windchill:Wind:
Aussen-T/F 1801 09-04-2010 01:20:02 10.9 C 7.06 g/m*3 10.9 C 0 km/h
1802 09-04-2010 01:32:03 10.8 C 6.92 g/m*3 10.8 C 0 km/h
1803 09-04-2010 01:44:03 10.5 C 6.69 g/m*3 10.5 C 0 km/h
1804 09-04-2010 01:56:03 10.3 C 6.51 g/m*3 10.3 C 0 km/h
1805 09-04-2010 02:08:03 10.1 C 6.43 g/m*3 10.1 C 0 km/h
1806 09-04-2010 02:20:03 9.7 C 6.55 g/m*3 9.7 C 0 km/h
1807 09-04-2010 02:32:03 9.3 C 6.38 g/m*3 9.3 C 0 km/h
1808 09-04-2010 02:44:03 9 C 6.44 g/m*3 9 C 0 km/h
1809 09-04-2010 02:56:03 8.8 C 6.53 g/m*3 8.8 C 0 km/h
1810 09-04-2010 03:08:03 8.7 C 6.66 g/m*3 8.7 C 0 km/h
1811 09-04-2010 03:20:03 8.6 C 6.62 g/m*3 8.6 C 0 km/h
1812 09-04-2010 03:32:03 8.4 C 6.62 g/m*3 8.4 C 0 km/h
1813 09-04-2010 03:44:03 8.4 C 6.7 g/m*3 8.4 C 0 km/h
1814 09-04-2010 03:56:03 8.2 C 6.62 g/m*3 8.2 C 0 km/h
1815 09-04-2010 04:08:03 8 C 6.61 g/m*3 8 C 0 km/h
1816 09-04-2010 04:20:03 7.8 C 6.61 g/m*3 7.8 C 0 km/h
1817 09-04-2010 04:32:03 7.5 C 6.56 g/m*3 7.5 C 0 km/h
1818 09-04-2010 04:44:03 7.4 C 6.6 g/m*3 7.4 C 0 km/h
1819 09-04-2010 04:56:03 7.5 C 6.64 g/m*3 7.5 C 0 km/h
1820 09-04-2010 05:08:03 7.8 C 6.86 g/m*3 7.8 C 0 km/h
1821 09-04-2010 05:20:03 8 C 6.86 g/m*3 8 C 0 km/h
1822 09-04-2010 05:32:04 8.1 C 6.82 g/m*3 8.1 C 0 km/h
1823 09-04-2010 05:44:04 8 C 6.61 g/m*3 8 C 0 km/h
1824 09-04-2010 05:56:04 7.8 C 6.61 g/m*3 7.8 C 0 km/h
1825 09-04-2010 06:08:04 7.8 C 6.61 g/m*3 7.8 C 0 km/h
Sensor: Nr:Datum:Temp:Abs-Feuchte:Windchill:Wind:
Aussen-T/F 1826 09-04-2010 06:20:04 7.8 C 6.61 g/m*3 7.8 C 0 km/h
1827 09-04-2010 06:32:04 7.9 C 6.57 g/m*3 7.9 C 0 km/h
1828 09-04-2010 06:44:04 7.6 C 6.44 g/m*3 7.6 C 0 km/h
1829 09-04-2010 06:56:04 7.7 C 6.57 g/m*3 7.7 C 0 km/h
1830 09-04-2010 07:08:02 7.7 C 6.49 g/m*3 7.7 C 0 km/h
1831 09-04-2010 07:20:02 7.7 C 6.49 g/m*3 7.7 C 0 km/h
1832 09-04-2010 07:32:02 7.9 C 6.57 g/m*3 7.9 C 0 km/h
1833 09-04-2010 07:44:02 8.1 C 6.49 g/m*3 8.1 C 0 km/h
1834 09-04-2010 07:56:02 8.1 C 6.32 g/m*3 8.1 C 0 km/h
1835 09-04-2010 08:08:02 7.7 C 6.16 g/m*3 7.7 C 0 km/h
1836 09-04-2010 08:20:02 7.4 C 6.12 g/m*3 7.4 C 0 km/h
1837 09-04-2010 08:32:01 7.5 C 6.24 g/m*3 7.5 C 0 km/h
1838 09-04-2010 08:44:01 7.7 C 6.32 g/m*3 7.7 C 0 km/h
1839 09-04-2010 08:56:02 8 C 6.28 g/m*3 8 C 0 km/h
1840 09-04-2010 09:08:01 7.9 C 6.24 g/m*3 7.9 C 0 km/h
1841 09-04-2010 09:20:02 7.8 C 6.28 g/m*3 7.8 C 0 km/h
1842 09-04-2010 09:32:01 8.5 C 6.4 g/m*3 8.5 C 0 km/h
1843 09-04-2010 09:44:01 8.8 C 6.27 g/m*3 8.8 C 0 km/h
1844 09-04-2010 09:56:02 8.6 C 6.1 g/m*3 8.6 C 0 km/h
1845 09-04-2010 10:08:02 9 C 5.91 g/m*3 9 C 0 km/h
1846 09-04-2010 10:20:02 9.5 C 6.1 g/m*3 9.5 C 0 km/h
1847 09-04-2010 10:32:03 9.8 C 6.12 g/m*3 9.8 C 0 km/h
1848 09-04-2010 10:44:03 10.2 C 5.9 g/m*3 10.2 C 0 km/h
1849 09-04-2010 10:56:02 10.8 C 5.93 g/m*3 10.8 C 0 km/h
1850 09-04-2010 11:08:01 11.2 C 5.68 g/m*3 11.2 C 0 km/h
Sensor: Nr:Datum:Temp:Abs-Feuchte:Windchill:Wind:
Aussen-T/F 1851 09-04-2010 11:20:02 11.5 C 5.78 g/m*3 11.5 C 0 km/h
1852 09-04-2010 11:32:02 11.9 C 5.72 g/m*3 11.9 C 0 km/h
1853 09-04-2010 11:44:02 12.5 C 5.61 g/m*3 12.5 C 0 km/h
1854 09-04-2010 11:56:02 13 C 5.56 g/m*3 13 C 0 km/h
1855 09-04-2010 12:08:02 13.5 C 5.26 g/m*3 13.5 C 0 km/h
1856 09-04-2010 12:20:02 13.8 C 5.36 g/m*3 13.8 C 0 km/h
1857 09-04-2010 12:32:02 14.2 C 5.13 g/m*3 14.2 C 0 km/h
1858 09-04-2010 12:44:02 14.7 C 5.16 g/m*3 14.7 C 0 km/h
1859 09-04-2010 12:56:02 13.6 C 4.71 g/m*3 13.6 C 0 km/h
1860 09-04-2010 13:08:02 14.4 C 4.7 g/m*3 14.4 C 0 km/h
1861 09-04-2010 13:20:01 14.6 C 4.63 g/m*3 14.6 C 0 km/h
1862 09-04-2010 13:32:02 14.7 C 4.66 g/m*3 14.7 C 0 km/h
1863 09-04-2010 13:44:02 14.7 C 4.66 g/m*3 14.7 C 0 km/h
1864 09-04-2010 13:56:02 15.8 C 4.58 g/m*3 15.8 C 0 km/h
1865 09-04-2010 14:08:02 15.6 C 4.52 g/m*3 15.6 C 0 km/h
1866 09-04-2010 14:20:02 15.8 C 4.31 g/m*3 15.8 C 0 km/h
1867 09-04-2010 14:32:02 15.8 C 3.63 g/m*3 15.8 C 0 km/h
1868 09-04-2010 14:44:02 15.9 C 4.06 g/m*3 15.9 C 0 km/h
1869 09-04-2010 14:56:02 16 C 4.09 g/m*3 16 C 0 km/h
1870 09-04-2010 15:08:02 16.7 C 3.98 g/m*3 16.7 C 0 km/h
1871 09-04-2010 15:20:02 15.7 C 4.01 g/m*3 15.7 C 0 km/h
1872 09-04-2010 15:32:02 15.4 C 4.07 g/m*3 15.4 C 0 km/h
1873 09-04-2010 15:44:02 15.2 C 4.02 g/m*3 15.2 C 0 km/h
1874 09-04-2010 15:56:01 15.4 C 4.2 g/m*3 15.4 C 0 km/h
1875 09-04-2010 16:08:01 15.6 C 4.26 g/m*3 15.6 C 0 km/h
Sensor: Nr:Datum:Temp:Abs-Feuchte:Windchill:Wind:
Aussen-T/F 1876 09-04-2010 16:20:01 15.9 C 4.2 g/m*3 15.9 C 0 km/h
1877 09-04-2010 16:32:01 15.6 C 4.26 g/m*3 15.6 C 0 km/h
1878 09-04-2010 16:44:01 15.5 C 4.1 g/m*3 15.5 C 0 km/h
1879 09-04-2010 16:56:01 15.4 C 4.34 g/m*3 15.4 C 0 km/h
1880 09-04-2010 17:08:01 15.7 C 4.28 g/m*3 15.7 C 0 km/h
1881 09-04-2010 17:20:02 15.3 C 4.18 g/m*3 15.3 C 0 km/h
1882 09-04-2010 17:32:01 15.1 C 4.26 g/m*3 15.1 C 0 km/h
1883 09-04-2010 17:44:01 15.3 C 4.31 g/m*3 15.3 C 0 km/h
1884 09-04-2010 17:56:01 15.1 C 4.39 g/m*3 15.1 C 0 km/h
1885 09-04-2010 18:08:01 14.8 C 4.43 g/m*3 14.8 C 0 km/h
1886 09-04-2010 18:20:02 14.8 C 4.56 g/m*3 14.8 C 0 km/h
1887 09-04-2010 18:32:01 14.7 C 4.53 g/m*3 14.7 C 0 km/h
1888 09-04-2010 18:44:01 15 C 4.49 g/m*3 15 C 0 km/h
1889 09-04-2010 18:56:03 15.7 C 4.55 g/m*3 15.7 C 0 km/h
1890 09-04-2010 19:08:02 15.2 C 4.54 g/m*3 15.2 C 0 km/h
1891 09-04-2010 19:20:02 14.4 C 4.45 g/m*3 14.4 C 0 km/h
1892 09-04-2010 19:32:02 14.2 C 4.52 g/m*3 14.2 C 0 km/h
1893 09-04-2010 19:44:02 14 C 4.82 g/m*3 14 C 0 km/h
1894 09-04-2010 19:56:02 14 C 4.95 g/m*3 14 C 0 km/h
1895 09-04-2010 20:08:02 13.4 C 5 g/m*3 13.4 C 0 km/h
1896 09-04-2010 20:20:02 13.1 C 5.14 g/m*3 13.1 C 0 km/h
1897 09-04-2010 20:32:01 13 C 5.1 g/m*3 13 C 0 km/h
1898 09-04-2010 20:44:01 12.6 C 5.2 g/m*3 12.6 C 0 km/h
1899 09-04-2010 20:56:02 12.4 C 5.35 g/m*3 12.4 C 0 km/h
1900 09-04-2010 21:08:01 11.9 C 5.4 g/m*3 11.9 C 0 km/h
Sensor: Nr:Datum:Temp:Abs-Feuchte:Windchill:Wind:
Aussen-T/F 1901 09-04-2010 21:20:02 11.6 C 5.4 g/m*3 11.6 C 0 km/h
1902 09-04-2010 21:32:02 11.4 C 5.44 g/m*3 11.4 C 0 km/h
1903 09-04-2010 21:44:02 11.4 C 5.54 g/m*3 11.4 C 0 km/h
1904 09-04-2010 21:56:02 11.4 C 5.65 g/m*3 11.4 C 0 km/h
1905 09-04-2010 22:09:03 11.2 C 5.68 g/m*3 11.2 C 0 km/h
1906 09-04-2010 22:21:03 11.3 C 5.71 g/m*3 11.3 C 0 km/h
1907 09-04-2010 22:33:03 11.2 C 5.68 g/m*3 11.2 C 0 km/h
1908 09-04-2010 22:45:03 11 C 5.61 g/m*3 11 C 0 km/h
1909 09-04-2010 22:57:03 11 C 5.71 g/m*3 11 C 0 km/h
1910 09-04-2010 23:09:03 11.1 C 5.74 g/m*3 11.1 C 0 km/h
1911 09-04-2010 23:21:03 11.1 C 5.74 g/m*3 11.1 C 0 km/h
1912 09-04-2010 23:33:03 11.1 C 5.74 g/m*3 11.1 C 0 km/h
1913 09-04-2010 23:45:03 11.1 C 5.74 g/m*3 11.1 C 0 km/h
1914 09-04-2010 23:57:04 11.1 C 5.74 g/m*3 11.1 C 0 km/h
1915 10-04-2010 00:09:04 11.1 C 5.84 g/m*3 11.1 C 0 km/h
1916 10-04-2010 00:21:04 11 C 5.81 g/m*3 11 C 0 km/h
1917 10-04-2010 00:33:04 10.6 C 5.86 g/m*3 10.6 C 0 km/h
1918 10-04-2010 00:45:04 10.1 C 5.77 g/m*3 10.1 C 0 km/h
1919 10-04-2010 00:57:04 9.7 C 5.81 g/m*3 9.7 C 0 km/h
1920 10-04-2010 01:09:04 9.6 C 5.86 g/m*3 9.6 C 0 km/h
1921 10-04-2010 01:21:04 9.6 C 5.86 g/m*3 9.6 C 0 km/h
1922 10-04-2010 01:33:04 9.5 C 6.01 g/m*3 9.5 C 0 km/h
1923 10-04-2010 01:45:04 9.4 C 6.06 g/m*3 9.4 C 0 km/h
1924 10-04-2010 01:57:04 9.5 C 6.1 g/m*3 9.5 C 0 km/h
1925 10-04-2010 02:09:04 9.5 C 6.01 g/m*3 9.5 C 0 km/h
Sensor: Nr:Datum:Temp:Abs-Feuchte:Windchill:Wind:
Aussen-T/F 1926 10-04-2010 02:21:04 9.4 C 5.97 g/m*3 9.4 C 0 km/h
1927 10-04-2010 02:33:04 9.3 C 5.93 g/m*3 9.3 C 0 km/h
1928 10-04-2010 02:45:04 9.3 C 5.93 g/m*3 9.3 C 0 km/h
1929 10-04-2010 02:57:04 9.4 C 5.97 g/m*3 9.4 C 0 km/h
1930 10-04-2010 03:09:04 9.5 C 6.01 g/m*3 9.5 C 0 km/h
1931 10-04-2010 03:21:04 9.4 C 5.97 g/m*3 9.4 C 0 km/h
1932 10-04-2010 03:33:04 9.6 C 6.14 g/m*3 9.6 C 0 km/h
1933 10-04-2010 03:45:04 9.8 C 6.12 g/m*3 9.8 C 0 km/h
1934 10-04-2010 03:57:05 10 C 5.92 g/m*3 10 C 0 km/h
1935 10-04-2010 04:09:05 10 C 5.92 g/m*3 10 C 0 km/h
1936 10-04-2010 04:21:05 10 C 5.92 g/m*3 10 C 0 km/h
1937 10-04-2010 04:33:05 10 C 5.92 g/m*3 10 C 0 km/h
1938 10-04-2010 04:45:05 9.8 C 5.94 g/m*3 9.8 C 0 km/h
1939 10-04-2010 04:57:05 9.8 C 5.94 g/m*3 9.8 C 0 km/h
1940 10-04-2010 05:09:05 9.7 C 5.9 g/m*3 9.7 C 0 km/h
1941 10-04-2010 05:21:05 9.7 C 5.9 g/m*3 9.7 C 0 km/h
1942 10-04-2010 05:33:05 9.6 C 5.86 g/m*3 9.6 C 0 km/h
1943 10-04-2010 05:45:05 9.5 C 5.83 g/m*3 9.5 C 0 km/h
1944 10-04-2010 05:57:05 9.5 C 5.83 g/m*3 9.5 C 0 km/h
1945 10-04-2010 06:09:05 9.4 C 5.88 g/m*3 9.4 C 0 km/h
1946 10-04-2010 06:21:05 9.3 C 5.84 g/m*3 9.3 C 0 km/h
1947 10-04-2010 06:33:05 9.3 C 5.84 g/m*3 9.3 C 0 km/h
1948 10-04-2010 06:45:05 9.2 C 5.89 g/m*3 9.2 C 0 km/h
1949 10-04-2010 06:57:05 9.1 C 5.86 g/m*3 9.1 C 0 km/h
1950 10-04-2010 07:09:05 9.1 C 5.86 g/m*3 9.1 C 0 km/h
Sensor: Nr:Datum:Temp:Abs-Feuchte:Windchill:Wind:
Aussen-T/F 1951 10-04-2010 07:21:05 9.1 C 5.94 g/m*3 9.1 C 0 km/h
1952 10-04-2010 07:33:05 9 C 5.91 g/m*3 9 C 0 km/h
1953 10-04-2010 07:45:05 8.9 C 6.04 g/m*3 8.9 C 0 km/h
1954 10-04-2010 07:57:05 9 C 5.99 g/m*3 9 C 0 km/h
1955 10-04-2010 08:09:03 9 C 5.99 g/m*3 9 C 0 km/h
1956 10-04-2010 08:21:03 8.9 C 6.04 g/m*3 8.9 C 0 km/h
1957 10-04-2010 08:33:04 9 C 5.99 g/m*3 9 C 0 km/h
1958 10-04-2010 08:45:02 9.1 C 5.94 g/m*3 9.1 C 0 km/h
1959 10-04-2010 08:57:02 9.2 C 5.98 g/m*3 9.2 C 0 km/h
1960 10-04-2010 09:09:02 9.5 C 5.92 g/m*3 9.5 C 0 km/h
1961 10-04-2010 09:21:02 9.7 C 5.9 g/m*3 9.7 C 0 km/h
1962 10-04-2010 09:33:02 9.8 C 5.75 g/m*3 9.8 C 0 km/h
1963 10-04-2010 09:45:02 10 C 5.73 g/m*3 10 C 0 km/h
1964 10-04-2010 09:57:02 10.1 C 5.39 g/m*3 10.1 C 0 km/h
1965 10-04-2010 10:09:01 10.2 C 4.95 g/m*3 10.2 C 0 km/h
1966 10-04-2010 10:21:01 10.6 C 4.59 g/m*3 10.6 C 0 km/h
1967 10-04-2010 10:33:02 10.3 C 4.41 g/m*3 10.3 C 0 km/h
1968 10-04-2010 10:45:02 10.8 C 4.35 g/m*3 10.8 C 0 km/h
1969 10-04-2010 10:57:02 11.1 C 4.23 g/m*3 11.1 C 0 km/h
1970 10-04-2010 11:09:02 11.5 C 4.13 g/m*3 11.5 C 0 km/h
1971 10-04-2010 11:21:02 11.4 C 4 g/m*3 11.4 C 0 km/h
1972 10-04-2010 11:33:02 11 C 3.9 g/m*3 11 C 0 km/h
1973 10-04-2010 11:45:02 11.2 C 3.95 g/m*3 11.2 C 0 km/h
1974 10-04-2010 11:57:02 12 C 3.94 g/m*3 12 C 0 km/h
1975 10-04-2010 12:09:02 11.9 C 3.71 g/m*3 11.9 C 0 km/h
Sensor: Nr:Datum:Temp:Abs-Feuchte:Windchill:Wind:
Aussen-T/F 1976 10-04-2010 12:21:02 12.6 C 3.87 g/m*3 12.6 C 0 km/h
1977 10-04-2010 12:33:02 12.6 C 3.54 g/m*3 12.6 C 0 km/h
1978 10-04-2010 12:45:01 12.5 C 3.52 g/m*3 12.5 C 0 km/h
1979 10-04-2010 12:57:01 12.9 C 3.49 g/m*3 12.9 C 0 km/h
1980 10-04-2010 13:09:02 13.1 C 3.42 g/m*3 13.1 C 0 km/h
1981 10-04-2010 13:21:01 13 C 3.18 g/m*3 13 C 0 km/h
1982 10-04-2010 13:33:01 14 C 3.38 g/m*3 14 C 0 km/h
1983 10-04-2010 13:45:01 14.3 C 3.32 g/m*3 14.3 C 0 km/h
1984 10-04-2010 13:57:01 14.1 C 3.16 g/m*3 14.1 C 0 km/h
1985 10-04-2010 14:09:02 13.6 C 3.18 g/m*3 13.6 C 0 km/h
1986 10-04-2010 14:21:01 14.9 C 3.19 g/m*3 14.9 C 0 km/h
1987 10-04-2010 14:33:01 15 C 3.21 g/m*3 15 C 0 km/h
1988 10-04-2010 14:45:01 14.7 C 2.77 g/m*3 14.7 C 0 km/h
1989 10-04-2010 14:57:01 15.2 C 2.86 g/m*3 15.2 C 0 km/h
1990 10-04-2010 15:09:02 15.7 C 3.08 g/m*3 15.7 C 0 km/h
1991 10-04-2010 15:21:02 15 C 2.56 g/m*3 15 C 0 km/h
1992 10-04-2010 15:33:01 16.3 C 2.77 g/m*3 16.3 C 0 km/h
1993 10-04-2010 15:45:01 15.4 C 2.63 g/m*3 15.4 C 0 km/h
1994 10-04-2010 15:57:01 16.9 C 2.88 g/m*3 16.9 C 0 km/h
1995 10-04-2010 16:09:02 15.9 C 2.71 g/m*3 15.9 C 0 km/h
1996 10-04-2010 16:21:02 15.7 C 2.68 g/m*3 15.7 C 0 km/h
1997 10-04-2010 16:33:01 16.4 C 2.79 g/m*3 16.4 C 0 km/h
1998 10-04-2010 16:45:02 17.3 C 2.95 g/m*3 17.3 C 0 km/h
1999 10-04-2010 16:57:02 15.3 C 2.61 g/m*3 15.3 C 0 km/h
2000 10-04-2010 17:09:01 16.3 C 2.77 g/m*3 16.3 C 0 km/h
Sensor: Nr:Datum:Temp:Abs-Feuchte:Windchill:Wind:
Aussen-T/F 2001 10-04-2010 17:21:02 17 C 2.89 g/m*3 17 C 0 km/h
2002 10-04-2010 17:33:01 15.8 C 2.69 g/m*3 15.8 C 0 km/h
2003 10-04-2010 17:45:03 15.9 C 2.71 g/m*3 15.9 C 0 km/h
2004 10-04-2010 17:57:03 16.2 C 2.76 g/m*3 16.2 C 0 km/h
2005 10-04-2010 18:09:02 16.1 C 2.74 g/m*3 16.1 C 0 km/h
2006 10-04-2010 18:21:02 16.5 C 2.81 g/m*3 16.5 C 0 km/h
2007 10-04-2010 18:33:02 16.4 C 2.79 g/m*3 16.4 C 0 km/h
2008 10-04-2010 18:45:02 14.9 C 2.8 g/m*3 14.9 C 0 km/h
2009 10-04-2010 18:57:02 15.4 C 2.76 g/m*3 15.4 C 0 km/h
2010 10-04-2010 19:09:01 14.7 C 3.02 g/m*3 14.7 C 0 km/h
2011 10-04-2010 19:21:02 14.4 C 3.09 g/m*3 14.4 C 0 km/h
2012 10-04-2010 19:33:02 13.7 C 3.2 g/m*3 13.7 C 0 km/h
2013 10-04-2010 19:45:02 12.9 C 3.16 g/m*3 12.9 C 0 km/h
2014 10-04-2010 19:57:02 12.3 C 3.15 g/m*3 12.3 C 0 km/h
2015 10-04-2010 20:09:01 11.5 C 3.2 g/m*3 11.5 C 0 km/h
2016 10-04-2010 20:21:01 11.2 C 3.34 g/m*3 11.2 C 0 km/h
2017 10-04-2010 20:33:02 10.8 C 3.46 g/m*3 10.8 C 0 km/h
2018 10-04-2010 20:45:02 10.6 C 3.51 g/m*3 10.6 C 0 km/h
2019 10-04-2010 20:57:02 10.4 C 3.47 g/m*3 10.4 C 0 km/h
2020 10-04-2010 21:09:02 10.2 C 3.52 g/m*3 10.2 C 0 km/h
2021 10-04-2010 21:21:02 10 C 3.48 g/m*3 10 C 0 km/h
2022 10-04-2010 21:33:02 9.8 C 3.62 g/m*3 9.8 C 0 km/h
2023 10-04-2010 21:45:02 9.6 C 3.66 g/m*3 9.6 C 0 km/h
2024 10-04-2010 21:57:02 9.6 C 3.66 g/m*3 9.6 C 0 km/h
2025 10-04-2010 22:09:02 9.2 C 3.66 g/m*3 9.2 C 0 km/h
Sensor: Nr:Datum:Temp:Abs-Feuchte:Windchill:Wind:
Aussen-T/F 2026 10-04-2010 22:22:02 8.7 C 3.72 g/m*3 8.7 C 0 km/h
2027 10-04-2010 22:34:02 8.3 C 3.71 g/m*3 8.3 C 0 km/h
2028 10-04-2010 22:46:02 8 C 3.72 g/m*3 8 C 0 km/h
2029 10-04-2010 22:58:02 7.6 C 3.79 g/m*3 7.6 C 0 km/h
2030 10-04-2010 23:10:02 7.5 C 3.84 g/m*3 7.5 C 0 km/h
2031 10-04-2010 23:22:02 7.3 C 3.87 g/m*3 7.3 C 0 km/h
2032 10-04-2010 23:34:02 7.1 C 3.9 g/m*3 7.1 C 0 km/h
2033 10-04-2010 23:46:02 7.1 C 3.98 g/m*3 7.1 C 0 km/h
2034 10-04-2010 23:58:02 6.9 C 4 g/m*3 6.9 C 0 km/h
2035 11-04-2010 00:10:02 6.7 C 4.1 g/m*3 6.7 C 0 km/h
2036 11-04-2010 00:22:03 6.6 C 4.15 g/m*3 6.6 C 0 km/h
2037 11-04-2010 00:34:03 6.6 C 4.23 g/m*3 6.6 C 0 km/h
2038 11-04-2010 00:46:03 6.5 C 4.2 g/m*3 6.5 C 0 km/h
2039 11-04-2010 00:58:03 6.5 C 4.2 g/m*3 6.5 C 0 km/h
2040 11-04-2010 01:10:03 6.6 C 4.3 g/m*3 6.6 C 0 km/h
2041 11-04-2010 01:22:03 6.2 C 4.27 g/m*3 6.2 C 0 km/h
2042 11-04-2010 01:34:03 6.1 C 4.31 g/m*3 6.1 C 0 km/h
2043 11-04-2010 01:46:03 5.9 C 4.4 g/m*3 5.9 C 0 km/h
2044 11-04-2010 01:58:03 5.8 C 4.44 g/m*3 5.8 C 0 km/h
2045 11-04-2010 02:10:03 5.6 C 4.45 g/m*3 5.6 C 0 km/h
2046 11-04-2010 02:22:03 5.4 C 4.4 g/m*3 5.4 C 0 km/h
2047 11-04-2010 02:34:03 5.1 C 4.45 g/m*3 5.1 C 0 km/h
2048 11-04-2010 02:46:03 5 C 4.48 g/m*3 5 C 0 km/h
2049 11-04-2010 02:58:03 4.8 C 4.49 g/m*3 4.8 C 0 km/h
2050 11-04-2010 03:10:03 4.9 C 4.66 g/m*3 4.9 C 0 km/h
Sensor: Nr:Datum:Temp:Abs-Feuchte:Windchill:Wind:
Aussen-T/F 2051 11-04-2010 03:22:03 5 C 4.55 g/m*3 5 C 0 km/h
2052 11-04-2010 03:34:03 4.7 C 4.53 g/m*3 4.7 C 0 km/h
2053 11-04-2010 03:46:03 4.8 C 4.63 g/m*3 4.8 C 0 km/h
2054 11-04-2010 03:58:03 4.8 C 4.69 g/m*3 4.8 C 0 km/h
2055 11-04-2010 04:10:03 4.8 C 4.69 g/m*3 4.8 C 0 km/h
2056 11-04-2010 04:22:03 5 C 4.69 g/m*3 5 C 0 km/h
2057 11-04-2010 04:34:04 5 C 4.69 g/m*3 5 C 0 km/h
2058 11-04-2010 04:46:04 4.9 C 4.73 g/m*3 4.9 C 0 km/h
2059 11-04-2010 04:58:04 4.7 C 4.73 g/m*3 4.7 C 0 km/h
2060 11-04-2010 05:10:04 4.6 C 4.7 g/m*3 4.6 C 0 km/h
2061 11-04-2010 05:22:04 4.5 C 4.67 g/m*3 4.5 C 0 km/h
2062 11-04-2010 05:34:04 4.3 C 4.67 g/m*3 4.3 C 0 km/h
2063 11-04-2010 05:46:04 4.3 C 4.74 g/m*3 4.3 C 0 km/h
2064 11-04-2010 05:58:04 4.2 C 4.77 g/m*3 4.2 C 0 km/h
2065 11-04-2010 06:10:04 4.1 C 4.74 g/m*3 4.1 C 0 km/h
2066 11-04-2010 06:22:04 4.2 C 4.77 g/m*3 4.2 C 0 km/h
2067 11-04-2010 06:34:04 4.3 C 4.8 g/m*3 4.3 C 0 km/h
2068 11-04-2010 06:46:04 4.4 C 4.77 g/m*3 4.4 C 0 km/h
2069 11-04-2010 06:58:04 4.6 C 4.83 g/m*3 4.6 C 0 km/h
2070 11-04-2010 07:10:04 4.5 C 4.73 g/m*3 4.5 C 0 km/h
2071 11-04-2010 07:22:04 4.5 C 4.73 g/m*3 4.5 C 0 km/h
2072 11-04-2010 07:34:04 4.7 C 4.8 g/m*3 4.7 C 0 km/h
2073 11-04-2010 07:46:04 4.9 C 4.79 g/m*3 4.9 C 0 km/h
2074 11-04-2010 07:58:04 5.1 C 4.79 g/m*3 5.1 C 0 km/h
2075 11-04-2010 08:10:01 5.2 C 4.75 g/m*3 5.2 C 0 km/h
Sensor: Nr:Datum:Temp:Abs-Feuchte:Windchill:Wind:
Aussen-T/F 2076 11-04-2010 08:22:02 5.4 C 4.81 g/m*3 5.4 C 0 km/h
2077 11-04-2010 08:34:02 5.8 C 4.87 g/m*3 5.8 C 0 km/h
2078 11-04-2010 08:46:02 5.6 C 4.74 g/m*3 5.6 C 0 km/h
2079 11-04-2010 08:58:02 6.2 C 4.78 g/m*3 6.2 C 0 km/h
2080 11-04-2010 09:10:02 6.3 C 4.74 g/m*3 6.3 C 0 km/h
2081 11-04-2010 09:22:02 6.7 C 4.79 g/m*3 6.7 C 0 km/h
2082 11-04-2010 09:34:03 6.8 C 4.74 g/m*3 6.8 C 0 km/h
2083 11-04-2010 09:46:02 7.2 C 4.71 g/m*3 7.2 C 0 km/h
2084 11-04-2010 09:58:02 7.5 C 4.8 g/m*3 7.5 C 0 km/h
2085 11-04-2010 10:10:02 7.6 C 4.67 g/m*3 7.6 C 0 km/h
2086 11-04-2010 10:22:01 7.7 C 4.7 g/m*3 7.7 C 0 km/h
2087 11-04-2010 10:34:02 7.2 C 4.63 g/m*3 7.2 C 0 km/h
2088 11-04-2010 10:46:02 7.4 C 4.77 g/m*3 7.4 C 0 km/h
2089 11-04-2010 10:58:02 7.9 C 4.76 g/m*3 7.9 C 0 km/h
2090 11-04-2010 11:10:02 8.3 C 4.64 g/m*3 8.3 C 0 km/h
2091 11-04-2010 11:22:02 8.7 C 4.58 g/m*3 8.7 C 0 km/h
2092 11-04-2010 11:34:02 9 C 4.41 g/m*3 9 C 0 km/h
2093 11-04-2010 11:46:02 9.3 C 4.4 g/m*3 9.3 C 0 km/h
2094 11-04-2010 11:58:02 10 C 4.32 g/m*3 10 C 0 km/h
2095 11-04-2010 12:10:02 10.1 C 3.69 g/m*3 10.1 C 0 km/h
2096 11-04-2010 12:22:02 10.5 C 3.49 g/m*3 10.5 C 0 km/h
2097 11-04-2010 12:34:02 11.1 C 3.32 g/m*3 11.1 C 0 km/h
2098 11-04-2010 12:46:02 11.5 C 3.41 g/m*3 11.5 C 0 km/h
2099 11-04-2010 12:58:02 11.6 C 3.22 g/m*3 11.6 C 0 km/h
2100 11-04-2010 13:10:02 10.8 C 3.36 g/m*3 10.8 C 0 km/h
Sensor: Nr:Datum:Temp:Abs-Feuchte:Windchill:Wind:
Aussen-T/F 2101 11-04-2010 13:22:02 11.1 C 3.22 g/m*3 11.1 C 0 km/h
2102 11-04-2010 13:34:02 12.3 C 3.15 g/m*3 12.3 C 0 km/h
2103 11-04-2010 13:46:01 12.8 C 3.02 g/m*3 12.8 C 0 km/h
2104 11-04-2010 13:58:01 11.7 C 2.82 g/m*3 11.7 C 0 km/h
2105 11-04-2010 14:10:01 11.8 C 3.05 g/m*3 11.8 C 0 km/h
2106 11-04-2010 14:22:02 12.2 C 2.81 g/m*3 12.2 C 0 km/h
2107 11-04-2010 14:34:01 12.3 C 2.82 g/m*3 12.3 C 0 km/h
2108 11-04-2010 14:46:01 12 C 2.88 g/m*3 12 C 0 km/h
2109 11-04-2010 14:58:01 11.7 C 3.14 g/m*3 11.7 C 0 km/h
2110 11-04-2010 15:10:01 10.3 C 2.97 g/m*3 10.3 C 0 km/h
2111 11-04-2010 15:22:02 8.3 C 4.8 g/m*3 8.3 C 0 km/h
2112 11-04-2010 15:34:01 8.4 C 5.17 g/m*3 8.4 C 0 km/h
2113 11-04-2010 15:46:03 10.8 C 5.04 g/m*3 10.8 C 0 km/h
2114 11-04-2010 15:58:03 11.3 C 4.28 g/m*3 11.3 C 0 km/h
2115 11-04-2010 16:10:02 12.8 C 4.03 g/m*3 12.8 C 0 km/h
2116 11-04-2010 16:22:02 12.9 C 3.49 g/m*3 12.9 C 0 km/h
2117 11-04-2010 16:34:02 13.9 C 3.6 g/m*3 13.9 C 0 km/h
2118 11-04-2010 16:46:02 13.5 C 3.16 g/m*3 13.5 C 0 km/h
2119 11-04-2010 16:58:02 11.2 C 3.75 g/m*3 11.2 C 0 km/h
2120 11-04-2010 17:10:02 9.6 C 4.67 g/m*3 9.6 C 0 km/h
2121 11-04-2010 17:22:02 11.4 C 4.52 g/m*3 11.4 C 0 km/h
2122 11-04-2010 17:34:02 11.8 C 4 g/m*3 11.8 C 0 km/h
2123 11-04-2010 17:46:02 13.4 C 4.07 g/m*3 13.4 C 0 km/h
2124 11-04-2010 17:58:02 12.9 C 3.72 g/m*3 12.9 C 0 km/h
2125 11-04-2010 18:10:02 12.8 C 3.92 g/m*3 12.8 C 0 km/h
Sensor: Nr:Datum:Temp:Abs-Feuchte:Windchill:Wind:
Aussen-T/F 2126 11-04-2010 18:22:02 11.8 C 2.95 g/m*3 11.8 C 0 km/h
2127 11-04-2010 18:34:01 10.9 C 3.08 g/m*3 10.9 C 0 km/h
2128 11-04-2010 18:46:02 11.2 C 3.24 g/m*3 11.2 C 0 km/h
2129 11-04-2010 18:58:02 12.1 C 3.22 g/m*3 12.1 C 0 km/h
2130 11-04-2010 19:10:01 12.1 C 3.22 g/m*3 12.1 C 0 km/h
2131 11-04-2010 19:22:02 10.7 C 3.63 g/m*3 10.7 C 0 km/h
2132 11-04-2010 19:34:01 10.4 C 3.86 g/m*3 10.4 C 0 km/h
2133 11-04-2010 19:46:03 9.9 C 3.92 g/m*3 9.9 C 0 km/h
2134 11-04-2010 19:58:03 9.5 C 3.82 g/m*3 9.5 C 0 km/h
2135 11-04-2010 20:10:02 9.1 C 3.9 g/m*3 9.1 C 0 km/h
2136 11-04-2010 20:22:02 8.6 C 4.04 g/m*3 8.6 C 0 km/h
2137 11-04-2010 20:34:03 8.2 C 4.1 g/m*3 8.2 C 0 km/h
2138 11-04-2010 20:46:02 8 C 4.13 g/m*3 8 C 0 km/h
2139 11-04-2010 20:58:02 7.7 C 4.22 g/m*3 7.7 C 0 km/h
2140 11-04-2010 21:10:02 7.5 C 4.16 g/m*3 7.5 C 0 km/h
2141 11-04-2010 21:22:02 7.3 C 4.11 g/m*3 7.3 C 0 km/h
2142 11-04-2010 21:34:02 7.1 C 4.13 g/m*3 7.1 C 0 km/h
2143 11-04-2010 21:46:02 6.9 C 4.16 g/m*3 6.9 C 0 km/h
2144 11-04-2010 21:58:03 6.7 C 4.1 g/m*3 6.7 C 0 km/h
2145 11-04-2010 22:10:01 6.5 C 4.12 g/m*3 6.5 C 0 km/h
2146 11-04-2010 22:22:01 6.3 C 4.15 g/m*3 6.3 C 0 km/h
2147 11-04-2010 22:35:02 6.2 C 4.19 g/m*3 6.2 C 0 km/h
2148 11-04-2010 22:47:02 6.1 C 4.16 g/m*3 6.1 C 0 km/h
2149 11-04-2010 22:59:02 5.9 C 4.25 g/m*3 5.9 C 0 km/h
2150 11-04-2010 23:11:02 5.8 C 4.3 g/m*3 5.8 C 0 km/h
Sensor: Nr:Datum:Temp:Abs-Feuchte:Windchill:Wind:
Aussen-T/F 2151 11-04-2010 23:23:02 5.6 C 4.24 g/m*3 5.6 C 0 km/h
2152 11-04-2010 23:35:03 5.5 C 4.28 g/m*3 5.5 C 0 km/h
2153 11-04-2010 23:47:03 5.4 C 4.33 g/m*3 5.4 C 0 km/h
2154 11-04-2010 23:59:03 5.2 C 4.27 g/m*3 5.2 C 0 km/h
2155 12-04-2010 00:11:03 5.2 C 4.27 g/m*3 5.2 C 0 km/h
2156 12-04-2010 00:23:03 5.1 C 4.31 g/m*3 5.1 C 0 km/h
2157 12-04-2010 00:35:03 5.1 C 4.38 g/m*3 5.1 C 0 km/h
2158 12-04-2010 00:47:03 5 C 4.42 g/m*3 5 C 0 km/h
2159 12-04-2010 00:59:03 4.8 C 4.43 g/m*3 4.8 C 0 km/h
2160 12-04-2010 01:11:03 4.8 C 4.56 g/m*3 4.8 C 0 km/h
2161 12-04-2010 01:23:03 5.1 C 4.65 g/m*3 5.1 C 0 km/h
2162 12-04-2010 01:35:03 5.3 C 4.64 g/m*3 5.3 C 0 km/h
2163 12-04-2010 01:47:03 5.5 C 4.71 g/m*3 5.5 C 0 km/h
2164 12-04-2010 01:59:03 5.5 C 4.64 g/m*3 5.5 C 0 km/h
2165 12-04-2010 02:11:03 5.2 C 4.54 g/m*3 5.2 C 0 km/h
2166 12-04-2010 02:23:03 5.1 C 4.51 g/m*3 5.1 C 0 km/h
2167 12-04-2010 02:35:03 5.2 C 4.54 g/m*3 5.2 C 0 km/h
2168 12-04-2010 02:47:03 5.4 C 4.6 g/m*3 5.4 C 0 km/h
2169 12-04-2010 02:59:03 5.5 C 4.57 g/m*3 5.5 C 0 km/h
2170 12-04-2010 03:11:03 5.7 C 4.48 g/m*3 5.7 C 0 km/h
2171 12-04-2010 03:23:03 5.8 C 4.51 g/m*3 5.8 C 0 km/h
2172 12-04-2010 03:35:04 5.6 C 4.45 g/m*3 5.6 C 0 km/h
2173 12-04-2010 03:47:04 5.4 C 4.33 g/m*3 5.4 C 0 km/h
2174 12-04-2010 03:59:04 5.4 C 4.33 g/m*3 5.4 C 0 km/h
2175 12-04-2010 04:11:04 5.5 C 4.35 g/m*3 5.5 C 0 km/h
Sensor: Nr:Datum:Temp:Abs-Feuchte:Windchill:Wind:
Aussen-T/F 2176 12-04-2010 04:23:04 5.6 C 4.38 g/m*3 5.6 C 0 km/h
2177 12-04-2010 04:35:04 5.7 C 4.41 g/m*3 5.7 C 0 km/h
2178 12-04-2010 04:47:04 5.7 C 4.41 g/m*3 5.7 C 0 km/h
2179 12-04-2010 04:59:04 5.7 C 4.48 g/m*3 5.7 C 0 km/h
2180 12-04-2010 05:11:04 5.7 C 4.48 g/m*3 5.7 C 0 km/h
2181 12-04-2010 05:23:04 5.6 C 4.6 g/m*3 5.6 C 0 km/h
2182 12-04-2010 05:35:04 5.6 C 4.67 g/m*3 5.6 C 0 km/h
2183 12-04-2010 05:47:04 5.7 C 4.63 g/m*3 5.7 C 0 km/h
2184 12-04-2010 05:59:04 5.6 C 4.67 g/m*3 5.6 C 0 km/h
2185 12-04-2010 06:11:04 5.6 C 4.67 g/m*3 5.6 C 0 km/h
2186 12-04-2010 06:23:04 5.7 C 4.7 g/m*3 5.7 C 0 km/h
2187 12-04-2010 06:35:04 5.7 C 4.7 g/m*3 5.7 C 0 km/h
2188 12-04-2010 06:47:04 5.7 C 4.7 g/m*3 5.7 C 0 km/h
2189 12-04-2010 06:59:04 5.7 C 4.7 g/m*3 5.7 C 0 km/h
2190 12-04-2010 07:11:03 5.8 C 4.8 g/m*3 5.8 C 0 km/h
2191 12-04-2010 07:23:02 5.8 C 4.8 g/m*3 5.8 C 0 km/h
2192 12-04-2010 07:35:03 5.9 C 4.83 g/m*3 5.9 C 0 km/h
2193 12-04-2010 07:47:02 5.9 C 4.83 g/m*3 5.9 C 0 km/h
2194 12-04-2010 07:59:02 6.1 C 4.82 g/m*3 6.1 C 0 km/h
2195 12-04-2010 08:11:01 6.3 C 4.81 g/m*3 6.3 C 0 km/h
2196 12-04-2010 08:23:02 6.4 C 4.92 g/m*3 6.4 C 0 km/h
2197 12-04-2010 08:35:02 6.7 C 4.94 g/m*3 6.7 C 0 km/h
2198 12-04-2010 08:47:02 7 C 4.88 g/m*3 7 C 0 km/h
2199 12-04-2010 08:59:02 7.4 C 4.93 g/m*3 7.4 C 0 km/h
2200 12-04-2010 09:11:02 7.5 C 4.96 g/m*3 7.5 C 0 km/h
Sensor: Nr:Datum:Temp:Abs-Feuchte:Windchill:Wind:
Aussen-T/F 2201 12-04-2010 09:23:02 7.4 C 5.01 g/m*3 7.4 C 0 km/h
2202 12-04-2010 09:35:02 7.3 C 5.06 g/m*3 7.3 C 0 km/h
2203 12-04-2010 09:47:02 7.5 C 5.12 g/m*3 7.5 C 0 km/h
2204 12-04-2010 09:59:02 7.4 C 5.09 g/m*3 7.4 C 0 km/h
2205 12-04-2010 10:11:02 7.5 C 5.04 g/m*3 7.5 C 0 km/h
2206 12-04-2010 10:23:02 7.6 C 5.16 g/m*3 7.6 C 0 km/h
2207 12-04-2010 10:35:02 7.8 C 5.22 g/m*3 7.8 C 0 km/h
2208 12-04-2010 10:47:01 7.9 C 5.26 g/m*3 7.9 C 0 km/h
2209 12-04-2010 10:59:01 8.3 C 5.23 g/m*3 8.3 C 0 km/h
2210 12-04-2010 11:11:01 9 C 5.2 g/m*3 9 C 0 km/h
2211 12-04-2010 11:23:01 9.6 C 5.04 g/m*3 9.6 C 0 km/h
2212 12-04-2010 11:35:01 9.3 C 5.03 g/m*3 9.3 C 0 km/h
2213 12-04-2010 11:47:02 10.5 C 4.85 g/m*3 10.5 C 0 km/h
2214 12-04-2010 11:59:02 10.7 C 4.91 g/m*3 10.7 C 0 km/h
2215 12-04-2010 12:11:02 10.5 C 4.95 g/m*3 10.5 C 0 km/h
2216 12-04-2010 12:23:03 9.9 C 4.95 g/m*3 9.9 C 0 km/h
2217 12-04-2010 12:35:02 9.6 C 5.5 g/m*3 9.6 C 0 km/h
2218 12-04-2010 12:47:03 10.2 C 5.61 g/m*3 10.2 C 0 km/h
2219 12-04-2010 12:59:03 11.8 C 5.58 g/m*3 11.8 C 0 km/h
2220 12-04-2010 13:11:02 11.7 C 4.92 g/m*3 11.7 C 0 km/h
2221 12-04-2010 13:23:02 11.5 C 4.85 g/m*3 11.5 C 0 km/h
2222 12-04-2010 13:35:02 11.8 C 4.74 g/m*3 11.8 C 0 km/h
2223 12-04-2010 13:47:02 11.5 C 4.65 g/m*3 11.5 C 0 km/h
2224 12-04-2010 13:59:02 12 C 4.58 g/m*3 12 C 0 km/h
2225 12-04-2010 14:11:02 11.7 C 4.5 g/m*3 11.7 C 0 km/h
Sensor: Nr:Datum:Temp:Abs-Feuchte:Windchill:Wind:
Aussen-T/F 2226 12-04-2010 14:23:02 9.4 C 5.43 g/m*3 9.4 C 0 km/h
2227 12-04-2010 14:35:01 8.2 C 5.78 g/m*3 8.2 C 0 km/h
2228 12-04-2010 14:47:02 7.8 C 6.12 g/m*3 7.8 C 0 km/h
2229 12-04-2010 14:59:02 8 C 6.37 g/m*3 8 C 0 km/h
2230 12-04-2010 15:11:01 8.7 C 6.4 g/m*3 8.7 C 0 km/h
2231 12-04-2010 15:23:02 9.2 C 6.34 g/m*3 9.2 C 0 km/h
2232 12-04-2010 15:35:02 9.4 C 6.15 g/m*3 9.4 C 0 km/h
2233 12-04-2010 15:47:02 9.3 C 5.75 g/m*3 9.3 C 0 km/h
2234 12-04-2010 15:59:03 9.2 C 5.71 g/m*3 9.2 C 0 km/h
2235 12-04-2010 16:11:02 9.3 C 5.84 g/m*3 9.3 C 0 km/h
2236 12-04-2010 16:23:02 9.4 C 5.79 g/m*3 9.4 C 0 km/h
2237 12-04-2010 16:35:02 9.4 C 5.61 g/m*3 9.4 C 0 km/h
2238 12-04-2010 16:47:02 9.3 C 5.66 g/m*3 9.3 C 0 km/h
2239 12-04-2010 16:59:02 9.3 C 5.57 g/m*3 9.3 C 0 km/h
2240 12-04-2010 17:11:01 9.3 C 5.48 g/m*3 9.3 C 0 km/h
2241 12-04-2010 17:23:01 9.3 C 5.57 g/m*3 9.3 C 0 km/h
2242 12-04-2010 17:35:02 8.9 C 5.78 g/m*3 8.9 C 0 km/h
2243 12-04-2010 17:47:02 8.5 C 5.89 g/m*3 8.5 C 0 km/h
2244 12-04-2010 17:59:02 8.3 C 5.98 g/m*3 8.3 C 0 km/h
2245 12-04-2010 18:11:02 8.1 C 5.99 g/m*3 8.1 C 0 km/h
2246 12-04-2010 18:23:02 8 C 6.04 g/m*3 8 C 0 km/h
2247 12-04-2010 18:35:02 8.1 C 6.07 g/m*3 8.1 C 0 km/h
2248 12-04-2010 18:47:02 8.1 C 5.99 g/m*3 8.1 C 0 km/h
2249 12-04-2010 18:59:02 8.1 C 5.99 g/m*3 8.1 C 0 km/h
2250 12-04-2010 19:11:03 8 C 6.04 g/m*3 8 C 0 km/h
Sensor: Nr:Datum:Temp:Abs-Feuchte:Windchill:Wind:
Aussen-T/F 2251 12-04-2010 19:23:02 7.8 C 6.28 g/m*3 7.8 C 0 km/h
2252 12-04-2010 19:35:02 7.5 C 6.32 g/m*3 7.5 C 0 km/h
2253 12-04-2010 19:47:01 7.3 C 6.4 g/m*3 7.3 C 0 km/h
2254 12-04-2010 19:59:01 7.3 C 6.48 g/m*3 7.3 C 0 km/h
2255 12-04-2010 20:11:02 7.4 C 6.6 g/m*3 7.4 C 0 km/h
2256 12-04-2010 20:23:01 7.3 C 6.64 g/m*3 7.3 C 0 km/h
2257 12-04-2010 20:35:01 7.3 C 6.64 g/m*3 7.3 C 0 km/h
2258 12-04-2010 20:47:01 7.3 C 6.64 g/m*3 7.3 C 0 km/h
2259 12-04-2010 20:59:01 7.1 C 6.55 g/m*3 7.1 C 0 km/h
2260 12-04-2010 21:11:02 7.2 C 6.67 g/m*3 7.2 C 0 km/h
2261 12-04-2010 21:23:01 7.3 C 6.72 g/m*3 7.3 C 0 km/h
2262 12-04-2010 21:35:02 7.3 C 6.72 g/m*3 7.3 C 0 km/h
2263 12-04-2010 21:47:01 7.3 C 6.72 g/m*3 7.3 C 0 km/h
2264 12-04-2010 21:59:01 7.4 C 6.68 g/m*3 7.4 C 0 km/h
2265 12-04-2010 22:11:02 7.4 C 6.68 g/m*3 7.4 C 0 km/h
2266 12-04-2010 22:24:04 7.3 C 6.64 g/m*3 7.3 C 0 km/h
2267 12-04-2010 22:36:04 7.1 C 6.55 g/m*3 7.1 C 0 km/h
2268 12-04-2010 22:48:04 6.8 C 6.42 g/m*3 6.8 C 0 km/h
2269 12-04-2010 23:00:04 6.9 C 6.54 g/m*3 6.9 C 0 km/h
2270 12-04-2010 23:12:04 7 C 6.51 g/m*3 7 C 0 km/h
2271 12-04-2010 23:24:04 7.2 C 6.59 g/m*3 7.2 C 0 km/h
2272 12-04-2010 23:36:04 7.1 C 6.47 g/m*3 7.1 C 0 km/h
2273 12-04-2010 23:48:04 7 C 6.35 g/m*3 7 C 0 km/h
2274 13-04-2010 00:00:04 7.1 C 6.4 g/m*3 7.1 C 0 km/h
2275 13-04-2010 00:12:04 7.2 C 6.36 g/m*3 7.2 C 0 km/h
Sensor: Nr:Datum:Temp:Abs-Feuchte:Windchill:Wind:
Aussen-T/F 2276 13-04-2010 00:24:04 7.2 C 6.36 g/m*3 7.2 C 0 km/h
2277 13-04-2010 00:36:04 7.2 C 6.36 g/m*3 7.2 C 0 km/h
2278 13-04-2010 00:48:04 7.3 C 6.4 g/m*3 7.3 C 0 km/h
2279 13-04-2010 01:00:04 7.3 C 6.4 g/m*3 7.3 C 0 km/h
2280 13-04-2010 01:12:04 7 C 6.35 g/m*3 7 C 0 km/h
2281 13-04-2010 01:24:04 6.9 C 6.54 g/m*3 6.9 C 0 km/h
2282 13-04-2010 01:36:04 6.8 C 6.65 g/m*3 6.8 C 0 km/h
2283 13-04-2010 01:48:04 6.9 C 6.77 g/m*3 6.9 C 0 km/h
2284 13-04-2010 02:00:04 6.8 C 6.81 g/m*3 6.8 C 0 km/h
2285 13-04-2010 02:12:05 6.9 C 6.93 g/m*3 6.9 C 0 km/h
2286 13-04-2010 02:24:05 6.9 C 7.01 g/m*3 6.9 C 0 km/h
2287 13-04-2010 02:36:05 6.9 C 7.08 g/m*3 6.9 C 0 km/h
2288 13-04-2010 02:48:05 6.9 C 7.08 g/m*3 6.9 C 0 km/h
2289 13-04-2010 03:00:05 6.9 C 7.08 g/m*3 6.9 C 0 km/h
2290 13-04-2010 03:12:05 7 C 7.05 g/m*3 7 C 0 km/h
2291 13-04-2010 03:24:05 7 C 7.13 g/m*3 7 C 0 km/h
2292 13-04-2010 03:36:05 6.9 C 7.08 g/m*3 6.9 C 0 km/h
2293 13-04-2010 03:48:05 6.9 C 7.08 g/m*3 6.9 C 0 km/h
2294 13-04-2010 04:00:05 6.9 C 7.08 g/m*3 6.9 C 0 km/h
2295 13-04-2010 04:12:05 6.9 C 7.16 g/m*3 6.9 C 0 km/h
2296 13-04-2010 04:24:05 6.9 C 7.16 g/m*3 6.9 C 0 km/h
2297 13-04-2010 04:36:05 6.9 C 7.16 g/m*3 6.9 C 0 km/h
2298 13-04-2010 04:48:05 6.8 C 7.11 g/m*3 6.8 C 0 km/h
2299 13-04-2010 05:00:05 6.9 C 7.16 g/m*3 6.9 C 0 km/h
2300 13-04-2010 05:12:05 7 C 7.21 g/m*3 7 C 0 km/h
Sensor: Nr:Datum:Temp:Abs-Feuchte:Windchill:Wind:
Aussen-T/F 2301 13-04-2010 05:24:05 7 C 7.21 g/m*3 7 C 0 km/h
2302 13-04-2010 05:36:05 6.9 C 7.16 g/m*3 6.9 C 0 km/h
2303 13-04-2010 05:48:05 6.9 C 7.16 g/m*3 6.9 C 0 km/h
2304 13-04-2010 06:00:05 7 C 7.13 g/m*3 7 C 0 km/h
2305 13-04-2010 06:12:05 6.9 C 7.16 g/m*3 6.9 C 0 km/h
2306 13-04-2010 06:24:05 7 C 7.05 g/m*3 7 C 0 km/h
2307 13-04-2010 06:36:06 7 C 7.05 g/m*3 7 C 0 km/h
2308 13-04-2010 06:48:06 7 C 6.97 g/m*3 7 C 0 km/h
2309 13-04-2010 07:00:06 7 C 6.9 g/m*3 7 C 0 km/h
2310 13-04-2010 07:12:03 6.8 C 6.81 g/m*3 6.8 C 0 km/h
2311 13-04-2010 07:24:03 6.6 C 6.64 g/m*3 6.6 C 0 km/h
2312 13-04-2010 07:36:03 6.5 C 6.6 g/m*3 6.5 C 0 km/h
2313 13-04-2010 07:48:02 6.5 C 6.6 g/m*3 6.5 C 0 km/h
2314 13-04-2010 08:00:02 6.6 C 6.57 g/m*3 6.6 C 0 km/h
2315 13-04-2010 08:12:02 6.7 C 6.61 g/m*3 6.7 C 0 km/h
2316 13-04-2010 08:24:02 7 C 6.66 g/m*3 7 C 0 km/h
2317 13-04-2010 08:36:02 7.3 C 6.64 g/m*3 7.3 C 0 km/h
2318 13-04-2010 08:48:02 7.5 C 6.64 g/m*3 7.5 C 0 km/h
2319 13-04-2010 09:00:02 7.8 C 6.61 g/m*3 7.8 C 0 km/h
2320 13-04-2010 09:12:02 8.1 C 6.49 g/m*3 8.1 C 0 km/h
2321 13-04-2010 09:24:03 8.2 C 6.53 g/m*3 8.2 C 0 km/h
2322 13-04-2010 09:36:02 8.6 C 6.62 g/m*3 8.6 C 0 km/h
2323 13-04-2010 09:48:02 9 C 6.61 g/m*3 9 C 0 km/h
2324 13-04-2010 10:00:02 9.4 C 6.69 g/m*3 9.4 C 0 km/h
2325 13-04-2010 10:12:02 10.2 C 6.28 g/m*3 10.2 C 0 km/h
Sensor: Nr:Datum:Temp:Abs-Feuchte:Windchill:Wind:
Aussen-T/F 2326 13-04-2010 10:24:02 10.7 C 6.38 g/m*3 10.7 C 0 km/h
2327 13-04-2010 10:36:02 11.2 C 6.18 g/m*3 11.2 C 0 km/h
2328 13-04-2010 10:48:01 11.7 C 6.28 g/m*3 11.7 C 0 km/h
2329 13-04-2010 11:00:01 12.2 C 6.15 g/m*3 12.2 C 0 km/h
2330 13-04-2010 11:12:02 13.2 C 6.32 g/m*3 13.2 C 0 km/h
2331 13-04-2010 11:24:02 13.8 C 6.2 g/m*3 13.8 C 0 km/h
2332 13-04-2010 11:36:02 14.1 C 5.58 g/m*3 14.1 C 0 km/h
2333 13-04-2010 11:48:02 15 C 5.39 g/m*3 15 C 0 km/h
2334 13-04-2010 12:00:02 15 C 4.74 g/m*3 15 C 0 km/h
2335 13-04-2010 12:12:02 15 C 4.62 g/m*3 15 C 0 km/h
2336 13-04-2010 12:24:02 15.8 C 4.85 g/m*3 15.8 C 0 km/h
2337 13-04-2010 12:36:01 15.7 C 4.55 g/m*3 15.7 C 0 km/h
2338 13-04-2010 12:48:02 15.3 C 4.57 g/m*3 15.3 C 0 km/h
2339 13-04-2010 13:00:02 16.6 C 4.8 g/m*3 16.6 C 0 km/h
2340 13-04-2010 13:12:01 16.4 C 4.61 g/m*3 16.4 C 0 km/h
2341 13-04-2010 13:24:01 16.8 C 4.43 g/m*3 16.8 C 0 km/h
2342 13-04-2010 13:36:02 17.5 C 4.32 g/m*3 17.5 C 0 km/h
2343 13-04-2010 13:48:02 17.8 C 4.1 g/m*3 17.8 C 0 km/h
2344 13-04-2010 14:00:02 17.6 C 3.9 g/m*3 17.6 C 0 km/h
2345 13-04-2010 14:12:02 17.9 C 3.97 g/m*3 17.9 C 0 km/h
2346 13-04-2010 14:24:02 17.7 C 3.92 g/m*3 17.7 C 0 km/h
2347 13-04-2010 14:36:02 17.5 C 4.03 g/m*3 17.5 C 0 km/h
2348 13-04-2010 14:48:02 17.8 C 3.95 g/m*3 17.8 C 0 km/h
2349 13-04-2010 15:00:02 17.9 C 4.12 g/m*3 17.9 C 0 km/h
2350 13-04-2010 15:12:01 17.8 C 3.79 g/m*3 17.8 C 0 km/h
Sensor: Nr:Datum:Temp:Abs-Feuchte:Windchill:Wind:
Aussen-T/F 2351 13-04-2010 15:24:01 17.1 C 4.08 g/m*3 17.1 C 0 km/h
2352 13-04-2010 15:36:02 17.5 C 4.17 g/m*3 17.5 C 0 km/h
2353 13-04-2010 15:48:02 19.1 C 4.1 g/m*3 19.1 C 0 km/h
2354 13-04-2010 16:00:02 19.7 C 3.74 g/m*3 19.7 C 0 km/h
2355 13-04-2010 16:12:02 19.5 C 3.52 g/m*3 19.5 C 0 km/h
2356 13-04-2010 16:24:01 18.6 C 3.34 g/m*3 18.6 C 0 km/h
2357 13-04-2010 16:36:02 18.2 C 3.42 g/m*3 18.2 C 0 km/h
2358 13-04-2010 16:48:02 18.8 C 3.7 g/m*3 18.8 C 0 km/h
2359 13-04-2010 17:00:02 18.9 C 3.73 g/m*3 18.9 C 0 km/h
2360 13-04-2010 17:12:02 18.8 C 3.87 g/m*3 18.8 C 0 km/h
2361 13-04-2010 17:24:02 19 C 3.59 g/m*3 19 C 0 km/h
2362 13-04-2010 17:36:02 18.6 C 3.82 g/m*3 18.6 C 0 km/h
2363 13-04-2010 17:48:02 18.1 C 3.86 g/m*3 18.1 C 0 km/h
2364 13-04-2010 18:00:02 17.5 C 3.73 g/m*3 17.5 C 0 km/h
2365 13-04-2010 18:12:02 17.3 C 3.83 g/m*3 17.3 C 0 km/h
2366 13-04-2010 18:24:02 17.1 C 3.78 g/m*3 17.1 C 0 km/h
2367 13-04-2010 18:36:02 16.7 C 3.84 g/m*3 16.7 C 0 km/h
2368 13-04-2010 18:48:02 16.3 C 4.16 g/m*3 16.3 C 0 km/h
2369 13-04-2010 19:00:02 16 C 4.36 g/m*3 16 C 0 km/h
2370 13-04-2010 19:12:02 15.7 C 4.28 g/m*3 15.7 C 0 km/h
2371 13-04-2010 19:24:02 15.4 C 4.47 g/m*3 15.4 C 0 km/h
2372 13-04-2010 19:36:02 15.1 C 4.52 g/m*3 15.1 C 0 km/h
2373 13-04-2010 19:48:01 14.8 C 4.69 g/m*3 14.8 C 0 km/h
2374 13-04-2010 20:00:01 14.6 C 4.76 g/m*3 14.6 C 0 km/h
2375 13-04-2010 20:12:02 14.5 C 4.85 g/m*3 14.5 C 0 km/h
Sensor: Nr:Datum:Temp:Abs-Feuchte:Windchill:Wind:
Aussen-T/F 2376 13-04-2010 20:24:02 14.3 C 4.91 g/m*3 14.3 C 0 km/h
2377 13-04-2010 20:36:02 14.1 C 5.1 g/m*3 14.1 C 0 km/h
2378 13-04-2010 20:48:01 13.9 C 5.15 g/m*3 13.9 C 0 km/h
2379 13-04-2010 21:00:01 13.6 C 5.18 g/m*3 13.6 C 0 km/h
2380 13-04-2010 21:12:02 13.4 C 5.11 g/m*3 13.4 C 0 km/h
2381 13-04-2010 21:24:02 13.3 C 4.97 g/m*3 13.3 C 0 km/h
2382 13-04-2010 21:36:02 13.2 C 4.94 g/m*3 13.2 C 0 km/h
2383 13-04-2010 21:48:02 12.8 C 5.04 g/m*3 12.8 C 0 km/h
2384 13-04-2010 22:00:02 12.5 C 5.06 g/m*3 12.5 C 0 km/h
2385 13-04-2010 22:12:02 12.3 C 5.1 g/m*3 12.3 C 0 km/h
2386 13-04-2010 22:24:02 12.1 C 5.04 g/m*3 12.1 C 0 km/h
2387 13-04-2010 22:36:02 11.9 C 5.08 g/m*3 11.9 C 0 km/h
2388 13-04-2010 22:48:02 11.9 C 5.08 g/m*3 11.9 C 0 km/h
2389 13-04-2010 23:00:02 11.8 C 5.05 g/m*3 11.8 C 0 km/h
2390 13-04-2010 23:12:02 11.8 C 5.16 g/m*3 11.8 C 0 km/h
2391 13-04-2010 23:24:02 11.8 C 5.26 g/m*3 11.8 C 0 km/h
2392 13-04-2010 23:36:02 11.6 C 5.2 g/m*3 11.6 C 0 km/h
2393 13-04-2010 23:48:02 11.7 C 5.33 g/m*3 11.7 C 0 km/h
2394 14-04-2010 00:00:02 11.6 C 5.2 g/m*3 11.6 C 0 km/h
2395 14-04-2010 00:12:02 11.5 C 5.16 g/m*3 11.5 C 0 km/h
2396 14-04-2010 00:24:02 11.3 C 5.2 g/m*3 11.3 C 0 km/h
2397 14-04-2010 00:36:02 11.4 C 5.23 g/m*3 11.4 C 0 km/h
2398 14-04-2010 00:48:02 11.2 C 5.17 g/m*3 11.2 C 0 km/h
2399 14-04-2010 01:00:02 11.1 C 5.14 g/m*3 11.1 C 0 km/h
2400 14-04-2010 01:12:02 11 C 5.2 g/m*3 11 C 0 km/h
Sensor: Nr:Datum:Temp:Abs-Feuchte:Windchill:Wind:
Aussen-T/F 2401 14-04-2010 01:24:03 11 C 5 g/m*3 11 C 0 km/h
2402 14-04-2010 01:36:02 10.9 C 5.17 g/m*3 10.9 C 0 km/h
2403 14-04-2010 01:48:03 10.9 C 5.07 g/m*3 10.9 C 0 km/h
2404 14-04-2010 02:00:03 10.7 C 5.01 g/m*3 10.7 C 0 km/h
2405 14-04-2010 02:12:02 10.7 C 5.01 g/m*3 10.7 C 0 km/h
2406 14-04-2010 02:24:03 10.6 C 5.08 g/m*3 10.6 C 0 km/h
2407 14-04-2010 02:36:02 10.4 C 5.11 g/m*3 10.4 C 0 km/h
2408 14-04-2010 02:48:02 10.1 C 5.01 g/m*3 10.1 C 0 km/h
2409 14-04-2010 03:00:02 9.8 C 5.1 g/m*3 9.8 C 0 km/h
2410 14-04-2010 03:12:01 9.5 C 5.01 g/m*3 9.5 C 0 km/h
2411 14-04-2010 03:24:01 9.3 C 5.03 g/m*3 9.3 C 0 km/h
2412 14-04-2010 03:36:01 9 C 5.03 g/m*3 9 C 0 km/h
2413 14-04-2010 03:48:01 8.8 C 5.05 g/m*3 8.8 C 0 km/h
2414 14-04-2010 04:00:01 8.8 C 5.14 g/m*3 8.8 C 0 km/h
2415 14-04-2010 04:12:01 8.5 C 5.12 g/m*3 8.5 C 0 km/h
2416 14-04-2010 04:24:02 8.3 C 5.23 g/m*3 8.3 C 0 km/h
2417 14-04-2010 04:36:01 8.3 C 5.23 g/m*3 8.3 C 0 km/h
2418 14-04-2010 04:48:01 8.4 C 5.26 g/m*3 8.4 C 0 km/h
2419 14-04-2010 05:00:01 8.5 C 5.29 g/m*3 8.5 C 0 km/h
2420 14-04-2010 05:12:01 8.4 C 5.34 g/m*3 8.4 C 0 km/h
2421 14-04-2010 05:24:02 8.3 C 5.31 g/m*3 8.3 C 0 km/h
2422 14-04-2010 05:36:01 8.1 C 5.33 g/m*3 8.1 C 0 km/h
2423 14-04-2010 05:48:02 7.8 C 5.3 g/m*3 7.8 C 0 km/h
2424 14-04-2010 06:00:02 7.8 C 5.3 g/m*3 7.8 C 0 km/h
2425 14-04-2010 06:12:01 7.9 C 5.26 g/m*3 7.9 C 0 km/h
Sensor: Nr:Datum:Temp:Abs-Feuchte:Windchill:Wind:
Aussen-T/F 2426 14-04-2010 06:24:02 7.7 C 5.11 g/m*3 7.7 C 0 km/h
2427 14-04-2010 06:36:01 7.4 C 5.01 g/m*3 7.4 C 0 km/h
2428 14-04-2010 06:48:02 7.1 C 4.99 g/m*3 7.1 C 0 km/h
2429 14-04-2010 07:00:02 7 C 4.96 g/m*3 7 C 0 km/h
2430 14-04-2010 07:12:01 6.9 C 5 g/m*3 6.9 C 0 km/h
2431 14-04-2010 07:24:01 6.8 C 5.05 g/m*3 6.8 C 0 km/h
2432 14-04-2010 07:36:02 7.2 C 5.18 g/m*3 7.2 C 0 km/h
2433 14-04-2010 07:48:01 7.5 C 5.2 g/m*3 7.5 C 0 km/h
2434 14-04-2010 08:00:01 7.5 C 5.2 g/m*3 7.5 C 0 km/h
2435 14-04-2010 08:12:01 7.6 C 5.32 g/m*3 7.6 C 0 km/h
2436 14-04-2010 08:24:01 7.8 C 5.39 g/m*3 7.8 C 0 km/h
2437 14-04-2010 08:36:02 8 C 5.21 g/m*3 8 C 0 km/h
2438 14-04-2010 08:48:02 8.2 C 5.11 g/m*3 8.2 C 0 km/h
2439 14-04-2010 09:00:02 8.4 C 5.17 g/m*3 8.4 C 0 km/h
2440 14-04-2010 09:12:01 8.4 C 5.09 g/m*3 8.4 C 0 km/h
2441 14-04-2010 09:24:01 8.6 C 5.16 g/m*3 8.6 C 0 km/h
2442 14-04-2010 09:36:02 9.1 C 5.15 g/m*3 9.1 C 0 km/h
2443 14-04-2010 09:48:01 9.5 C 5.19 g/m*3 9.5 C 0 km/h
2444 14-04-2010 10:00:01 9.9 C 5.14 g/m*3 9.9 C 0 km/h
2445 14-04-2010 10:12:01 10.5 C 5.14 g/m*3 10.5 C 0 km/h
2446 14-04-2010 10:24:01 11 C 5 g/m*3 11 C 0 km/h
2447 14-04-2010 10:36:02 11.5 C 5.16 g/m*3 11.5 C 0 km/h
2448 14-04-2010 10:48:01 11.7 C 4.81 g/m*3 11.7 C 0 km/h
2449 14-04-2010 11:00:01 11.9 C 4.87 g/m*3 11.9 C 0 km/h
2450 14-04-2010 11:12:02 12.8 C 4.93 g/m*3 12.8 C 0 km/h
Sensor: Nr:Datum:Temp:Abs-Feuchte:Windchill:Wind:
Aussen-T/F 2451 14-04-2010 11:24:01 13.1 C 4.68 g/m*3 13.1 C 0 km/h
2452 14-04-2010 11:36:01 13.5 C 4.91 g/m*3 13.5 C 0 km/h
2453 14-04-2010 11:48:01 14.1 C 4.85 g/m*3 14.1 C 0 km/h
2454 14-04-2010 12:00:01 13.8 C 4.65 g/m*3 13.8 C 0 km/h
2455 14-04-2010 12:12:02 13.4 C 4.65 g/m*3 13.4 C 0 km/h
2456 14-04-2010 12:24:01 13.6 C 4.59 g/m*3 13.6 C 0 km/h
2457 14-04-2010 12:36:01 13.7 C 4.74 g/m*3 13.7 C 0 km/h
2458 14-04-2010 12:48:01 14.9 C 4.72 g/m*3 14.9 C 0 km/h
2459 14-04-2010 13:00:01 14.4 C 4.33 g/m*3 14.4 C 0 km/h
2460 14-04-2010 13:12:02 14.5 C 3.98 g/m*3 14.5 C 0 km/h
2461 14-04-2010 13:24:01 13.5 C 4.09 g/m*3 13.5 C 0 km/h
2462 14-04-2010 13:36:01 14.4 C 3.96 g/m*3 14.4 C 0 km/h
2463 14-04-2010 13:48:01 14.3 C 3.81 g/m*3 14.3 C 0 km/h
2464 14-04-2010 14:00:01 13.7 C 4.03 g/m*3 13.7 C 0 km/h
2465 14-04-2010 14:12:01 14.5 C 3.86 g/m*3 14.5 C 0 km/h
2466 14-04-2010 14:24:01 14 C 3.74 g/m*3 14 C 0 km/h
2467 14-04-2010 14:36:01 13.5 C 3.98 g/m*3 13.5 C 0 km/h
2468 14-04-2010 14:48:01 13.7 C 4.14 g/m*3 13.7 C 0 km/h
2469 14-04-2010 15:00:01 14.3 C 3.69 g/m*3 14.3 C 0 km/h
2470 14-04-2010 15:12:01 15.8 C 3.37 g/m*3 15.8 C 0 km/h
2471 14-04-2010 15:24:02 15.1 C 2.58 g/m*3 15.1 C 0 km/h
2472 14-04-2010 15:36:01 14.8 C 2.53 g/m*3 14.8 C 0 km/h
2473 14-04-2010 15:48:02 14.4 C 2.47 g/m*3 14.4 C 0 km/h
2474 14-04-2010 16:00:02 16 C 4.22 g/m*3 16 C 0 km/h
2475 14-04-2010 16:12:01 16.2 C 3.45 g/m*3 16.2 C 0 km/h
Sensor: Nr:Datum:Temp:Abs-Feuchte:Windchill:Wind:
Aussen-T/F 2476 14-04-2010 16:24:02 16.3 C 2.77 g/m*3 16.3 C 0 km/h
2477 14-04-2010 16:36:01 18.5 C 3.16 g/m*3 18.5 C 0 km/h
2478 14-04-2010 16:48:02 17.2 C 2.93 g/m*3 17.2 C 0 km/h
2479 14-04-2010 17:00:02 16.3 C 2.77 g/m*3 16.3 C 0 km/h
2480 14-04-2010 17:12:01 17.2 C 2.93 g/m*3 17.2 C 0 km/h
2481 14-04-2010 17:24:01 18.1 C 3.09 g/m*3 18.1 C 0 km/h
2482 14-04-2010 17:36:01 17.2 C 2.93 g/m*3 17.2 C 0 km/h
2483 14-04-2010 17:48:02 16.7 C 2.84 g/m*3 16.7 C 0 km/h
2484 14-04-2010 18:00:02 16.8 C 2.86 g/m*3 16.8 C 0 km/h
2485 14-04-2010 18:12:01 18.1 C 3.09 g/m*3 18.1 C 0 km/h
2486 14-04-2010 18:24:01 18.9 C 3.24 g/m*3 18.9 C 0 km/h
2487 14-04-2010 18:36:02 17.3 C 2.95 g/m*3 17.3 C 0 km/h
2488 14-04-2010 18:48:02 15.6 C 2.66 g/m*3 15.6 C 0 km/h
2489 14-04-2010 19:00:02 15.8 C 2.96 g/m*3 15.8 C 0 km/h
2490 14-04-2010 19:12:01 15.3 C 2.74 g/m*3 15.3 C 0 km/h
2491 14-04-2010 19:24:01 14.7 C 3.15 g/m*3 14.7 C 0 km/h
2492 14-04-2010 19:36:02 14.3 C 3.07 g/m*3 14.3 C 0 km/h
2493 14-04-2010 19:48:01 14 C 3.26 g/m*3 14 C 0 km/h
2494 14-04-2010 20:00:01 13.6 C 3.41 g/m*3 13.6 C 0 km/h
2495 14-04-2010 20:12:02 13.1 C 3.65 g/m*3 13.1 C 0 km/h
2496 14-04-2010 20:24:01 13 C 3.74 g/m*3 13 C 0 km/h
2497 14-04-2010 20:36:02 12.7 C 3.9 g/m*3 12.7 C 0 km/h
2498 14-04-2010 20:48:01 12.4 C 4.04 g/m*3 12.4 C 0 km/h
2499 14-04-2010 21:00:01 11.7 C 3.97 g/m*3 11.7 C 0 km/h
2500 14-04-2010 21:12:02 11.2 C 4.05 g/m*3 11.2 C 0 km/h
Sensor: Nr:Datum:Temp:Abs-Feuchte:Windchill:Wind:
Aussen-T/F 2501 14-04-2010 21:24:01 10.7 C 4.03 g/m*3 10.7 C 0 km/h
2502 14-04-2010 21:36:01 10.5 C 4.07 g/m*3 10.5 C 0 km/h
2503 14-04-2010 21:48:01 10.3 C 4.12 g/m*3 10.3 C 0 km/h
2504 14-04-2010 22:00:01 10.3 C 4.21 g/m*3 10.3 C 0 km/h
2505 14-04-2010 22:12:02 10.4 C 4.34 g/m*3 10.4 C 0 km/h
2506 14-04-2010 22:24:01 10.8 C 4.45 g/m*3 10.8 C 0 km/h
2507 14-04-2010 22:36:01 11 C 4.6 g/m*3 11 C 0 km/h
2508 14-04-2010 22:48:01 11 C 4.7 g/m*3 11 C 0 km/h
2509 14-04-2010 23:00:01 10.9 C 4.97 g/m*3 10.9 C 0 km/h
2510 14-04-2010 23:12:01 10.8 C 4.94 g/m*3 10.8 C 0 km/h
2511 14-04-2010 23:24:01 10.8 C 5.04 g/m*3 10.8 C 0 km/h
2512 14-04-2010 23:36:01 10.6 C 4.98 g/m*3 10.6 C 0 km/h
2513 14-04-2010 23:48:01 10.5 C 5.04 g/m*3 10.5 C 0 km/h
2514 15-04-2010 00:00:01 10.3 C 5.08 g/m*3 10.3 C 0 km/h
2515 15-04-2010 00:12:01 10.2 C 5.14 g/m*3 10.2 C 0 km/h
2516 15-04-2010 00:24:02 10.1 C 5.11 g/m*3 10.1 C 0 km/h
2517 15-04-2010 00:36:01 10.1 C 5.2 g/m*3 10.1 C 0 km/h
2518 15-04-2010 00:48:01 10.1 C 5.2 g/m*3 10.1 C 0 km/h
2519 15-04-2010 01:00:01 10.1 C 5.2 g/m*3 10.1 C 0 km/h
2520 15-04-2010 01:12:01 10.1 C 5.3 g/m*3 10.1 C 0 km/h
2521 15-04-2010 01:24:02 10.1 C 5.3 g/m*3 10.1 C 0 km/h
2522 15-04-2010 01:36:01 10.1 C 5.3 g/m*3 10.1 C 0 km/h
2523 15-04-2010 01:48:02 10 C 5.26 g/m*3 10 C 0 km/h
2524 15-04-2010 02:00:02 9.9 C 5.32 g/m*3 9.9 C 0 km/h
2525 15-04-2010 02:12:01 9.8 C 5.38 g/m*3 9.8 C 0 km/h
Sensor: Nr:Datum:Temp:Abs-Feuchte:Windchill:Wind:
Aussen-T/F 2526 15-04-2010 02:24:02 9.8 C 5.38 g/m*3 9.8 C 0 km/h
2527 15-04-2010 02:36:01 9.7 C 5.35 g/m*3 9.7 C 0 km/h
2528 15-04-2010 02:49:07 9.7 C 5.44 g/m*3 9.7 C 0 km/h
2529 15-04-2010 03:01:07 9.6 C 5.4 g/m*3 9.6 C 0 km/h
2530 15-04-2010 03:13:06 9.5 C 5.37 g/m*3 9.5 C 0 km/h
2531 15-04-2010 03:25:06 9.5 C 5.37 g/m*3 9.5 C 0 km/h
2532 15-04-2010 03:37:01 9.4 C 5.34 g/m*3 9.4 C 0 km/h
2533 15-04-2010 03:49:01 9.3 C 5.3 g/m*3 9.3 C 0 km/h
2534 15-04-2010 04:01:01 9.1 C 5.32 g/m*3 9.1 C 0 km/h
2535 15-04-2010 04:13:01 8.7 C 5.28 g/m*3 8.7 C 0 km/h
2536 15-04-2010 04:25:02 8.4 C 5.34 g/m*3 8.4 C 0 km/h
2537 15-04-2010 04:37:01 8.4 C 5.34 g/m*3 8.4 C 0 km/h
2538 15-04-2010 04:49:01 8.7 C 5.36 g/m*3 8.7 C 0 km/h
2539 15-04-2010 05:01:01 8.8 C 5.4 g/m*3 8.8 C 0 km/h
2540 15-04-2010 05:13:01 8.9 C 5.43 g/m*3 8.9 C 0 km/h
2541 15-04-2010 05:25:02 9 C 5.38 g/m*3 9 C 0 km/h
2542 15-04-2010 05:37:01 9 C 5.38 g/m*3 9 C 0 km/h
2543 15-04-2010 05:49:03 8.9 C 5.43 g/m*3 8.9 C 0 km/h
2544 15-04-2010 06:01:02 8.9 C 5.43 g/m*3 8.9 C 0 km/h
2545 15-04-2010 06:13:02 8.9 C 5.43 g/m*3 8.9 C 0 km/h
2546 15-04-2010 06:25:02 8.6 C 5.41 g/m*3 8.6 C 0 km/h
2547 15-04-2010 06:37:02 8 C 5.29 g/m*3 8 C 0 km/h
2548 15-04-2010 06:49:02 7.6 C 5.4 g/m*3 7.6 C 0 km/h
2549 15-04-2010 07:01:02 7.3 C 5.37 g/m*3 7.3 C 0 km/h
2550 15-04-2010 07:13:02 7.3 C 5.45 g/m*3 7.3 C 0 km/h
Sensor: Nr:Datum:Temp:Abs-Feuchte:Windchill:Wind:
Aussen-T/F 2551 15-04-2010 07:25:02 7.1 C 5.38 g/m*3 7.1 C 0 km/h
2552 15-04-2010 07:37:01 7.2 C 5.42 g/m*3 7.2 C 0 km/h
2553 15-04-2010 07:49:02 7.5 C 5.52 g/m*3 7.5 C 0 km/h
2554 15-04-2010 08:01:01 7.8 C 5.55 g/m*3 7.8 C 0 km/h
2555 15-04-2010 08:13:01 8.1 C 5.49 g/m*3 8.1 C 0 km/h
2556 15-04-2010 08:25:01 8.4 C 5.43 g/m*3 8.4 C 0 km/h
2557 15-04-2010 08:37:02 8.8 C 5.48 g/m*3 8.8 C 0 km/h
2558 15-04-2010 08:49:02 9 C 5.29 g/m*3 9 C 0 km/h
2559 15-04-2010 09:01:01 9.3 C 5.39 g/m*3 9.3 C 0 km/h
2560 15-04-2010 09:13:01 9.3 C 5.21 g/m*3 9.3 C 0 km/h
2561 15-04-2010 09:25:02 9.8 C 5.38 g/m*3 9.8 C 0 km/h
2562 15-04-2010 09:37:02 10.4 C 5.3 g/m*3 10.4 C 0 km/h
2563 15-04-2010 09:49:01 10.5 C 5.14 g/m*3 10.5 C 0 km/h
2564 15-04-2010 10:01:02 10.5 C 5.24 g/m*3 10.5 C 0 km/h
2565 15-04-2010 10:13:02 10.4 C 5.2 g/m*3 10.4 C 0 km/h
2566 15-04-2010 10:25:01 10.1 C 5.11 g/m*3 10.1 C 0 km/h
2567 15-04-2010 10:37:02 9.9 C 5.04 g/m*3 9.9 C 0 km/h
2568 15-04-2010 10:49:02 10.2 C 4.95 g/m*3 10.2 C 0 km/h
2569 15-04-2010 11:01:02 10.5 C 4.85 g/m*3 10.5 C 0 km/h
2570 15-04-2010 11:13:02 10.9 C 5.07 g/m*3 10.9 C 0 km/h
2571 15-04-2010 11:25:02 11.7 C 5.12 g/m*3 11.7 C 0 km/h
2572 15-04-2010 11:37:02 12.4 C 5.03 g/m*3 12.4 C 0 km/h
2573 15-04-2010 11:49:02 13.2 C 4.82 g/m*3 13.2 C 0 km/h
2574 15-04-2010 12:01:02 14.4 C 4.94 g/m*3 14.4 C 0 km/h
2575 15-04-2010 12:13:02 14.7 C 4.53 g/m*3 14.7 C 0 km/h
Sensor: Nr:Datum:Temp:Abs-Feuchte:Windchill:Wind:
Aussen-T/F 2576 15-04-2010 12:25:02 15 C 4.74 g/m*3 15 C 0 km/h
2577 15-04-2010 12:37:02 15.2 C 4.54 g/m*3 15.2 C 0 km/h
2578 15-04-2010 12:49:01 15.2 C 4.54 g/m*3 15.2 C 0 km/h
2579 15-04-2010 13:01:02 14.8 C 4.43 g/m*3 14.8 C 0 km/h
2580 15-04-2010 13:13:02 15.4 C 4.47 g/m*3 15.4 C 0 km/h
2581 15-04-2010 13:25:01 14.2 C 4.27 g/m*3 14.2 C 0 km/h
2582 15-04-2010 13:37:02 13.8 C 4.53 g/m*3 13.8 C 0 km/h
2583 15-04-2010 13:49:02 13.6 C 4.47 g/m*3 13.6 C 0 km/h
2584 15-04-2010 14:01:01 13.8 C 4.65 g/m*3 13.8 C 0 km/h
2585 15-04-2010 14:13:01 14 C 4.46 g/m*3 14 C 0 km/h
2586 15-04-2010 14:25:02 14.2 C 4.52 g/m*3 14.2 C 0 km/h
2587 15-04-2010 14:37:02 15.3 C 4.7 g/m*3 15.3 C 0 km/h
2588 15-04-2010 14:49:02 15.6 C 4.65 g/m*3 15.6 C 0 km/h
2589 15-04-2010 15:01:03 16.4 C 4.75 g/m*3 16.4 C 0 km/h
2590 15-04-2010 15:13:03 18.3 C 4.69 g/m*3 18.3 C 0 km/h
2591 15-04-2010 15:25:02 17.8 C 4.55 g/m*3 17.8 C 0 km/h
2592 15-04-2010 15:37:02 15.9 C 4.33 g/m*3 15.9 C 0 km/h
2593 15-04-2010 15:49:02 16.6 C 4.66 g/m*3 16.6 C 0 km/h
2594 15-04-2010 16:01:02 16.1 C 4.8 g/m*3 16.1 C 0 km/h
2595 15-04-2010 16:13:02 15 C 4.62 g/m*3 15 C 0 km/h
2596 15-04-2010 16:25:01 14.4 C 5.07 g/m*3 14.4 C 0 km/h
2597 15-04-2010 16:37:02 14.3 C 4.79 g/m*3 14.3 C 0 km/h
2598 15-04-2010 16:49:02 14.7 C 4.91 g/m*3 14.7 C 0 km/h
2599 15-04-2010 17:01:02 15.4 C 4.86 g/m*3 15.4 C 0 km/h
2600 15-04-2010 17:13:02 14.8 C 4.69 g/m*3 14.8 C 0 km/h
Sensor: Nr:Datum:Temp:Abs-Feuchte:Windchill:Wind:
Aussen-T/F 2601 15-04-2010 17:25:02 15 C 4.74 g/m*3 15 C 0 km/h
2602 15-04-2010 17:37:02 15.3 C 4.83 g/m*3 15.3 C 0 km/h
2603 15-04-2010 17:49:02 15.8 C 4.85 g/m*3 15.8 C 0 km/h
2604 15-04-2010 18:01:02 15.7 C 4.68 g/m*3 15.7 C 0 km/h
2605 15-04-2010 18:13:02 15.7 C 4.82 g/m*3 15.7 C 0 km/h
2606 15-04-2010 18:25:02 15.6 C 4.92 g/m*3 15.6 C 0 km/h
2607 15-04-2010 18:37:02 15.5 C 5.02 g/m*3 15.5 C 0 km/h
2608 15-04-2010 18:49:01 15.4 C 4.99 g/m*3 15.4 C 0 km/h
2609 15-04-2010 19:01:02 15.4 C 4.73 g/m*3 15.4 C 0 km/h
2610 15-04-2010 19:13:02 15.2 C 4.8 g/m*3 15.2 C 0 km/h
2611 15-04-2010 19:25:01 15.1 C 4.9 g/m*3 15.1 C 0 km/h
2612 15-04-2010 19:37:02 14.8 C 5.07 g/m*3 14.8 C 0 km/h
2613 15-04-2010 19:49:01 14.4 C 4.7 g/m*3 14.4 C 0 km/h
2614 15-04-2010 20:01:02 14.1 C 4.85 g/m*3 14.1 C 0 km/h
2615 15-04-2010 20:13:03 13.8 C 4.89 g/m*3 13.8 C 0 km/h
2616 15-04-2010 20:25:01 13.6 C 4.12 g/m*3 13.6 C 0 km/h
2617 15-04-2010 20:37:02 13.3 C 3.81 g/m*3 13.3 C 0 km/h
2618 15-04-2010 20:49:02 13.1 C 3.65 g/m*3 13.1 C 0 km/h
2619 15-04-2010 21:01:02 12.9 C 3.61 g/m*3 12.9 C 0 km/h
2620 15-04-2010 21:13:03 12.7 C 3.67 g/m*3 12.7 C 0 km/h
2621 15-04-2010 21:25:01 12.6 C 3.87 g/m*3 12.6 C 0 km/h
2622 15-04-2010 21:37:02 12.5 C 3.85 g/m*3 12.5 C 0 km/h
2623 15-04-2010 21:49:02 12.4 C 3.82 g/m*3 12.4 C 0 km/h
2624 15-04-2010 22:01:02 12.4 C 3.71 g/m*3 12.4 C 0 km/h
2625 15-04-2010 22:13:02 12.2 C 3.78 g/m*3 12.2 C 0 km/h
Sensor: Nr:Datum:Temp:Abs-Feuchte:Windchill:Wind:
Aussen-T/F 2626 15-04-2010 22:25:02 12.2 C 3.56 g/m*3 12.2 C 0 km/h
2627 15-04-2010 22:37:02 12.1 C 3.43 g/m*3 12.1 C 0 km/h
2628 15-04-2010 22:49:02 12.1 C 3.43 g/m*3 12.1 C 0 km/h
2629 15-04-2010 23:01:02 11.9 C 3.71 g/m*3 11.9 C 0 km/h
2630 15-04-2010 23:13:02 11.8 C 3.79 g/m*3 11.8 C 0 km/h
2631 15-04-2010 23:25:02 11.6 C 3.85 g/m*3 11.6 C 0 km/h
2632 15-04-2010 23:37:02 11.5 C 3.72 g/m*3 11.5 C 0 km/h
2633 15-04-2010 23:49:01 11.4 C 3.7 g/m*3 11.4 C 0 km/h
2634 16-04-2010 00:01:02 11.4 C 3.9 g/m*3 11.4 C 0 km/h
2635 16-04-2010 00:13:03 11.1 C 4.03 g/m*3 11.1 C 0 km/h
2636 16-04-2010 00:25:01 10.9 C 3.98 g/m*3 10.9 C 0 km/h
2637 16-04-2010 00:37:02 10.8 C 3.95 g/m*3 10.8 C 0 km/h
2638 16-04-2010 00:49:02 10.7 C 4.03 g/m*3 10.7 C 0 km/h
2639 16-04-2010 01:01:02 10.5 C 3.98 g/m*3 10.5 C 0 km/h
2640 16-04-2010 01:13:02 10.3 C 4.02 g/m*3 10.3 C 0 km/h
2641 16-04-2010 01:25:02 10.1 C 3.97 g/m*3 10.1 C 0 km/h
2642 16-04-2010 01:37:02 10.1 C 4.07 g/m*3 10.1 C 0 km/h
2643 16-04-2010 01:49:02 9.6 C 4.21 g/m*3 9.6 C 0 km/h
2644 16-04-2010 02:01:03 9.3 C 4.22 g/m*3 9.3 C 0 km/h
2645 16-04-2010 02:13:03 9 C 4.14 g/m*3 9 C 0 km/h
2646 16-04-2010 02:25:02 8.7 C 4.32 g/m*3 8.7 C 0 km/h
2647 16-04-2010 02:37:02 8.4 C 4.24 g/m*3 8.4 C 0 km/h
2648 16-04-2010 02:50:03 8 C 4.22 g/m*3 8 C 0 km/h
2649 16-04-2010 03:02:03 7.8 C 4.24 g/m*3 7.8 C 0 km/h
2650 16-04-2010 03:14:04 7.7 C 4.3 g/m*3 7.7 C 0 km/h
Sensor: Nr:Datum:Temp:Abs-Feuchte:Windchill:Wind:
Aussen-T/F 2651 16-04-2010 03:26:04 7.7 C 4.38 g/m*3 7.7 C 0 km/h
2652 16-04-2010 03:38:02 7.4 C 4.37 g/m*3 7.4 C 0 km/h
2653 16-04-2010 03:50:03 7.2 C 4.4 g/m*3 7.2 C 0 km/h
2654 16-04-2010 04:02:02 7.3 C 4.42 g/m*3 7.3 C 0 km/h
2655 16-04-2010 04:14:02 7.6 C 4.35 g/m*3 7.6 C 0 km/h
2656 16-04-2010 04:26:02 7.6 C 4.27 g/m*3 7.6 C 0 km/h
2657 16-04-2010 04:38:03 7.4 C 4.21 g/m*3 7.4 C 0 km/h
2658 16-04-2010 04:50:02 7.2 C 4.24 g/m*3 7.2 C 0 km/h
2659 16-04-2010 05:02:01 7.1 C 4.21 g/m*3 7.1 C 0 km/h
2660 16-04-2010 05:14:01 7.1 C 4.21 g/m*3 7.1 C 0 km/h
2661 16-04-2010 05:26:02 6.9 C 4.23 g/m*3 6.9 C 0 km/h
2662 16-04-2010 05:38:02 6.8 C 4.28 g/m*3 6.8 C 0 km/h
2663 16-04-2010 05:50:02 6.5 C 4.27 g/m*3 6.5 C 0 km/h
2664 16-04-2010 06:02:01 6.3 C 4.37 g/m*3 6.3 C 0 km/h
2665 16-04-2010 06:14:01 6.3 C 4.37 g/m*3 6.3 C 0 km/h
2666 16-04-2010 06:26:01 6.1 C 4.38 g/m*3 6.1 C 0 km/h
2667 16-04-2010 06:38:02 5.8 C 4.44 g/m*3 5.8 C 0 km/h
2668 16-04-2010 06:50:02 5.9 C 4.69 g/m*3 5.9 C 0 km/h
2669 16-04-2010 07:02:02 5.8 C 4.73 g/m*3 5.8 C 0 km/h
2670 16-04-2010 07:14:02 5.8 C 4.8 g/m*3 5.8 C 0 km/h
2671 16-04-2010 07:26:02 5.9 C 4.9 g/m*3 5.9 C 0 km/h
2672 16-04-2010 07:38:02 6 C 4.94 g/m*3 6 C 0 km/h
2673 16-04-2010 07:50:02 5.9 C 4.98 g/m*3 5.9 C 0 km/h
2674 16-04-2010 08:02:02 5.8 C 4.94 g/m*3 5.8 C 0 km/h
2675 16-04-2010 08:14:02 5.9 C 5.05 g/m*3 5.9 C 0 km/h
Sensor: Nr:Datum:Temp:Abs-Feuchte:Windchill:Wind:
Aussen-T/F 2676 16-04-2010 08:26:02 5.9 C 5.05 g/m*3 5.9 C 0 km/h
2677 16-04-2010 08:38:02 6.1 C 5.04 g/m*3 6.1 C 0 km/h
2678 16-04-2010 08:50:01 6.3 C 5.03 g/m*3 6.3 C 0 km/h
2679 16-04-2010 09:02:02 6.2 C 5 g/m*3 6.2 C 0 km/h
2680 16-04-2010 09:14:02 6.2 C 5 g/m*3 6.2 C 0 km/h
2681 16-04-2010 09:26:01 6.2 C 5 g/m*3 6.2 C 0 km/h
2682 16-04-2010 09:38:02 6.2 C 5.07 g/m*3 6.2 C 0 km/h
2683 16-04-2010 09:50:02 6.8 C 5.2 g/m*3 6.8 C 0 km/h
2684 16-04-2010 10:02:02 6.7 C 5.09 g/m*3 6.7 C 0 km/h
2685 16-04-2010 10:14:02 6.7 C 5.09 g/m*3 6.7 C 0 km/h
2686 16-04-2010 10:26:02 6.7 C 4.94 g/m*3 6.7 C 0 km/h
2687 16-04-2010 10:38:02 7.1 C 4.91 g/m*3 7.1 C 0 km/h
2688 16-04-2010 10:50:02 7.2 C 4.87 g/m*3 7.2 C 0 km/h
2689 16-04-2010 11:02:02 7 C 4.8 g/m*3 7 C 0 km/h
2690 16-04-2010 11:14:02 7.5 C 4.88 g/m*3 7.5 C 0 km/h
2691 16-04-2010 11:26:02 7.3 C 4.66 g/m*3 7.3 C 0 km/h
2692 16-04-2010 11:38:02 7.5 C 4.8 g/m*3 7.5 C 0 km/h
2693 16-04-2010 11:50:02 7.6 C 4.59 g/m*3 7.6 C 0 km/h
2694 16-04-2010 12:02:03 8.5 C 4.7 g/m*3 8.5 C 0 km/h
2695 16-04-2010 12:14:03 8.8 C 4.61 g/m*3 8.8 C 0 km/h
2696 16-04-2010 12:26:02 9 C 4.41 g/m*3 9 C 0 km/h
2697 16-04-2010 12:38:02 9.3 C 4.49 g/m*3 9.3 C 0 km/h
2698 16-04-2010 12:50:02 9.1 C 4.35 g/m*3 9.1 C 0 km/h
2699 16-04-2010 13:02:02 9.8 C 4.36 g/m*3 9.8 C 0 km/h
2700 16-04-2010 13:14:02 10.2 C 4.28 g/m*3 10.2 C 0 km/h
Sensor: Nr:Datum:Temp:Abs-Feuchte:Windchill:Wind:
Aussen-T/F 2701 16-04-2010 13:26:01 10.7 C 4.32 g/m*3 10.7 C 0 km/h
2702 16-04-2010 13:38:02 11.2 C 4.16 g/m*3 11.2 C 0 km/h
2703 16-04-2010 13:50:02 11.6 C 3.95 g/m*3 11.6 C 0 km/h
2704 16-04-2010 14:02:02 12.3 C 3.91 g/m*3 12.3 C 0 km/h
2705 16-04-2010 14:14:02 13.3 C 3.7 g/m*3 13.3 C 0 km/h
2706 16-04-2010 14:26:02 13.5 C 3.63 g/m*3 13.5 C 0 km/h
2707 16-04-2010 14:38:02 14 C 3.62 g/m*3 14 C 0 km/h
2708 16-04-2010 14:50:02 14.5 C 3.73 g/m*3 14.5 C 0 km/h
2709 16-04-2010 15:02:02 15 C 3.59 g/m*3 15 C 0 km/h
2710 16-04-2010 15:14:02 13.9 C 3.48 g/m*3 13.9 C 0 km/h
2711 16-04-2010 15:26:02 14.1 C 3.64 g/m*3 14.1 C 0 km/h
2712 16-04-2010 15:38:01 15.2 C 3.5 g/m*3 15.2 C 0 km/h
2713 16-04-2010 15:50:02 15.3 C 3.4 g/m*3 15.3 C 0 km/h
2714 16-04-2010 16:02:01 15 C 3.33 g/m*3 15 C 0 km/h
2715 16-04-2010 16:14:01 15.3 C 3.4 g/m*3 15.3 C 0 km/h
2716 16-04-2010 16:26:02 14.6 C 3.5 g/m*3 14.6 C 0 km/h
2717 16-04-2010 16:38:01 14 C 3.26 g/m*3 14 C 0 km/h
2718 16-04-2010 16:50:03 14.1 C 3.4 g/m*3 14.1 C 0 km/h
2719 16-04-2010 17:02:02 14.7 C 3.4 g/m*3 14.7 C 0 km/h
2720 16-04-2010 17:14:02 15.3 C 3.4 g/m*3 15.3 C 0 km/h
2721 16-04-2010 17:26:02 15.4 C 3.28 g/m*3 15.4 C 0 km/h
2722 16-04-2010 17:38:02 15.3 C 3.26 g/m*3 15.3 C 0 km/h
2723 16-04-2010 17:50:02 14.7 C 3.27 g/m*3 14.7 C 0 km/h
2724 16-04-2010 18:02:02 15.5 C 3.17 g/m*3 15.5 C 0 km/h
2725 16-04-2010 18:14:02 15.6 C 3.32 g/m*3 15.6 C 0 km/h
Sensor: Nr:Datum:Temp:Abs-Feuchte:Windchill:Wind:
Aussen-T/F 2726 16-04-2010 18:26:02 14.6 C 3.25 g/m*3 14.6 C 0 km/h
2727 16-04-2010 18:38:02 14.3 C 3.19 g/m*3 14.3 C 0 km/h
2728 16-04-2010 18:50:02 14.5 C 3.36 g/m*3 14.5 C 0 km/h
2729 16-04-2010 19:02:02 14.5 C 3.23 g/m*3 14.5 C 0 km/h
2730 16-04-2010 19:14:02 14.6 C 3.38 g/m*3 14.6 C 0 km/h
2731 16-04-2010 19:26:02 13.4 C 3.25 g/m*3 13.4 C 0 km/h
2732 16-04-2010 19:38:01 12.9 C 3.38 g/m*3 12.9 C 0 km/h
2733 16-04-2010 19:50:02 12.5 C 3.41 g/m*3 12.5 C 0 km/h
2734 16-04-2010 20:02:01 12.3 C 3.47 g/m*3 12.3 C 0 km/h
2735 16-04-2010 20:14:01 11.7 C 3.56 g/m*3 11.7 C 0 km/h
2736 16-04-2010 20:26:02 11.2 C 3.65 g/m*3 11.2 C 0 km/h
2737 16-04-2010 20:38:01 10.8 C 3.66 g/m*3 10.8 C 0 km/h
2738 16-04-2010 20:50:02 10.5 C 3.69 g/m*3 10.5 C 0 km/h
2739 16-04-2010 21:02:01 10.3 C 3.83 g/m*3 10.3 C 0 km/h
2740 16-04-2010 21:14:01 9.9 C 3.83 g/m*3 9.9 C 0 km/h
2741 16-04-2010 21:26:02 9.6 C 3.85 g/m*3 9.6 C 0 km/h
2742 16-04-2010 21:38:01 9.3 C 3.86 g/m*3 9.3 C 0 km/h
2743 16-04-2010 21:50:03 9.1 C 3.99 g/m*3 9.1 C 0 km/h
2744 16-04-2010 22:02:02 8.9 C 3.94 g/m*3 8.9 C 0 km/h
2745 16-04-2010 22:14:02 8.8 C 3.92 g/m*3 8.8 C 0 km/h
2746 16-04-2010 22:26:03 8.5 C 4.1 g/m*3 8.5 C 0 km/h
2747 16-04-2010 22:38:02 8.2 C 4.02 g/m*3 8.2 C 0 km/h
2748 16-04-2010 22:50:03 8.1 C 4.08 g/m*3 8.1 C 0 km/h
2749 16-04-2010 23:03:02 7.9 C 4.11 g/m*3 7.9 C 0 km/h
2750 16-04-2010 23:15:02 7.7 C 4.14 g/m*3 7.7 C 0 km/h
Sensor: Nr:Datum:Temp:Abs-Feuchte:Windchill:Wind:
Aussen-T/F 2751 16-04-2010 23:27:02 7.6 C 4.19 g/m*3 7.6 C 0 km/h
2752 16-04-2010 23:39:02 7.4 C 4.14 g/m*3 7.4 C 0 km/h
2753 16-04-2010 23:51:02 7.1 C 4.13 g/m*3 7.1 C 0 km/h
2754 17-04-2010 00:03:02 7 C 4.18 g/m*3 7 C 0 km/h
2755 17-04-2010 00:15:02 6.7 C 4.26 g/m*3 6.7 C 0 km/h
2756 17-04-2010 00:27:02 6.5 C 4.27 g/m*3 6.5 C 0 km/h
2757 17-04-2010 00:39:02 6.4 C 4.25 g/m*3 6.4 C 0 km/h
2758 17-04-2010 00:51:02 6.2 C 4.19 g/m*3 6.2 C 0 km/h
2759 17-04-2010 01:03:02 6.1 C 4.16 g/m*3 6.1 C 0 km/h
2760 17-04-2010 01:15:02 5.9 C 4.33 g/m*3 5.9 C 0 km/h
2761 17-04-2010 01:27:02 5.7 C 4.27 g/m*3 5.7 C 0 km/h
2762 17-04-2010 01:39:02 5.5 C 4.28 g/m*3 5.5 C 0 km/h
2763 17-04-2010 01:51:02 5.4 C 4.33 g/m*3 5.4 C 0 km/h
2764 17-04-2010 02:03:02 5.2 C 4.34 g/m*3 5.2 C 0 km/h
2765 17-04-2010 02:15:02 5.1 C 4.24 g/m*3 5.1 C 0 km/h
2766 17-04-2010 02:27:02 5 C 4.28 g/m*3 5 C 0 km/h
2767 17-04-2010 02:39:02 4.7 C 4.33 g/m*3 4.7 C 0 km/h
2768 17-04-2010 02:51:03 4.5 C 4.27 g/m*3 4.5 C 0 km/h
2769 17-04-2010 03:03:03 4.4 C 4.31 g/m*3 4.4 C 0 km/h
2770 17-04-2010 03:15:03 4.2 C 4.25 g/m*3 4.2 C 0 km/h
2771 17-04-2010 03:27:03 4.2 C 4.25 g/m*3 4.2 C 0 km/h
2772 17-04-2010 03:39:03 3.7 C 4.18 g/m*3 3.7 C 0 km/h
2773 17-04-2010 03:51:03 3.6 C 4.27 g/m*3 3.6 C 0 km/h
2774 17-04-2010 04:03:03 3.6 C 4.27 g/m*3 3.6 C 0 km/h
2775 17-04-2010 04:15:03 3.4 C 4.34 g/m*3 3.4 C 0 km/h
Sensor: Nr:Datum:Temp:Abs-Feuchte:Windchill:Wind:
Aussen-T/F 2776 17-04-2010 04:27:03 3.2 C 4.34 g/m*3 3.2 C 0 km/h
2777 17-04-2010 04:39:03 3 C 4.34 g/m*3 3 C 0 km/h
2778 17-04-2010 04:51:03 2.8 C 4.28 g/m*3 2.8 C 0 km/h
2779 17-04-2010 05:03:03 2.6 C 4.28 g/m*3 2.6 C 0 km/h
2780 17-04-2010 05:15:03 2.5 C 4.25 g/m*3 2.5 C 0 km/h
2781 17-04-2010 05:27:03 2.4 C 4.28 g/m*3 2.4 C 0 km/h
2782 17-04-2010 05:39:03 2.2 C 4.28 g/m*3 2.2 C 0 km/h
2783 17-04-2010 05:51:03 2.1 C 4.31 g/m*3 2.1 C 0 km/h
2784 17-04-2010 06:03:03 1.9 C 4.3 g/m*3 1.9 C 0 km/h
2785 17-04-2010 06:15:03 1.8 C 4.28 g/m*3 1.8 C 0 km/h
2786 17-04-2010 06:27:03 1.9 C 4.3 g/m*3 1.9 C 0 km/h
2787 17-04-2010 06:39:03 1.6 C 4.22 g/m*3 1.6 C 0 km/h
2788 17-04-2010 06:51:04 1.5 C 4.19 g/m*3 1.5 C 0 km/h
2789 17-04-2010 07:03:04 1.5 C 4.24 g/m*3 1.5 C 0 km/h
2790 17-04-2010 07:15:04 1.5 C 4.24 g/m*3 1.5 C 0 km/h
2791 17-04-2010 07:27:04 1.6 C 4.27 g/m*3 1.6 C 0 km/h
2792 17-04-2010 07:39:04 1.6 C 4.33 g/m*3 1.6 C 0 km/h
2793 17-04-2010 07:51:04 1.7 C 4.36 g/m*3 1.7 C 0 km/h
2794 17-04-2010 08:03:04 1.9 C 4.42 g/m*3 1.9 C 0 km/h
2795 17-04-2010 08:15:03 2.2 C 4.51 g/m*3 2.2 C 0 km/h
2796 17-04-2010 08:27:03 2.5 C 4.6 g/m*3 2.5 C 0 km/h
2797 17-04-2010 08:39:02 2.7 C 4.66 g/m*3 2.7 C 0 km/h
2798 17-04-2010 08:51:04 3 C 4.7 g/m*3 3 C 0 km/h
2799 17-04-2010 09:03:03 3.3 C 4.73 g/m*3 3.3 C 0 km/h
2800 17-04-2010 09:15:04 3.7 C 4.8 g/m*3 3.7 C 0 km/h
Sensor: Nr:Datum:Temp:Abs-Feuchte:Windchill:Wind:
Aussen-T/F 2801 17-04-2010 09:27:04 4.4 C 4.9 g/m*3 4.4 C 0 km/h
2802 17-04-2010 09:39:03 5.1 C 4.92 g/m*3 5.1 C 0 km/h
2803 17-04-2010 09:51:01 5.6 C 4.88 g/m*3 5.6 C 0 km/h
2804 17-04-2010 10:03:01 6.7 C 4.94 g/m*3 6.7 C 0 km/h
2805 17-04-2010 10:15:02 7 C 4.57 g/m*3 7 C 0 km/h
2806 17-04-2010 10:27:02 7.5 C 4.4 g/m*3 7.5 C 0 km/h
2807 17-04-2010 10:39:01 8.1 C 3.99 g/m*3 8.1 C 0 km/h
2808 17-04-2010 10:51:01 8.6 C 3.87 g/m*3 8.6 C 0 km/h
2809 17-04-2010 11:03:02 9.3 C 3.86 g/m*3 9.3 C 0 km/h
2810 17-04-2010 11:15:01 10 C 3.66 g/m*3 10 C 0 km/h
2811 17-04-2010 11:27:01 10.1 C 3.22 g/m*3 10.1 C 0 km/h
2812 17-04-2010 11:39:01 10.5 C 3.39 g/m*3 10.5 C 0 km/h
2813 17-04-2010 11:51:01 11 C 3.2 g/m*3 11 C 0 km/h
2814 17-04-2010 12:03:02 11.2 C 3.24 g/m*3 11.2 C 0 km/h
2815 17-04-2010 12:15:02 12 C 3.09 g/m*3 12 C 0 km/h
2816 17-04-2010 12:27:02 12.5 C 2.97 g/m*3 12.5 C 0 km/h
2817 17-04-2010 12:39:01 12.7 C 2.89 g/m*3 12.7 C 0 km/h
2818 17-04-2010 12:51:01 12.6 C 2.77 g/m*3 12.6 C 0 km/h
2819 17-04-2010 13:03:02 13.2 C 2.3 g/m*3 13.2 C 0 km/h
2820 17-04-2010 13:15:02 13.9 C 2.4 g/m*3 13.9 C 0 km/h
2821 17-04-2010 13:27:02 14.8 C 2.53 g/m*3 14.8 C 0 km/h
2822 17-04-2010 13:39:01 15.5 C 2.64 g/m*3 15.5 C 0 km/h
2823 17-04-2010 13:51:01 15.6 C 2.66 g/m*3 15.6 C 0 km/h
2824 17-04-2010 14:03:02 16.4 C 2.79 g/m*3 16.4 C 0 km/h
2825 17-04-2010 14:15:02 17 C 2.89 g/m*3 17 C 0 km/h
Sensor: Nr:Datum:Temp:Abs-Feuchte:Windchill:Wind:
Aussen-T/F 2826 17-04-2010 14:27:02 17.6 C 3 g/m*3 17.6 C 0 km/h
2827 17-04-2010 14:39:01 18.4 C 3.15 g/m*3 18.4 C 0 km/h
2828 17-04-2010 14:51:01 19.4 C 3.34 g/m*3 19.4 C 0 km/h
2829 17-04-2010 15:03:02 20 C 3.46 g/m*3 20 C 0 km/h
2830 17-04-2010 15:15:02 20.8 C 3.62 g/m*3 20.8 C 0 km/h
2831 17-04-2010 15:27:02 21 C 3.66 g/m*3 21 C 0 km/h
2832 17-04-2010 15:39:01 21.9 C 3.86 g/m*3 21.9 C 0 km/h
2833 17-04-2010 15:51:01 22.2 C 3.93 g/m*3 22.2 C 0 km/h
2834 17-04-2010 16:03:02 20.9 C 3.64 g/m*3 20.9 C 0 km/h
2835 17-04-2010 16:15:02 21 C 3.66 g/m*3 21 C 0 km/h
2836 17-04-2010 16:27:02 22.2 C 3.93 g/m*3 22.2 C 0 km/h
2837 17-04-2010 16:39:01 23.3 C 4.18 g/m*3 23.3 C 0 km/h
2838 17-04-2010 16:51:01 23.5 C 4.23 g/m*3 23.5 C 0 km/h
2839 17-04-2010 17:03:02 23.9 C 4.33 g/m*3 23.9 C 0 km/h
2840 17-04-2010 17:15:02 24.1 C 4.38 g/m*3 24.1 C 0 km/h
2841 17-04-2010 17:27:02 24.8 C 4.55 g/m*3 24.8 C 0 km/h
2842 17-04-2010 17:39:02 23.4 C 4.21 g/m*3 23.4 C 0 km/h
2843 17-04-2010 17:51:01 23.6 C 4.25 g/m*3 23.6 C 0 km/h
2844 17-04-2010 18:03:02 24.1 C 4.38 g/m*3 24.1 C 0 km/h
2845 17-04-2010 18:15:02 24.8 C 4.55 g/m*3 24.8 C 0 km/h
2846 17-04-2010 18:27:02 24.1 C 4.38 g/m*3 24.1 C 0 km/h
2847 17-04-2010 18:39:02 24.6 C 4.5 g/m*3 24.6 C 0 km/h
2848 17-04-2010 18:51:01 24.5 C 4.48 g/m*3 24.5 C 0 km/h
2849 17-04-2010 19:03:02 24.2 C 4.4 g/m*3 24.2 C 0 km/h
2850 17-04-2010 19:15:02 24 C 4.35 g/m*3 24 C 0 km/h
Sensor: Nr:Datum:Temp:Abs-Feuchte:Windchill:Wind:
Aussen-T/F 2851 17-04-2010 19:27:02 23 C 4.11 g/m*3 23 C 0 km/h
2852 17-04-2010 19:39:02 22.3 C 3.95 g/m*3 22.3 C 0 km/h
2853 17-04-2010 19:51:01 21.6 C 3.79 g/m*3 21.6 C 0 km/h
2854 17-04-2010 20:03:02 20.1 C 3.48 g/m*3 20.1 C 0 km/h
2855 17-04-2010 20:15:02 18.6 C 3.18 g/m*3 18.6 C 0 km/h
2856 17-04-2010 20:27:02 17.1 C 2.91 g/m*3 17.1 C 0 km/h
2857 17-04-2010 20:39:01 16.2 C 2.76 g/m*3 16.2 C 0 km/h
2858 17-04-2010 20:51:01 15.2 C 2.73 g/m*3 15.2 C 0 km/h
2859 17-04-2010 21:03:02 14.5 C 3.11 g/m*3 14.5 C 0 km/h
2860 17-04-2010 21:15:02 13.7 C 3.08 g/m*3 13.7 C 0 km/h
2861 17-04-2010 21:27:02 13.5 C 3.16 g/m*3 13.5 C 0 km/h
2862 17-04-2010 21:39:01 13.2 C 3.1 g/m*3 13.2 C 0 km/h
2863 17-04-2010 21:51:02 12.9 C 3.27 g/m*3 12.9 C 0 km/h
2864 17-04-2010 22:03:01 12.4 C 3.17 g/m*3 12.4 C 0 km/h
2865 17-04-2010 22:15:02 11.8 C 3.26 g/m*3 11.8 C 0 km/h
2866 17-04-2010 22:27:02 11.9 C 3.28 g/m*3 11.9 C 0 km/h
2867 17-04-2010 22:39:02 11.7 C 3.35 g/m*3 11.7 C 0 km/h
2868 17-04-2010 22:51:02 11.2 C 3.45 g/m*3 11.2 C 0 km/h
2869 17-04-2010 23:04:02 10.8 C 3.66 g/m*3 10.8 C 0 km/h
2870 17-04-2010 23:16:02 10.4 C 3.66 g/m*3 10.4 C 0 km/h
2871 17-04-2010 23:28:02 10.2 C 3.52 g/m*3 10.2 C 0 km/h
2872 17-04-2010 23:40:02 9.6 C 3.57 g/m*3 9.6 C 0 km/h
2873 17-04-2010 23:52:02 9.5 C 3.64 g/m*3 9.5 C 0 km/h
2874 18-04-2010 00:04:02 9.2 C 3.57 g/m*3 9.2 C 0 km/h
2875 18-04-2010 00:16:02 9 C 3.61 g/m*3 9 C 0 km/h
Sensor: Nr:Datum:Temp:Abs-Feuchte:Windchill:Wind:
Aussen-T/F 2876 18-04-2010 00:28:02 8.9 C 3.68 g/m*3 8.9 C 0 km/h
2877 18-04-2010 00:40:02 8.7 C 3.63 g/m*3 8.7 C 0 km/h
2878 18-04-2010 00:52:03 8.3 C 3.54 g/m*3 8.3 C 0 km/h
2879 18-04-2010 01:04:03 8.1 C 3.66 g/m*3 8.1 C 0 km/h
2880 18-04-2010 01:16:03 7.8 C 3.67 g/m*3 7.8 C 0 km/h
2881 18-04-2010 01:28:03 7.5 C 3.92 g/m*3 7.5 C 0 km/h
2882 18-04-2010 01:40:03 7.2 C 3.92 g/m*3 7.2 C 0 km/h
2883 18-04-2010 01:52:03 7.1 C 3.82 g/m*3 7.1 C 0 km/h
2884 18-04-2010 02:04:03 7 C 3.8 g/m*3 7 C 0 km/h
2885 18-04-2010 02:16:03 6.8 C 3.82 g/m*3 6.8 C 0 km/h
2886 18-04-2010 02:28:03 6.6 C 3.85 g/m*3 6.6 C 0 km/h
2887 18-04-2010 02:40:03 6.3 C 3.85 g/m*3 6.3 C 0 km/h
2888 18-04-2010 02:52:03 6 C 3.85 g/m*3 6 C 0 km/h
2889 18-04-2010 03:04:03 5.9 C 3.97 g/m*3 5.9 C 0 km/h
2890 18-04-2010 03:16:03 5.6 C 3.89 g/m*3 5.6 C 0 km/h
2891 18-04-2010 03:28:03 5.2 C 3.86 g/m*3 5.2 C 0 km/h
2892 18-04-2010 03:40:03 5.3 C 4.02 g/m*3 5.3 C 0 km/h
2893 18-04-2010 03:52:03 5.1 C 3.97 g/m*3 5.1 C 0 km/h
2894 18-04-2010 04:04:03 5 C 3.94 g/m*3 5 C 0 km/h
2895 18-04-2010 04:16:03 4.8 C 4.02 g/m*3 4.8 C 0 km/h
2896 18-04-2010 04:28:03 4.5 C 4.08 g/m*3 4.5 C 0 km/h
2897 18-04-2010 04:40:03 4.3 C 4.09 g/m*3 4.3 C 0 km/h
2898 18-04-2010 04:52:03 4.2 C 4.06 g/m*3 4.2 C 0 km/h
2899 18-04-2010 05:04:04 3.9 C 4.11 g/m*3 3.9 C 0 km/h
2900 18-04-2010 05:16:04 3.8 C 4.08 g/m*3 3.8 C 0 km/h
Sensor: Nr:Datum:Temp:Abs-Feuchte:Windchill:Wind:
Aussen-T/F 2901 18-04-2010 05:28:04 3.8 C 4.08 g/m*3 3.8 C 0 km/h
2902 18-04-2010 05:40:04 3.6 C 4.09 g/m*3 3.6 C 0 km/h
2903 18-04-2010 05:52:04 3.4 C 4.03 g/m*3 3.4 C 0 km/h
2904 18-04-2010 06:04:04 3.3 C 4.06 g/m*3 3.3 C 0 km/h
2905 18-04-2010 06:16:04 3.1 C 4.07 g/m*3 3.1 C 0 km/h
2906 18-04-2010 06:28:04 3 C 4.04 g/m*3 3 C 0 km/h
2907 18-04-2010 06:40:04 2.9 C 4.07 g/m*3 2.9 C 0 km/h
2908 18-04-2010 06:52:04 2.8 C 4.11 g/m*3 2.8 C 0 km/h
2909 18-04-2010 07:04:04 2.7 C 4.14 g/m*3 2.7 C 0 km/h
2910 18-04-2010 07:16:04 2.6 C 4.17 g/m*3 2.6 C 0 km/h
2911 18-04-2010 07:28:04 2.6 C 4.22 g/m*3 2.6 C 0 km/h
2912 18-04-2010 07:40:04 2.6 C 4.17 g/m*3 2.6 C 0 km/h
2913 18-04-2010 07:52:04 2.8 C 4.22 g/m*3 2.8 C 0 km/h
2914 18-04-2010 08:04:02 3.1 C 4.25 g/m*3 3.1 C 0 km/h
2915 18-04-2010 08:16:02 3.4 C 4.34 g/m*3 3.4 C 0 km/h
2916 18-04-2010 08:28:02 3.7 C 4.36 g/m*3 3.7 C 0 km/h
2917 18-04-2010 08:40:02 4 C 4.26 g/m*3 4 C 0 km/h
2918 18-04-2010 08:52:01 4.3 C 4.35 g/m*3 4.3 C 0 km/h
2919 18-04-2010 09:04:02 4.6 C 4.37 g/m*3 4.6 C 0 km/h
2920 18-04-2010 09:16:01 5.1 C 4.38 g/m*3 5.1 C 0 km/h
2921 18-04-2010 09:28:01 5.7 C 4.48 g/m*3 5.7 C 0 km/h
2922 18-04-2010 09:40:02 6.3 C 4.52 g/m*3 6.3 C 0 km/h
2923 18-04-2010 09:52:02 7.2 C 4.47 g/m*3 7.2 C 0 km/h
2924 18-04-2010 10:04:02 7.9 C 4.44 g/m*3 7.9 C 0 km/h
2925 18-04-2010 10:16:02 8.5 C 4.27 g/m*3 8.5 C 0 km/h
Sensor: Nr:Datum:Temp:Abs-Feuchte:Windchill:Wind:
Aussen-T/F 2926 18-04-2010 10:28:02 9.2 C 4.29 g/m*3 9.2 C 0 km/h
2927 18-04-2010 10:40:02 9.7 C 4.15 g/m*3 9.7 C 0 km/h
2928 18-04-2010 10:52:02 10.7 C 4.32 g/m*3 10.7 C 0 km/h
2929 18-04-2010 11:04:02 11.5 C 4.23 g/m*3 11.5 C 0 km/h
2930 18-04-2010 11:16:02 12.4 C 4.37 g/m*3 12.4 C 0 km/h
2931 18-04-2010 11:28:02 13.4 C 4.42 g/m*3 13.4 C 0 km/h
2932 18-04-2010 11:40:02 14 C 4.34 g/m*3 14 C 0 km/h
2933 18-04-2010 11:52:02 15 C 4.36 g/m*3 15 C 0 km/h
2934 18-04-2010 12:04:02 15.5 C 4.23 g/m*3 15.5 C 0 km/h
2935 18-04-2010 12:16:01 16.1 C 4.11 g/m*3 16.1 C 0 km/h
2936 18-04-2010 12:28:01 16.6 C 3.67 g/m*3 16.6 C 0 km/h
2937 18-04-2010 12:40:02 17 C 2.89 g/m*3 17 C 0 km/h
2938 18-04-2010 12:52:02 17.2 C 2.93 g/m*3 17.2 C 0 km/h
2939 18-04-2010 13:04:02 18 C 3.07 g/m*3 18 C 0 km/h
2940 18-04-2010 13:16:02 18.5 C 3.16 g/m*3 18.5 C 0 km/h
2941 18-04-2010 13:28:02 19.5 C 3.36 g/m*3 19.5 C 0 km/h
2942 18-04-2010 13:40:02 19.7 C 3.4 g/m*3 19.7 C 0 km/h
2943 18-04-2010 13:52:01 20.6 C 3.58 g/m*3 20.6 C 0 km/h
2944 18-04-2010 14:04:02 20.1 C 3.48 g/m*3 20.1 C 0 km/h
2945 18-04-2010 14:16:01 21 C 3.66 g/m*3 21 C 0 km/h
2946 18-04-2010 14:28:01 22.2 C 3.93 g/m*3 22.2 C 0 km/h
2947 18-04-2010 14:40:02 22 C 3.88 g/m*3 22 C 0 km/h
2948 18-04-2010 14:52:02 22.7 C 4.04 g/m*3 22.7 C 0 km/h
2949 18-04-2010 15:04:01 23.1 C 4.13 g/m*3 23.1 C 0 km/h
2950 18-04-2010 15:16:02 23.5 C 4.23 g/m*3 23.5 C 0 km/h
Sensor: Nr:Datum:Temp:Abs-Feuchte:Windchill:Wind:
Aussen-T/F 2951 18-04-2010 15:28:02 23.6 C 4.25 g/m*3 23.6 C 0 km/h
2952 18-04-2010 15:40:02 23.3 C 4.18 g/m*3 23.3 C 0 km/h
2953 18-04-2010 15:52:01 22.9 C 4.09 g/m*3 22.9 C 0 km/h
2954 18-04-2010 16:04:02 24 C 4.35 g/m*3 24 C 0 km/h
2955 18-04-2010 16:16:01 23.7 C 4.28 g/m*3 23.7 C 0 km/h
2956 18-04-2010 16:28:01 24.6 C 4.5 g/m*3 24.6 C 0 km/h
2957 18-04-2010 16:40:02 24.7 C 4.53 g/m*3 24.7 C 0 km/h
2958 18-04-2010 16:52:02 25.1 C 4.63 g/m*3 25.1 C 0 km/h
2959 18-04-2010 17:04:02 26 C 4.87 g/m*3 26 C 0 km/h
2960 18-04-2010 17:16:02 26.9 C 5.12 g/m*3 26.9 C 0 km/h
2961 18-04-2010 17:28:02 25.9 C 4.84 g/m*3 25.9 C 0 km/h
2962 18-04-2010 17:40:02 25.1 C 4.63 g/m*3 25.1 C 0 km/h
2963 18-04-2010 17:52:02 24.9 C 4.58 g/m*3 24.9 C 0 km/h
2964 18-04-2010 18:04:01 25.9 C 4.84 g/m*3 25.9 C 0 km/h
2965 18-04-2010 18:16:01 25.9 C 4.84 g/m*3 25.9 C 0 km/h
2966 18-04-2010 18:28:01 25 C 4.6 g/m*3 25 C 0 km/h
2967 18-04-2010 18:40:02 25.5 C 4.73 g/m*3 25.5 C 0 km/h
2968 18-04-2010 18:52:02 24.8 C 4.55 g/m*3 24.8 C 0 km/h
2969 18-04-2010 19:04:02 24.5 C 4.48 g/m*3 24.5 C 0 km/h
2970 18-04-2010 19:16:02 24.1 C 4.38 g/m*3 24.1 C 0 km/h
2971 18-04-2010 19:28:02 24.6 C 4.5 g/m*3 24.6 C 0 km/h
2972 18-04-2010 19:40:02 24.1 C 4.38 g/m*3 24.1 C 0 km/h
2973 18-04-2010 19:52:02 22.7 C 4.04 g/m*3 22.7 C 0 km/h
2974 18-04-2010 20:04:02 21.1 C 3.69 g/m*3 21.1 C 0 km/h
2975 18-04-2010 20:16:01 20 C 3.46 g/m*3 20 C 0 km/h
Sensor: Nr:Datum:Temp:Abs-Feuchte:Windchill:Wind:
Aussen-T/F 2976 18-04-2010 20:28:01 19.1 C 3.28 g/m*3 19.1 C 0 km/h
2977 18-04-2010 20:40:02 18.3 C 3.13 g/m*3 18.3 C 0 km/h
2978 18-04-2010 20:52:02 18.1 C 3.09 g/m*3 18.1 C 0 km/h
2979 18-04-2010 21:04:02 17.8 C 3.04 g/m*3 17.8 C 0 km/h
2980 18-04-2010 21:16:02 17.5 C 2.98 g/m*3 17.5 C 0 km/h
2981 18-04-2010 21:28:02 17.2 C 2.93 g/m*3 17.2 C 0 km/h
2982 18-04-2010 21:40:02 16.7 C 2.84 g/m*3 16.7 C 0 km/h
2983 18-04-2010 21:52:01 16.4 C 2.79 g/m*3 16.4 C 0 km/h
2984 18-04-2010 22:04:01 15.7 C 2.68 g/m*3 15.7 C 0 km/h
2985 18-04-2010 22:17:03 15.5 C 2.64 g/m*3 15.5 C 0 km/h
2986 18-04-2010 22:29:03 15 C 2.82 g/m*3 15 C 0 km/h
2987 18-04-2010 22:41:03 14.5 C 3.23 g/m*3 14.5 C 0 km/h
2988 18-04-2010 22:53:03 14.1 C 3.16 g/m*3 14.1 C 0 km/h
2989 18-04-2010 23:05:03 13.9 C 3.12 g/m*3 13.9 C 0 km/h
2990 18-04-2010 23:17:03 13.4 C 3.14 g/m*3 13.4 C 0 km/h
2991 18-04-2010 23:29:03 12.7 C 3.45 g/m*3 12.7 C 0 km/h
2992 18-04-2010 23:41:03 12.3 C 3.58 g/m*3 12.3 C 0 km/h
2993 18-04-2010 23:53:03 12.1 C 3.65 g/m*3 12.1 C 0 km/h
2994 19-04-2010 00:05:03 11.7 C 3.87 g/m*3 11.7 C 0 km/h
2995 19-04-2010 00:17:03 11.3 C 4.08 g/m*3 11.3 C 0 km/h
2996 19-04-2010 00:29:03 10.9 C 4.18 g/m*3 10.9 C 0 km/h
2997 19-04-2010 00:41:03 10.7 C 4.13 g/m*3 10.7 C 0 km/h
2998 19-04-2010 00:53:04 10.7 C 4.13 g/m*3 10.7 C 0 km/h
2999 19-04-2010 01:05:04 10.6 C 4 g/m*3 10.6 C 0 km/h
3000 19-04-2010 01:17:04 10.3 C 3.83 g/m*3 10.3 C 0 km/h
Sensor: Nr:Datum:Temp:Abs-Feuchte:Windchill:Wind:
Aussen-T/F 3001 19-04-2010 01:29:04 10.2 C 3.81 g/m*3 10.2 C 0 km/h
3002 19-04-2010 01:41:04 10.1 C 3.88 g/m*3 10.1 C 0 km/h
3003 19-04-2010 01:53:04 9.8 C 3.9 g/m*3 9.8 C 0 km/h
3004 19-04-2010 02:05:04 9.4 C 4.07 g/m*3 9.4 C 0 km/h
3005 19-04-2010 02:17:04 9 C 4.06 g/m*3 9 C 0 km/h
3006 19-04-2010 02:29:04 8.9 C 4.03 g/m*3 8.9 C 0 km/h
3007 19-04-2010 02:41:04 8.6 C 4.12 g/m*3 8.6 C 0 km/h
3008 19-04-2010 02:53:04 8.5 C 4.1 g/m*3 8.5 C 0 km/h
3009 19-04-2010 03:05:04 8.4 C 4.07 g/m*3 8.4 C 0 km/h
3010 19-04-2010 03:17:04 8 C 4.22 g/m*3 8 C 0 km/h
3011 19-04-2010 03:29:04 8 C 4.22 g/m*3 8 C 0 km/h
3012 19-04-2010 03:41:04 7.8 C 4.33 g/m*3 7.8 C 0 km/h
3013 19-04-2010 03:53:04 7.5 C 4.32 g/m*3 7.5 C 0 km/h
3014 19-04-2010 04:05:04 7.4 C 4.29 g/m*3 7.4 C 0 km/h
3015 19-04-2010 04:17:04 7.3 C 4.35 g/m*3 7.3 C 0 km/h
3016 19-04-2010 04:29:04 7 C 4.34 g/m*3 7 C 0 km/h
3017 19-04-2010 04:41:04 6.8 C 4.36 g/m*3 6.8 C 0 km/h
3018 19-04-2010 04:53:05 6.6 C 4.38 g/m*3 6.6 C 0 km/h
3019 19-04-2010 05:05:05 6.6 C 4.45 g/m*3 6.6 C 0 km/h
3020 19-04-2010 05:17:05 6.8 C 4.59 g/m*3 6.8 C 0 km/h
3021 19-04-2010 05:29:05 6.2 C 4.49 g/m*3 6.2 C 0 km/h
3022 19-04-2010 05:41:05 5.9 C 4.54 g/m*3 5.9 C 0 km/h
3023 19-04-2010 05:53:05 5.8 C 4.58 g/m*3 5.8 C 0 km/h
3024 19-04-2010 06:05:05 5.7 C 4.55 g/m*3 5.7 C 0 km/h
3025 19-04-2010 06:17:05 5.4 C 4.54 g/m*3 5.4 C 0 km/h
Sensor: Nr:Datum:Temp:Abs-Feuchte:Windchill:Wind:
Aussen-T/F 3026 19-04-2010 06:29:05 5.2 C 4.54 g/m*3 5.2 C 0 km/h
3027 19-04-2010 06:41:05 5.1 C 4.65 g/m*3 5.1 C 0 km/h
3028 19-04-2010 06:53:05 5 C 4.62 g/m*3 5 C 0 km/h
3029 19-04-2010 07:05:02 5 C 4.62 g/m*3 5 C 0 km/h
3030 19-04-2010 07:17:02 4.8 C 4.63 g/m*3 4.8 C 0 km/h
3031 19-04-2010 07:29:02 4.9 C 4.73 g/m*3 4.9 C 0 km/h
3032 19-04-2010 07:41:02 5.2 C 4.75 g/m*3 5.2 C 0 km/h
3033 19-04-2010 07:53:02 5.4 C 4.81 g/m*3 5.4 C 0 km/h
3034 19-04-2010 08:05:02 5.7 C 4.77 g/m*3 5.7 C 0 km/h
3035 19-04-2010 08:17:02 6 C 4.79 g/m*3 6 C 0 km/h
3036 19-04-2010 08:29:02 6.2 C 4.78 g/m*3 6.2 C 0 km/h
3037 19-04-2010 08:41:02 6.6 C 4.91 g/m*3 6.6 C 0 km/h
3038 19-04-2010 08:53:01 7.5 C 5.36 g/m*3 7.5 C 0 km/h
3039 19-04-2010 09:05:02 8.4 C 5.77 g/m*3 8.4 C 0 km/h
3040 19-04-2010 09:17:01 8.8 C 5.83 g/m*3 8.8 C 0 km/h
3041 19-04-2010 09:29:01 9.1 C 5.77 g/m*3 9.1 C 0 km/h
3042 19-04-2010 09:41:02 9.4 C 5.79 g/m*3 9.4 C 0 km/h
3043 19-04-2010 09:53:02 9.7 C 5.81 g/m*3 9.7 C 0 km/h
3044 19-04-2010 10:05:02 10.1 C 5.77 g/m*3 10.1 C 0 km/h
3045 19-04-2010 10:17:01 10.4 C 5.78 g/m*3 10.4 C 0 km/h
3046 19-04-2010 10:29:01 10.7 C 5.7 g/m*3 10.7 C 0 km/h
3047 19-04-2010 10:41:02 11.2 C 5.68 g/m*3 11.2 C 0 km/h
3048 19-04-2010 10:53:02 11.2 C 5.68 g/m*3 11.2 C 0 km/h
3049 19-04-2010 11:05:02 11.6 C 5.82 g/m*3 11.6 C 0 km/h
3050 19-04-2010 11:17:02 12.2 C 5.72 g/m*3 12.2 C 0 km/h
Sensor: Nr:Datum:Temp:Abs-Feuchte:Windchill:Wind:
Aussen-T/F 3051 19-04-2010 11:29:02 12.5 C 5.72 g/m*3 12.5 C 0 km/h
3052 19-04-2010 11:41:02 12.9 C 5.75 g/m*3 12.9 C 0 km/h
3053 19-04-2010 11:53:02 12.7 C 5.57 g/m*3 12.7 C 0 km/h
3054 19-04-2010 12:05:02 13 C 5.67 g/m*3 13 C 0 km/h
3055 19-04-2010 12:17:02 13.1 C 5.48 g/m*3 13.1 C 0 km/h
3056 19-04-2010 12:29:02 13.6 C 5.65 g/m*3 13.6 C 0 km/h
3057 19-04-2010 12:41:02 13.6 C 5.65 g/m*3 13.6 C 0 km/h
3058 19-04-2010 12:53:01 13.8 C 5.6 g/m*3 13.8 C 0 km/h
3059 19-04-2010 13:05:02 13.6 C 5.53 g/m*3 13.6 C 0 km/h
3060 19-04-2010 13:17:01 13.9 C 5.63 g/m*3 13.9 C 0 km/h
3061 19-04-2010 13:29:01 14 C 5.55 g/m*3 14 C 0 km/h
3062 19-04-2010 13:41:01 14.3 C 5.41 g/m*3 14.3 C 0 km/h
3063 19-04-2010 13:53:01 14.2 C 5.37 g/m*3 14.2 C 0 km/h
3064 19-04-2010 14:05:02 14.8 C 5.57 g/m*3 14.8 C 0 km/h
3065 19-04-2010 14:17:01 14.8 C 5.19 g/m*3 14.8 C 0 km/h
3066 19-04-2010 14:29:01 15.6 C 5.45 g/m*3 15.6 C 0 km/h
3067 19-04-2010 14:41:02 16.6 C 5.51 g/m*3 16.6 C 0 km/h
3068 19-04-2010 14:53:02 16.2 C 5.24 g/m*3 16.2 C 0 km/h
3069 19-04-2010 15:05:02 15.3 C 5.22 g/m*3 15.3 C 0 km/h
3070 19-04-2010 15:17:01 15.2 C 5.19 g/m*3 15.2 C 0 km/h
3071 19-04-2010 15:29:01 15.9 C 5.28 g/m*3 15.9 C 0 km/h
3072 19-04-2010 15:41:02 16.5 C 5.2 g/m*3 16.5 C 0 km/h
3073 19-04-2010 15:53:02 16 C 5.04 g/m*3 16 C 0 km/h
3074 19-04-2010 16:05:02 15.8 C 5.25 g/m*3 15.8 C 0 km/h
3075 19-04-2010 16:17:01 15.6 C 5.19 g/m*3 15.6 C 0 km/h
Sensor: Nr:Datum:Temp:Abs-Feuchte:Windchill:Wind:
Aussen-T/F 3076 19-04-2010 16:29:01 16.5 C 5.34 g/m*3 16.5 C 0 km/h
3077 19-04-2010 16:41:02 16.2 C 5.1 g/m*3 16.2 C 0 km/h
3078 19-04-2010 16:53:02 16.9 C 5.18 g/m*3 16.9 C 0 km/h
3079 19-04-2010 17:05:02 16.4 C 5.02 g/m*3 16.4 C 0 km/h
3080 19-04-2010 17:17:01 16.3 C 5.13 g/m*3 16.3 C 0 km/h
3081 19-04-2010 17:29:01 16.9 C 5.32 g/m*3 16.9 C 0 km/h
3082 19-04-2010 17:41:02 16.9 C 5.18 g/m*3 16.9 C 0 km/h
3083 19-04-2010 17:53:02 16.7 C 5.12 g/m*3 16.7 C 0 km/h
3084 19-04-2010 18:05:02 16.4 C 5.02 g/m*3 16.4 C 0 km/h
3085 19-04-2010 18:17:02 16.5 C 4.77 g/m*3 16.5 C 0 km/h
3086 19-04-2010 18:29:02 16.1 C 4.8 g/m*3 16.1 C 0 km/h
3087 19-04-2010 18:41:02 16.1 C 4.93 g/m*3 16.1 C 0 km/h
3088 19-04-2010 18:53:02 16.2 C 4.83 g/m*3 16.2 C 0 km/h
3089 19-04-2010 19:05:02 16.4 C 5.02 g/m*3 16.4 C 0 km/h
3090 19-04-2010 19:17:02 15.3 C 4.96 g/m*3 15.3 C 0 km/h
3091 19-04-2010 19:29:02 15 C 5.13 g/m*3 15 C 0 km/h
3092 19-04-2010 19:41:02 14.8 C 5.19 g/m*3 14.8 C 0 km/h
3093 19-04-2010 19:53:01 14.3 C 5.16 g/m*3 14.3 C 0 km/h
3094 19-04-2010 20:05:02 13.9 C 5.39 g/m*3 13.9 C 0 km/h
3095 19-04-2010 20:17:02 13.3 C 5.31 g/m*3 13.3 C 0 km/h
3096 19-04-2010 20:29:02 13 C 5.33 g/m*3 13 C 0 km/h
3097 19-04-2010 20:41:02 12.6 C 5.42 g/m*3 12.6 C 0 km/h
3098 19-04-2010 20:53:02 12.3 C 5.43 g/m*3 12.3 C 0 km/h
3099 19-04-2010 21:05:02 12.1 C 5.36 g/m*3 12.1 C 0 km/h
3100 19-04-2010 21:17:02 11.8 C 5.47 g/m*3 11.8 C 0 km/h
Sensor: Nr:Datum:Temp:Abs-Feuchte:Windchill:Wind:
Aussen-T/F 3101 19-04-2010 21:29:02 11.7 C 5.54 g/m*3 11.7 C 0 km/h
3102 19-04-2010 21:41:01 11.4 C 5.44 g/m*3 11.4 C 0 km/h
3103 19-04-2010 21:53:02 11.4 C 5.54 g/m*3 11.4 C 0 km/h
3104 19-04-2010 22:06:03 11 C 5.51 g/m*3 11 C 0 km/h
3105 19-04-2010 22:18:03 10.9 C 5.67 g/m*3 10.9 C 0 km/h
3106 19-04-2010 22:30:03 10.5 C 5.63 g/m*3 10.5 C 0 km/h
3107 19-04-2010 22:42:03 10.4 C 5.59 g/m*3 10.4 C 0 km/h
3108 19-04-2010 22:54:03 10.3 C 5.65 g/m*3 10.3 C 0 km/h
3109 19-04-2010 23:06:03 10.3 C 5.65 g/m*3 10.3 C 0 km/h
3110 19-04-2010 23:18:03 10.1 C 5.58 g/m*3 10.1 C 0 km/h
3111 19-04-2010 23:30:03 9.7 C 5.62 g/m*3 9.7 C 0 km/h
3112 19-04-2010 23:42:03 9.4 C 5.61 g/m*3 9.4 C 0 km/h
3113 19-04-2010 23:54:03 9.2 C 5.54 g/m*3 9.2 C 0 km/h
3114 20-04-2010 00:06:03 9 C 5.47 g/m*3 9 C 0 km/h
3115 20-04-2010 00:18:03 8.9 C 5.52 g/m*3 8.9 C 0 km/h
3116 20-04-2010 00:30:03 8.6 C 5.41 g/m*3 8.6 C 0 km/h
3117 20-04-2010 00:42:03 8.4 C 5.43 g/m*3 8.4 C 0 km/h
3118 20-04-2010 00:54:03 8.3 C 5.48 g/m*3 8.3 C 0 km/h
3119 20-04-2010 01:06:03 8.2 C 5.36 g/m*3 8.2 C 0 km/h
3120 20-04-2010 01:18:04 8 C 5.37 g/m*3 8 C 0 km/h
3121 20-04-2010 01:30:04 7.8 C 5.39 g/m*3 7.8 C 0 km/h
3122 20-04-2010 01:42:04 7.7 C 5.35 g/m*3 7.7 C 0 km/h
3123 20-04-2010 01:54:04 7.4 C 5.41 g/m*3 7.4 C 0 km/h
3124 20-04-2010 02:06:04 7.1 C 5.46 g/m*3 7.1 C 0 km/h
3125 20-04-2010 02:18:04 6.9 C 5.54 g/m*3 6.9 C 0 km/h
Sensor: Nr:Datum:Temp:Abs-Feuchte:Windchill:Wind:
Aussen-T/F 3126 20-04-2010 02:30:04 6.7 C 5.47 g/m*3 6.7 C 0 km/h
3127 20-04-2010 02:42:04 6.5 C 5.47 g/m*3 6.5 C 0 km/h
3128 20-04-2010 02:54:04 6.3 C 5.48 g/m*3 6.3 C 0 km/h
3129 20-04-2010 03:06:04 6.1 C 5.41 g/m*3 6.1 C 0 km/h
3130 20-04-2010 03:18:04 6 C 5.44 g/m*3 6 C 0 km/h
3131 20-04-2010 03:30:04 5.8 C 5.44 g/m*3 5.8 C 0 km/h
3132 20-04-2010 03:42:04 5.7 C 5.55 g/m*3 5.7 C 0 km/h
3133 20-04-2010 03:54:04 5.6 C 5.59 g/m*3 5.6 C 0 km/h
3134 20-04-2010 04:06:04 5.4 C 5.51 g/m*3 5.4 C 0 km/h
3135 20-04-2010 04:18:04 5.2 C 5.44 g/m*3 5.2 C 0 km/h
3136 20-04-2010 04:30:04 5 C 5.44 g/m*3 5 C 0 km/h
3137 20-04-2010 04:42:04 4.8 C 5.43 g/m*3 4.8 C 0 km/h
3138 20-04-2010 04:54:04 4.7 C 5.4 g/m*3 4.7 C 0 km/h
3139 20-04-2010 05:06:04 4.6 C 5.43 g/m*3 4.6 C 0 km/h
3140 20-04-2010 05:18:05 4.5 C 5.32 g/m*3 4.5 C 0 km/h
3141 20-04-2010 05:30:05 4.4 C 5.35 g/m*3 4.4 C 0 km/h
3142 20-04-2010 05:42:05 4.2 C 5.28 g/m*3 4.2 C 0 km/h
3143 20-04-2010 05:54:05 4.1 C 5.25 g/m*3 4.1 C 0 km/h
3144 20-04-2010 06:06:05 3.9 C 5.31 g/m*3 3.9 C 0 km/h
3145 20-04-2010 06:18:05 3.8 C 5.27 g/m*3 3.8 C 0 km/h
3146 20-04-2010 06:30:05 3.6 C 5.2 g/m*3 3.6 C 0 km/h
3147 20-04-2010 06:42:05 3.6 C 5.26 g/m*3 3.6 C 0 km/h
3148 20-04-2010 06:54:02 3.5 C 5.23 g/m*3 3.5 C 0 km/h
3149 20-04-2010 07:06:02 3.4 C 5.19 g/m*3 3.4 C 0 km/h
3150 20-04-2010 07:18:02 3.4 C 5.19 g/m*3 3.4 C 0 km/h
Sensor: Nr:Datum:Temp:Abs-Feuchte:Windchill:Wind:
Aussen-T/F 3151 20-04-2010 07:30:02 3.5 C 5.29 g/m*3 3.5 C 0 km/h
3152 20-04-2010 07:42:01 3.5 C 5.29 g/m*3 3.5 C 0 km/h
3153 20-04-2010 07:54:02 3.5 C 5.29 g/m*3 3.5 C 0 km/h
3154 20-04-2010 08:06:01 3.5 C 5.35 g/m*3 3.5 C 0 km/h
3155 20-04-2010 08:18:02 3.5 C 5.35 g/m*3 3.5 C 0 km/h
3156 20-04-2010 08:30:02 3.7 C 5.48 g/m*3 3.7 C 0 km/h
3157 20-04-2010 08:42:01 4 C 5.59 g/m*3 4 C 0 km/h
3158 20-04-2010 08:54:01 4.2 C 5.61 g/m*3 4.2 C 0 km/h
3159 20-04-2010 09:06:01 4.4 C 5.68 g/m*3 4.4 C 0 km/h
3160 20-04-2010 09:18:02 4.8 C 5.83 g/m*3 4.8 C 0 km/h
3161 20-04-2010 09:30:02 5.3 C 5.89 g/m*3 5.3 C 0 km/h
3162 20-04-2010 09:42:01 6 C 5.95 g/m*3 6 C 0 km/h
3163 20-04-2010 09:54:03 6.9 C 6.31 g/m*3 6.9 C 0 km/h
3164 20-04-2010 10:06:02 7.6 C 6.2 g/m*3 7.6 C 0 km/h
3165 20-04-2010 10:18:02 8.2 C 6.11 g/m*3 8.2 C 0 km/h
3166 20-04-2010 10:30:02 9.1 C 5.94 g/m*3 9.1 C 0 km/h
3167 20-04-2010 10:42:02 10 C 5.92 g/m*3 10 C 0 km/h
3168 20-04-2010 10:54:02 10.8 C 5.83 g/m*3 10.8 C 0 km/h
3169 20-04-2010 11:06:02 11.7 C 5.65 g/m*3 11.7 C 0 km/h
3170 20-04-2010 11:18:02 12.3 C 5.54 g/m*3 12.3 C 0 km/h
3171 20-04-2010 11:30:02 12.8 C 5.49 g/m*3 12.8 C 0 km/h
3172 20-04-2010 11:42:02 13.4 C 5.35 g/m*3 13.4 C 0 km/h
3173 20-04-2010 11:54:01 14.2 C 5.25 g/m*3 14.2 C 0 km/h
3174 20-04-2010 12:06:02 14.8 C 5.07 g/m*3 14.8 C 0 km/h
3175 20-04-2010 12:18:02 15.5 C 4.76 g/m*3 15.5 C 0 km/h
Sensor: Nr:Datum:Temp:Abs-Feuchte:Windchill:Wind:
Aussen-T/F 3176 20-04-2010 12:30:02 16.2 C 4.14 g/m*3 16.2 C 0 km/h
3177 20-04-2010 12:42:02 16.9 C 4.03 g/m*3 16.9 C 0 km/h
3178 20-04-2010 12:54:02 17.4 C 4 g/m*3 17.4 C 0 km/h
3179 20-04-2010 13:06:02 18 C 3.07 g/m*3 18 C 0 km/h
3180 20-04-2010 13:18:02 18.6 C 3.18 g/m*3 18.6 C 0 km/h
3181 20-04-2010 13:30:02 18.1 C 3.09 g/m*3 18.1 C 0 km/h
3182 20-04-2010 13:42:01 19.1 C 3.28 g/m*3 19.1 C 0 km/h
3183 20-04-2010 13:54:02 18.8 C 3.22 g/m*3 18.8 C 0 km/h
3184 20-04-2010 14:06:01 19.3 C 3.32 g/m*3 19.3 C 0 km/h
3185 20-04-2010 14:18:02 19.1 C 3.28 g/m*3 19.1 C 0 km/h
3186 20-04-2010 14:30:02 18.5 C 3.16 g/m*3 18.5 C 0 km/h
3187 20-04-2010 14:42:01 18.9 C 3.24 g/m*3 18.9 C 0 km/h
3188 20-04-2010 14:54:02 20.2 C 3.5 g/m*3 20.2 C 0 km/h
3189 20-04-2010 15:06:01 20.4 C 3.54 g/m*3 20.4 C 0 km/h
3190 20-04-2010 15:18:02 20.7 C 3.6 g/m*3 20.7 C 0 km/h
3191 20-04-2010 15:30:02 20.9 C 3.64 g/m*3 20.9 C 0 km/h
3192 20-04-2010 15:42:01 20.8 C 3.62 g/m*3 20.8 C 0 km/h
3193 20-04-2010 15:54:03 21.3 C 3.73 g/m*3 21.3 C 0 km/h
3194 20-04-2010 16:06:02 21.4 C 3.75 g/m*3 21.4 C 0 km/h
3195 20-04-2010 16:18:02 21.6 C 3.79 g/m*3 21.6 C 0 km/h
3196 20-04-2010 16:30:02 21.5 C 3.77 g/m*3 21.5 C 0 km/h
3197 20-04-2010 16:42:02 21.1 C 3.69 g/m*3 21.1 C 0 km/h
3198 20-04-2010 16:54:02 20.6 C 3.58 g/m*3 20.6 C 0 km/h
3199 20-04-2010 17:06:02 19.9 C 3.44 g/m*3 19.9 C 0 km/h
3200 20-04-2010 17:18:02 19.7 C 3.4 g/m*3 19.7 C 0 km/h
Sensor: Nr:Datum:Temp:Abs-Feuchte:Windchill:Wind:
Aussen-T/F 3201 20-04-2010 17:30:02 18.9 C 3.73 g/m*3 18.9 C 0 km/h
3202 20-04-2010 17:42:02 18.8 C 4.03 g/m*3 18.8 C 0 km/h
3203 20-04-2010 17:54:02 18 C 3.99 g/m*3 18 C 0 km/h
3204 20-04-2010 18:06:02 17.5 C 4.03 g/m*3 17.5 C 0 km/h
3205 20-04-2010 18:18:02 18 C 4.15 g/m*3 18 C 0 km/h
3206 20-04-2010 18:30:02 17.9 C 4.12 g/m*3 17.9 C 0 km/h
3207 20-04-2010 18:42:02 16.7 C 3.84 g/m*3 16.7 C 0 km/h
3208 20-04-2010 18:54:02 16.9 C 4.03 g/m*3 16.9 C 0 km/h
3209 20-04-2010 19:06:01 16.5 C 4.07 g/m*3 16.5 C 0 km/h
3210 20-04-2010 19:18:02 15.9 C 4.06 g/m*3 15.9 C 0 km/h
3211 20-04-2010 19:30:03 15.5 C 3.97 g/m*3 15.5 C 0 km/h
3212 20-04-2010 19:42:01 14.9 C 4.08 g/m*3 14.9 C 0 km/h
3213 20-04-2010 19:54:02 14.5 C 3.86 g/m*3 14.5 C 0 km/h
3214 20-04-2010 20:06:01 13.9 C 3.6 g/m*3 13.9 C 0 km/h
3215 20-04-2010 20:18:01 13.3 C 3.35 g/m*3 13.3 C 0 km/h
3216 20-04-2010 20:30:01 12.8 C 3.14 g/m*3 12.8 C 0 km/h
3217 20-04-2010 20:42:01 12.3 C 2.93 g/m*3 12.3 C 0 km/h
3218 20-04-2010 20:54:02 12.1 C 3 g/m*3 12.1 C 0 km/h
3219 20-04-2010 21:06:02 11.6 C 2.91 g/m*3 11.6 C 0 km/h
3220 20-04-2010 21:18:02 11.4 C 2.77 g/m*3 11.4 C 0 km/h
3221 20-04-2010 21:30:02 11.1 C 2.62 g/m*3 11.1 C 0 km/h
3222 20-04-2010 21:42:02 10.8 C 2.77 g/m*3 10.8 C 0 km/h
3223 20-04-2010 21:54:02 10.6 C 2.73 g/m*3 10.6 C 0 km/h
3224 20-04-2010 22:06:02 10.3 C 2.87 g/m*3 10.3 C 0 km/h
3225 20-04-2010 22:19:02 10 C 2.91 g/m*3 10 C 0 km/h
Sensor: Nr:Datum:Temp:Abs-Feuchte:Windchill:Wind:
Aussen-T/F 3226 20-04-2010 22:31:02 9.9 C 3.08 g/m*3 9.9 C 0 km/h
3227 20-04-2010 22:43:02 9.7 C 3.23 g/m*3 9.7 C 0 km/h
3228 20-04-2010 22:55:02 9.4 C 3.17 g/m*3 9.4 C 0 km/h
3229 20-04-2010 23:07:02 9.2 C 3.13 g/m*3 9.2 C 0 km/h
3230 20-04-2010 23:19:02 9 C 3.09 g/m*3 9 C 0 km/h
3231 20-04-2010 23:31:02 8.9 C 3.15 g/m*3 8.9 C 0 km/h
3232 20-04-2010 23:43:02 8.6 C 3.27 g/m*3 8.6 C 0 km/h
3233 20-04-2010 23:55:03 8.4 C 3.31 g/m*3 8.4 C 0 km/h
3234 21-04-2010 00:07:03 8.2 C 3.35 g/m*3 8.2 C 0 km/h
3235 21-04-2010 00:19:03 8 C 3.39 g/m*3 8 C 0 km/h